﻿<?xml version="1.0" encoding="utf-8"?><gpx creator="Garmin Desktop App" version="1.1" xsi:schemaLocation="http://www.topografix.com/GPX/1/1 http://www.topografix.com/GPX/1/1/gpx.xsd http://www.garmin.com/xmlschemas/WaypointExtension/v1 http://www8.garmin.com/xmlschemas/WaypointExtensionv1.xsd http://www.garmin.com/xmlschemas/TrackPointExtension/v1 http://www.garmin.com/xmlschemas/TrackPointExtensionv1.xsd http://www.garmin.com/xmlschemas/GpxExtensions/v3 http://www8.garmin.com/xmlschemas/GpxExtensionsv3.xsd http://www.garmin.com/xmlschemas/ActivityExtension/v1 http://www8.garmin.com/xmlschemas/ActivityExtensionv1.xsd http://www.garmin.com/xmlschemas/AdventuresExtensions/v1 http://www8.garmin.com/xmlschemas/AdventuresExtensionv1.xsd http://www.garmin.com/xmlschemas/PressureExtension/v1 http://www.garmin.com/xmlschemas/PressureExtensionv1.xsd http://www.garmin.com/xmlschemas/TripExtensions/v1 http://www.garmin.com/xmlschemas/TripExtensionsv1.xsd http://www.garmin.com/xmlschemas/TripMetaDataExtensions/v1 http://www.garmin.com/xmlschemas/TripMetaDataExtensionsv1.xsd http://www.garmin.com/xmlschemas/ViaPointTransportationModeExtensions/v1 http://www.garmin.com/xmlschemas/ViaPointTransportationModeExtensionsv1.xsd http://www.garmin.com/xmlschemas/CreationTimeExtension/v1 http://www.garmin.com/xmlschemas/CreationTimeExtensionsv1.xsd http://www.garmin.com/xmlschemas/AccelerationExtension/v1 http://www.garmin.com/xmlschemas/AccelerationExtensionv1.xsd http://www.garmin.com/xmlschemas/PowerExtension/v1 http://www.garmin.com/xmlschemas/PowerExtensionv1.xsd http://www.garmin.com/xmlschemas/VideoExtension/v1 http://www.garmin.com/xmlschemas/VideoExtensionv1.xsd" xmlns="http://www.topografix.com/GPX/1/1" xmlns:xsi="http://www.w3.org/2001/XMLSchema-instance" xmlns:wptx1="http://www.garmin.com/xmlschemas/WaypointExtension/v1" xmlns:gpxtrx="http://www.garmin.com/xmlschemas/GpxExtensions/v3" xmlns:gpxtpx="http://www.garmin.com/xmlschemas/TrackPointExtension/v1" xmlns:gpxx="http://www.garmin.com/xmlschemas/GpxExtensions/v3" xmlns:trp="http://www.garmin.com/xmlschemas/TripExtensions/v1" xmlns:adv="http://www.garmin.com/xmlschemas/AdventuresExtensions/v1" xmlns:prs="http://www.garmin.com/xmlschemas/PressureExtension/v1" xmlns:tmd="http://www.garmin.com/xmlschemas/TripMetaDataExtensions/v1" xmlns:vptm="http://www.garmin.com/xmlschemas/ViaPointTransportationModeExtensions/v1" xmlns:ctx="http://www.garmin.com/xmlschemas/CreationTimeExtension/v1" xmlns:gpxacc="http://www.garmin.com/xmlschemas/AccelerationExtension/v1" xmlns:gpxpx="http://www.garmin.com/xmlschemas/PowerExtension/v1" xmlns:vidx1="http://www.garmin.com/xmlschemas/VideoExtension/v1">

  <metadata>
    <link href="http://www.garmin.com">
      <text>Garmin International</text>
    </link>
    <time>2022-02-27T17:01:57Z</time>
    <bounds maxlat="46.163587616756558" maxlon="8.5449059586972" minlat="46.145075177773833" minlon="8.533389894291759" />
  </metadata>

  <trk>
    <name>monte-ziccher2022-02-27</name>
    <extensions>
      <gpxx:TrackExtension>
        <gpxx:DisplayColor>Yellow</gpxx:DisplayColor>
      </gpxx:TrackExtension>
      <gpxtrkx:TrackStatsExtension xmlns:gpxtrkx="http://www.garmin.com/xmlschemas/TrackStatsExtension/v1">
        <gpxtrkx:Distance>7436</gpxtrkx:Distance>
        <gpxtrkx:TotalElapsedTime>20911</gpxtrkx:TotalElapsedTime>
        <gpxtrkx:MovingTime>9645</gpxtrkx:MovingTime>
        <gpxtrkx:StoppedTime>11256</gpxtrkx:StoppedTime>
        <gpxtrkx:MovingSpeed>0.771</gpxtrkx:MovingSpeed>
        <gpxtrkx:MaxSpeed>3.039</gpxtrkx:MaxSpeed>
        <gpxtrkx:MaxElevation>1978.234</gpxtrkx:MaxElevation>
        <gpxtrkx:MinElevation>1207.582</gpxtrkx:MinElevation>
        <gpxtrkx:Ascent>675</gpxtrkx:Ascent>
        <gpxtrkx:Descent>786.422</gpxtrkx:Descent>
        <gpxtrkx:AvgAscentRate>0.05</gpxtrkx:AvgAscentRate>
        <gpxtrkx:MaxAscentRate>0.273</gpxtrkx:MaxAscentRate>
        <gpxtrkx:AvgDescentRate>0.084</gpxtrkx:AvgDescentRate>
        <gpxtrkx:MaxDescentRate>-0.648</gpxtrkx:MaxDescentRate>
      </gpxtrkx:TrackStatsExtension>
    </extensions>
    <trkseg>
      <trkpt lat="46.147958049550653" lon="8.538214350119233">
        <ele>1318.21</ele>
        <time>2022-02-27T08:14:18Z</time>
      </trkpt>
      <trkpt lat="46.147957881912589" lon="8.538214853033423">
        <ele>1318.21</ele>
        <time>2022-02-27T08:14:19Z</time>
      </trkpt>
      <trkpt lat="46.147957881912589" lon="8.538215439766645">
        <ele>1321.3800000000001</ele>
        <time>2022-02-27T08:14:22Z</time>
      </trkpt>
      <trkpt lat="46.147958049550653" lon="8.538215355947614">
        <ele>1321.3800000000001</ele>
        <time>2022-02-27T08:14:23Z</time>
      </trkpt>
      <trkpt lat="46.147961318492889" lon="8.538213428109884">
        <ele>1321.3399999999999</ele>
        <time>2022-02-27T08:14:40Z</time>
      </trkpt>
      <trkpt lat="46.147969281300902" lon="8.538214014843106">
        <ele>1321.3499999999999</ele>
        <time>2022-02-27T08:14:55Z</time>
      </trkpt>
      <trkpt lat="46.148027870804071" lon="8.538215355947614">
        <ele>1322.51</ele>
        <time>2022-02-27T08:15:05Z</time>
      </trkpt>
      <trkpt lat="46.148103727027774" lon="8.538276795297861">
        <ele>1324.8299999999999</ele>
        <time>2022-02-27T08:15:16Z</time>
      </trkpt>
      <trkpt lat="46.148171117529273" lon="8.538384167477489">
        <ele>1326.4200000000001</ele>
        <time>2022-02-27T08:15:28Z</time>
      </trkpt>
      <trkpt lat="46.148238927125931" lon="8.538519954308868">
        <ele>1327.95</ele>
        <time>2022-02-27T08:15:42Z</time>
      </trkpt>
      <trkpt lat="46.148308832198381" lon="8.538639731705189">
        <ele>1329.9200000000001</ele>
        <time>2022-02-27T08:15:56Z</time>
      </trkpt>
      <trkpt lat="46.148385023698211" lon="8.538759090006352">
        <ele>1332.79</ele>
        <time>2022-02-27T08:16:12Z</time>
      </trkpt>
      <trkpt lat="46.148442439734936" lon="8.538798317313194">
        <ele>1334.5599999999999</ele>
        <time>2022-02-27T08:16:24Z</time>
      </trkpt>
      <trkpt lat="46.148544615134597" lon="8.538812398910523">
        <ele>1336.9000000000001</ele>
        <time>2022-02-27T08:16:39Z</time>
      </trkpt>
      <trkpt lat="46.148633966222405" lon="8.538877358660102">
        <ele>1340.05</ele>
        <time>2022-02-27T08:16:54Z</time>
      </trkpt>
      <trkpt lat="46.148710828274488" lon="8.538941312581301">
        <ele>1342.1700000000001</ele>
        <time>2022-02-27T08:17:08Z</time>
      </trkpt>
      <trkpt lat="46.148760868236423" lon="8.539020521566272">
        <ele>1344.8599999999999</ele>
        <time>2022-02-27T08:17:22Z</time>
      </trkpt>
      <trkpt lat="46.148802945390344" lon="8.539099898189306">
        <ele>1346.3399999999999</ele>
        <time>2022-02-27T08:17:32Z</time>
      </trkpt>
      <trkpt lat="46.148899337276816" lon="8.539140718057752">
        <ele>1349.03</ele>
        <time>2022-02-27T08:17:47Z</time>
      </trkpt>
      <trkpt lat="46.149005368351936" lon="8.539216322824359">
        <ele>1350.51</ele>
        <time>2022-02-27T08:18:02Z</time>
      </trkpt>
      <trkpt lat="46.149112153798342" lon="8.539290502667427">
        <ele>1351.51</ele>
        <time>2022-02-27T08:18:16Z</time>
      </trkpt>
      <trkpt lat="46.149231093004346" lon="8.539401814341545">
        <ele>1352.6700000000001</ele>
        <time>2022-02-27T08:18:32Z</time>
      </trkpt>
      <trkpt lat="46.149337543174624" lon="8.539498541504145">
        <ele>1353.7</ele>
        <time>2022-02-27T08:18:46Z</time>
      </trkpt>
      <trkpt lat="46.149464445188642" lon="8.53960582986474">
        <ele>1354.3399999999999</ele>
        <time>2022-02-27T08:19:01Z</time>
      </trkpt>
      <trkpt lat="46.149514736607671" lon="8.539620833471417">
        <ele>1355.0699999999999</ele>
        <time>2022-02-27T08:19:06Z</time>
      </trkpt>
      <trkpt lat="46.149635436013341" lon="8.539659893140197">
        <ele>1355.3599999999999</ele>
        <time>2022-02-27T08:19:18Z</time>
      </trkpt>
      <trkpt lat="46.149743981659412" lon="8.53975678794086">
        <ele>1358.2</ele>
        <time>2022-02-27T08:19:34Z</time>
      </trkpt>
      <trkpt lat="46.1498171556741" lon="8.539854185655713">
        <ele>1360.54</ele>
        <time>2022-02-27T08:19:48Z</time>
      </trkpt>
      <trkpt lat="46.149877002462745" lon="8.539924845099449">
        <ele>1362.3499999999999</ele>
        <time>2022-02-27T08:19:59Z</time>
      </trkpt>
      <trkpt lat="46.149982195347548" lon="8.539981842041016">
        <ele>1365.5599999999999</ele>
        <time>2022-02-27T08:20:15Z</time>
      </trkpt>
      <trkpt lat="46.150068612769246" lon="8.539957953616977">
        <ele>1367.48</ele>
        <time>2022-02-27T08:20:30Z</time>
      </trkpt>
      <trkpt lat="46.150118736550212" lon="8.5399981867522">
        <ele>1368.8699999999999</ele>
        <time>2022-02-27T08:20:42Z</time>
      </trkpt>
      <trkpt lat="46.150174979120493" lon="8.540056943893433">
        <ele>1370.03</ele>
        <time>2022-02-27T08:20:53Z</time>
      </trkpt>
      <trkpt lat="46.150192162021995" lon="8.540062895044684">
        <ele>1370.1700000000001</ele>
        <time>2022-02-27T08:20:55Z</time>
      </trkpt>
      <trkpt lat="46.150287045165896" lon="8.540097093209624">
        <ele>1371.49</ele>
        <time>2022-02-27T08:21:08Z</time>
      </trkpt>
      <trkpt lat="46.150363069027662" lon="8.540033055469394">
        <ele>1374.1600000000001</ele>
        <time>2022-02-27T08:21:24Z</time>
      </trkpt>
      <trkpt lat="46.150414450094104" lon="8.5399688500911">
        <ele>1376.47</ele>
        <time>2022-02-27T08:21:39Z</time>
      </trkpt>
      <trkpt lat="46.150421239435673" lon="8.539944877848029">
        <ele>1376.9300000000001</ele>
        <time>2022-02-27T08:21:51Z</time>
      </trkpt>
      <trkpt lat="46.150425430387259" lon="8.539937250316143">
        <ele>1375.8099999999999</ele>
        <time>2022-02-27T08:22:08Z</time>
      </trkpt>
      <trkpt lat="46.150421658530831" lon="8.539949152618647">
        <ele>1375.74</ele>
        <time>2022-02-27T08:22:32Z</time>
      </trkpt>
      <trkpt lat="46.150420233607292" lon="8.539958959445357">
        <ele>1376.8499999999999</ele>
        <time>2022-02-27T08:22:51Z</time>
      </trkpt>
      <trkpt lat="46.150424256920815" lon="8.539943369105458">
        <ele>1376.76</ele>
        <time>2022-02-27T08:23:07Z</time>
      </trkpt>
      <trkpt lat="46.150472955778241" lon="8.539943704381585">
        <ele>1378.3199999999999</ele>
        <time>2022-02-27T08:23:21Z</time>
      </trkpt>
      <trkpt lat="46.150497598573565" lon="8.539946470409632">
        <ele>1378.47</ele>
        <time>2022-02-27T08:23:36Z</time>
      </trkpt>
      <trkpt lat="46.150521654635668" lon="8.539912272244692">
        <ele>1378.8800000000001</ele>
        <time>2022-02-27T08:23:48Z</time>
      </trkpt>
      <trkpt lat="46.15053347311914" lon="8.539893748238683">
        <ele>1379.9100000000001</ele>
        <time>2022-02-27T08:23:58Z</time>
      </trkpt>
      <trkpt lat="46.150540094822645" lon="8.539915792644024">
        <ele>1379.8299999999999</ele>
        <time>2022-02-27T08:24:17Z</time>
      </trkpt>
      <trkpt lat="46.150643192231655" lon="8.539991565048695">
        <ele>1380.8399999999999</ele>
        <time>2022-02-27T08:24:31Z</time>
      </trkpt>
      <trkpt lat="46.150758443400264" lon="8.54005484841764">
        <ele>1382.9300000000001</ele>
        <time>2022-02-27T08:24:46Z</time>
      </trkpt>
      <trkpt lat="46.150865312665701" lon="8.540134476497769">
        <ele>1385.1900000000001</ele>
        <time>2022-02-27T08:25:01Z</time>
      </trkpt>
      <trkpt lat="46.150977462530136" lon="8.540175212547183">
        <ele>1388.0899999999999</ele>
        <time>2022-02-27T08:25:16Z</time>
      </trkpt>
      <trkpt lat="46.151055162772536" lon="8.540292391553521">
        <ele>1388.3399999999999</ele>
        <time>2022-02-27T08:25:30Z</time>
      </trkpt>
      <trkpt lat="46.151054156944156" lon="8.540305299684405">
        <ele>1388.22</ele>
        <time>2022-02-27T08:25:31Z</time>
      </trkpt>
      <trkpt lat="46.151009313762188" lon="8.540398087352514">
        <ele>1390.8800000000001</ele>
        <time>2022-02-27T08:25:44Z</time>
      </trkpt>
      <trkpt lat="46.151038482785225" lon="8.540476458147168">
        <ele>1393.28</ele>
        <time>2022-02-27T08:25:58Z</time>
      </trkpt>
      <trkpt lat="46.15105239674449" lon="8.540579387918115">
        <ele>1395.8199999999999</ele>
        <time>2022-02-27T08:26:13Z</time>
      </trkpt>
      <trkpt lat="46.151072764769197" lon="8.54063923470676">
        <ele>1398.2</ele>
        <time>2022-02-27T08:26:26Z</time>
      </trkpt>
      <trkpt lat="46.151096066460013" lon="8.540730345994234">
        <ele>1400.77</ele>
        <time>2022-02-27T08:26:42Z</time>
      </trkpt>
      <trkpt lat="46.151088774204254" lon="8.540829168632627">
        <ele>1403.71</ele>
        <time>2022-02-27T08:26:58Z</time>
      </trkpt>
      <trkpt lat="46.151101849973202" lon="8.540950203314424">
        <ele>1406.8099999999999</ele>
        <time>2022-02-27T08:27:15Z</time>
      </trkpt>
      <trkpt lat="46.151155661791563" lon="8.541028993204236">
        <ele>1409.29</ele>
        <time>2022-02-27T08:27:31Z</time>
      </trkpt>
      <trkpt lat="46.151195978745818" lon="8.541097724810243">
        <ele>1412.03</ele>
        <time>2022-02-27T08:27:45Z</time>
      </trkpt>
      <trkpt lat="46.151251383125782" lon="8.541195457801223">
        <ele>1413.98</ele>
        <time>2022-02-27T08:28:00Z</time>
      </trkpt>
      <trkpt lat="46.151342410594225" lon="8.541304673999548">
        <ele>1416.7</ele>
        <time>2022-02-27T08:28:19Z</time>
      </trkpt>
      <trkpt lat="46.151389013975859" lon="8.541392348706722">
        <ele>1418.1700000000001</ele>
        <time>2022-02-27T08:28:33Z</time>
      </trkpt>
      <trkpt lat="46.151434276252985" lon="8.541510030627251">
        <ele>1418.0799999999999</ele>
        <time>2022-02-27T08:28:46Z</time>
      </trkpt>
      <trkpt lat="46.151499655097723" lon="8.541587395593524">
        <ele>1420.0999999999999</ele>
        <time>2022-02-27T08:29:00Z</time>
      </trkpt>
      <trkpt lat="46.151512982323766" lon="8.541611284017563">
        <ele>1419.6800000000001</ele>
        <time>2022-02-27T08:29:02Z</time>
      </trkpt>
      <trkpt lat="46.151540642604232" lon="8.54165168479085">
        <ele>1419.46</ele>
        <time>2022-02-27T08:29:06Z</time>
      </trkpt>
      <trkpt lat="46.151555478572845" lon="8.541731731966138">
        <ele>1420.5</ele>
        <time>2022-02-27T08:29:16Z</time>
      </trkpt>
      <trkpt lat="46.151513317599893" lon="8.541803313419223">
        <ele>1423.1300000000001</ele>
        <time>2022-02-27T08:29:31Z</time>
      </trkpt>
      <trkpt lat="46.151442239060998" lon="8.541944632306695">
        <ele>1425.75</ele>
        <time>2022-02-27T08:29:47Z</time>
      </trkpt>
      <trkpt lat="46.151328664273024" lon="8.542079078033567">
        <ele>1428</ele>
        <time>2022-02-27T08:30:10Z</time>
      </trkpt>
      <trkpt lat="46.151260351762176" lon="8.542219391092658">
        <ele>1428.8099999999999</ele>
        <time>2022-02-27T08:30:23Z</time>
      </trkpt>
      <trkpt lat="46.151221627369523" lon="8.542403792962432">
        <ele>1430.8199999999999</ele>
        <time>2022-02-27T08:30:39Z</time>
      </trkpt>
      <trkpt lat="46.151177622377872" lon="8.542565563693643">
        <ele>1432.73</ele>
        <time>2022-02-27T08:30:55Z</time>
      </trkpt>
      <trkpt lat="46.151123391464353" lon="8.542639994993806">
        <ele>1435.74</ele>
        <time>2022-02-27T08:31:11Z</time>
      </trkpt>
      <trkpt lat="46.151116350665689" lon="8.542664553970099">
        <ele>1436.22</ele>
        <time>2022-02-27T08:31:14Z</time>
      </trkpt>
      <trkpt lat="46.151101179420948" lon="8.542786678299308">
        <ele>1438.1300000000001</ele>
        <time>2022-02-27T08:31:31Z</time>
      </trkpt>
      <trkpt lat="46.151072764769197" lon="8.542893212288618">
        <ele>1440.05</ele>
        <time>2022-02-27T08:31:45Z</time>
      </trkpt>
      <trkpt lat="46.151046361774206" lon="8.542990777641535">
        <ele>1442.3199999999999</ele>
        <time>2022-02-27T08:31:59Z</time>
      </trkpt>
      <trkpt lat="46.151053151115775" lon="8.54312782175839">
        <ele>1444.1400000000001</ele>
        <time>2022-02-27T08:32:12Z</time>
      </trkpt>
      <trkpt lat="46.151073351502419" lon="8.543257154524326">
        <ele>1446.4200000000001</ele>
        <time>2022-02-27T08:32:27Z</time>
      </trkpt>
      <trkpt lat="46.151144681498408" lon="8.543326891958714">
        <ele>1448.25</ele>
        <time>2022-02-27T08:32:42Z</time>
      </trkpt>
      <trkpt lat="46.151217604056001" lon="8.543309709057212">
        <ele>1450.3499999999999</ele>
        <time>2022-02-27T08:32:55Z</time>
      </trkpt>
      <trkpt lat="46.151320701465011" lon="8.543244665488601">
        <ele>1453.3199999999999</ele>
        <time>2022-02-27T08:33:13Z</time>
      </trkpt>
      <trkpt lat="46.15140225738287" lon="8.543181633576751">
        <ele>1455.8900000000001</ele>
        <time>2022-02-27T08:33:28Z</time>
      </trkpt>
      <trkpt lat="46.15147409029305" lon="8.543113153427839">
        <ele>1458.51</ele>
        <time>2022-02-27T08:33:44Z</time>
      </trkpt>
      <trkpt lat="46.151557909324765" lon="8.54306235909462">
        <ele>1461.46</ele>
        <time>2022-02-27T08:34:00Z</time>
      </trkpt>
      <trkpt lat="46.151662850752473" lon="8.543021706864238">
        <ele>1464.55</ele>
        <time>2022-02-27T08:34:18Z</time>
      </trkpt>
      <trkpt lat="46.151788579300046" lon="8.543026736006141">
        <ele>1466.8299999999999</ele>
        <time>2022-02-27T08:34:35Z</time>
      </trkpt>
      <trkpt lat="46.151831829920411" lon="8.543025143444538">
        <ele>1467.3800000000001</ele>
        <time>2022-02-27T08:34:50Z</time>
      </trkpt>
      <trkpt lat="46.151821855455637" lon="8.543031178414822">
        <ele>1466.4400000000001</ele>
        <time>2022-02-27T08:35:02Z</time>
      </trkpt>
      <trkpt lat="46.151829147711396" lon="8.543012822046876">
        <ele>1466.8900000000001</ele>
        <time>2022-02-27T08:35:27Z</time>
      </trkpt>
      <trkpt lat="46.151814395561814" lon="8.543032435700297">
        <ele>1467.1800000000001</ele>
        <time>2022-02-27T08:35:41Z</time>
      </trkpt>
      <trkpt lat="46.151816323399544" lon="8.543039560317993">
        <ele>1467.1099999999999</ele>
        <time>2022-02-27T08:35:57Z</time>
      </trkpt>
      <trkpt lat="46.151815401390195" lon="8.543052300810814">
        <ele>1467.55</ele>
        <time>2022-02-27T08:36:18Z</time>
      </trkpt>
      <trkpt lat="46.151803834363818" lon="8.543045679107308">
        <ele>1466.8900000000001</ele>
        <time>2022-02-27T08:36:35Z</time>
      </trkpt>
      <trkpt lat="46.151794781908393" lon="8.543039225041866">
        <ele>1466.5999999999999</ele>
        <time>2022-02-27T08:36:36Z</time>
      </trkpt>
      <trkpt lat="46.151769803836942" lon="8.543019276112318">
        <ele>1466.3099999999999</ele>
        <time>2022-02-27T08:36:49Z</time>
      </trkpt>
      <trkpt lat="46.151776174083352" lon="8.543019276112318">
        <ele>1465.97</ele>
        <time>2022-02-27T08:37:11Z</time>
      </trkpt>
      <trkpt lat="46.15177508443594" lon="8.543023634701967">
        <ele>1466.3900000000001</ele>
        <time>2022-02-27T08:37:33Z</time>
      </trkpt>
      <trkpt lat="46.151781370863318" lon="8.543021623045206">
        <ele>1466.25</ele>
        <time>2022-02-27T08:37:49Z</time>
      </trkpt>
      <trkpt lat="46.151806768029928" lon="8.543027993291616">
        <ele>1466.49</ele>
        <time>2022-02-27T08:38:04Z</time>
      </trkpt>
      <trkpt lat="46.151814898476005" lon="8.543038303032517">
        <ele>1466.8800000000001</ele>
        <time>2022-02-27T08:38:19Z</time>
      </trkpt>
      <trkpt lat="46.151840798556805" lon="8.543056156486273">
        <ele>1467.05</ele>
        <time>2022-02-27T08:38:32Z</time>
      </trkpt>
      <trkpt lat="46.15183518268168" lon="8.543051294982433">
        <ele>1467.0599999999999</ele>
        <time>2022-02-27T08:38:51Z</time>
      </trkpt>
      <trkpt lat="46.151830907911062" lon="8.543053474277258">
        <ele>1467.3900000000001</ele>
        <time>2022-02-27T08:39:16Z</time>
      </trkpt>
      <trkpt lat="46.151829482987523" lon="8.543059593066573">
        <ele>1467.6300000000001</ele>
        <time>2022-02-27T08:39:37Z</time>
      </trkpt>
      <trkpt lat="46.151826046407223" lon="8.543062945827842">
        <ele>1467.45</ele>
        <time>2022-02-27T08:39:59Z</time>
      </trkpt>
      <trkpt lat="46.151821939274669" lon="8.543055485934019">
        <ele>1467.8800000000001</ele>
        <time>2022-02-27T08:40:28Z</time>
      </trkpt>
      <trkpt lat="46.151826800778508" lon="8.543045679107308">
        <ele>1467.51</ele>
        <time>2022-02-27T08:40:53Z</time>
      </trkpt>
      <trkpt lat="46.151829902082682" lon="8.543048948049545">
        <ele>1467.79</ele>
        <time>2022-02-27T08:41:15Z</time>
      </trkpt>
      <trkpt lat="46.151831494644284" lon="8.543048948049545">
        <ele>1467.45</ele>
        <time>2022-02-27T08:41:36Z</time>
      </trkpt>
      <trkpt lat="46.151826716959476" lon="8.543044002726674">
        <ele>1468.3</ele>
        <time>2022-02-27T08:41:52Z</time>
      </trkpt>
      <trkpt lat="46.151831997558475" lon="8.543061353266239">
        <ele>1467.99</ele>
        <time>2022-02-27T08:42:08Z</time>
      </trkpt>
      <trkpt lat="46.151866866275668" lon="8.543068645521998">
        <ele>1467.8199999999999</ele>
        <time>2022-02-27T08:42:30Z</time>
      </trkpt>
      <trkpt lat="46.151945823803544" lon="8.543063197284937">
        <ele>1468.5599999999999</ele>
        <time>2022-02-27T08:42:39Z</time>
      </trkpt>
      <trkpt lat="46.152047161012888" lon="8.543051714077592">
        <ele>1469.6900000000001</ele>
        <time>2022-02-27T08:42:51Z</time>
      </trkpt>
      <trkpt lat="46.152126286178827" lon="8.543011900037527">
        <ele>1472.27</ele>
        <time>2022-02-27T08:43:06Z</time>
      </trkpt>
      <trkpt lat="46.152187893167138" lon="8.542953729629517">
        <ele>1474.76</ele>
        <time>2022-02-27T08:43:21Z</time>
      </trkpt>
      <trkpt lat="46.15227347239852" lon="8.542889021337032">
        <ele>1477.3099999999999</ele>
        <time>2022-02-27T08:43:36Z</time>
      </trkpt>
      <trkpt lat="46.152380760759115" lon="8.542873430997133">
        <ele>1479.71</ele>
        <time>2022-02-27T08:43:51Z</time>
      </trkpt>
      <trkpt lat="46.152398446574807" lon="8.54291575960815">
        <ele>1479.8800000000001</ele>
        <time>2022-02-27T08:43:55Z</time>
      </trkpt>
      <trkpt lat="46.152475979179144" lon="8.543023131787777">
        <ele>1480.5999999999999</ele>
        <time>2022-02-27T08:44:08Z</time>
      </trkpt>
      <trkpt lat="46.152497855946422" lon="8.543062191456556">
        <ele>1480.79</ele>
        <time>2022-02-27T08:44:12Z</time>
      </trkpt>
      <trkpt lat="46.152556445449591" lon="8.543151877820492">
        <ele>1481.8199999999999</ele>
        <time>2022-02-27T08:44:23Z</time>
      </trkpt>
      <trkpt lat="46.152636492624879" lon="8.543260004371405">
        <ele>1482.76</ele>
        <time>2022-02-27T08:44:36Z</time>
      </trkpt>
      <trkpt lat="46.152719724923372" lon="8.543369891121984">
        <ele>1485.9000000000001</ele>
        <time>2022-02-27T08:44:52Z</time>
      </trkpt>
      <trkpt lat="46.152777392417192" lon="8.543434767052531">
        <ele>1487.4100000000001</ele>
        <time>2022-02-27T08:45:03Z</time>
      </trkpt>
      <trkpt lat="46.152872443199158" lon="8.543533505871892">
        <ele>1488.5699999999999</ele>
        <time>2022-02-27T08:45:16Z</time>
      </trkpt>
      <trkpt lat="46.152969924733043" lon="8.543631071224809">
        <ele>1489.27</ele>
        <time>2022-02-27T08:45:29Z</time>
      </trkpt>
      <trkpt lat="46.153041506186128" lon="8.543736934661865">
        <ele>1490.8199999999999</ele>
        <time>2022-02-27T08:45:43Z</time>
      </trkpt>
      <trkpt lat="46.153146866708994" lon="8.5438163112849">
        <ele>1492.26</ele>
        <time>2022-02-27T08:45:58Z</time>
      </trkpt>
      <trkpt lat="46.153230685740709" lon="8.543938100337982">
        <ele>1493.3099999999999</ele>
        <time>2022-02-27T08:46:14Z</time>
      </trkpt>
      <trkpt lat="46.153299082070589" lon="8.544119736179709">
        <ele>1495.22</ele>
        <time>2022-02-27T08:46:32Z</time>
      </trkpt>
      <trkpt lat="46.153361359611154" lon="8.544213613495231">
        <ele>1497.1800000000001</ele>
        <time>2022-02-27T08:46:43Z</time>
      </trkpt>
      <trkpt lat="46.153442161157727" lon="8.544305395334959">
        <ele>1499.21</ele>
        <time>2022-02-27T08:46:57Z</time>
      </trkpt>
      <trkpt lat="46.153568141162395" lon="8.544434392824769">
        <ele>1500.52</ele>
        <time>2022-02-27T08:47:13Z</time>
      </trkpt>
      <trkpt lat="46.153659503906965" lon="8.544546375051141">
        <ele>1503.3599999999999</ele>
        <time>2022-02-27T08:47:30Z</time>
      </trkpt>
      <trkpt lat="46.153728486970067" lon="8.544674115255475">
        <ele>1505.05</ele>
        <time>2022-02-27T08:47:45Z</time>
      </trkpt>
      <trkpt lat="46.15381121635437" lon="8.544740583747625">
        <ele>1506.8900000000001</ele>
        <time>2022-02-27T08:47:59Z</time>
      </trkpt>
      <trkpt lat="46.153899393975735" lon="8.544795988127589">
        <ele>1509.3099999999999</ele>
        <time>2022-02-27T08:48:14Z</time>
      </trkpt>
      <trkpt lat="46.153979692608118" lon="8.544864216819406">
        <ele>1510.8299999999999</ele>
        <time>2022-02-27T08:48:28Z</time>
      </trkpt>
      <trkpt lat="46.154001485556364" lon="8.544776709750295">
        <ele>1513.4300000000001</ele>
        <time>2022-02-27T08:48:42Z</time>
      </trkpt>
      <trkpt lat="46.154038701206446" lon="8.544678390026093">
        <ele>1516.6500000000001</ele>
        <time>2022-02-27T08:48:58Z</time>
      </trkpt>
      <trkpt lat="46.154042892158031" lon="8.544619465246797">
        <ele>1518.4100000000001</ele>
        <time>2022-02-27T08:49:13Z</time>
      </trkpt>
      <trkpt lat="46.154081700369716" lon="8.5445502307266">
        <ele>1521.03</ele>
        <time>2022-02-27T08:49:27Z</time>
      </trkpt>
      <trkpt lat="46.154134590178728" lon="8.544477140530944">
        <ele>1524.1500000000001</ele>
        <time>2022-02-27T08:49:44Z</time>
      </trkpt>
      <trkpt lat="46.154187731444836" lon="8.544421484693885">
        <ele>1526.4400000000001</ele>
        <time>2022-02-27T08:49:59Z</time>
      </trkpt>
      <trkpt lat="46.154241459444165" lon="8.544309251010418">
        <ele>1529.5799999999999</ele>
        <time>2022-02-27T08:50:16Z</time>
      </trkpt>
      <trkpt lat="46.154249673709273" lon="8.54419307783246">
        <ele>1532.5599999999999</ele>
        <time>2022-02-27T08:50:32Z</time>
      </trkpt>
      <trkpt lat="46.154302898794413" lon="8.544129207730293">
        <ele>1534.79</ele>
        <time>2022-02-27T08:50:45Z</time>
      </trkpt>
      <trkpt lat="46.154300132766366" lon="8.544042371213436">
        <ele>1537.1300000000001</ele>
        <time>2022-02-27T08:51:01Z</time>
      </trkpt>
      <trkpt lat="46.154242884367704" lon="8.543971460312605">
        <ele>1539.1700000000001</ele>
        <time>2022-02-27T08:51:15Z</time>
      </trkpt>
      <trkpt lat="46.154213463887572" lon="8.543869955465198">
        <ele>1541.8900000000001</ele>
        <time>2022-02-27T08:51:31Z</time>
      </trkpt>
      <trkpt lat="46.15416987799108" lon="8.543754452839494">
        <ele>1544.98</ele>
        <time>2022-02-27T08:51:49Z</time>
      </trkpt>
      <trkpt lat="46.154156299307942" lon="8.543660072609782">
        <ele>1547.8399999999999</ele>
        <time>2022-02-27T08:52:04Z</time>
      </trkpt>
      <trkpt lat="46.15413710474968" lon="8.543530991300941">
        <ele>1550.6199999999999</ele>
        <time>2022-02-27T08:52:21Z</time>
      </trkpt>
      <trkpt lat="46.154101230204105" lon="8.543425211682916">
        <ele>1552.71</ele>
        <time>2022-02-27T08:52:35Z</time>
      </trkpt>
      <trkpt lat="46.154097123071551" lon="8.543310714885593">
        <ele>1555.6900000000001</ele>
        <time>2022-02-27T08:52:51Z</time>
      </trkpt>
      <trkpt lat="46.154083125293255" lon="8.543206779286265">
        <ele>1558.79</ele>
        <time>2022-02-27T08:53:07Z</time>
      </trkpt>
      <trkpt lat="46.154072480276227" lon="8.543115500360727">
        <ele>1561.9300000000001</ele>
        <time>2022-02-27T08:53:22Z</time>
      </trkpt>
      <trkpt lat="46.154078599065542" lon="8.543010810390115">
        <ele>1564.6700000000001</ele>
        <time>2022-02-27T08:53:38Z</time>
      </trkpt>
      <trkpt lat="46.154106510803103" lon="8.542912993580103">
        <ele>1567.9000000000001</ele>
        <time>2022-02-27T08:53:56Z</time>
      </trkpt>
      <trkpt lat="46.154111959040165" lon="8.542823055759072">
        <ele>1570.6500000000001</ele>
        <time>2022-02-27T08:54:11Z</time>
      </trkpt>
      <trkpt lat="46.15413274616003" lon="8.542725155130029">
        <ele>1573.3499999999999</ele>
        <time>2022-02-27T08:54:27Z</time>
      </trkpt>
      <trkpt lat="46.154169458895922" lon="8.542620716616511">
        <ele>1575.71</ele>
        <time>2022-02-27T08:54:42Z</time>
      </trkpt>
      <trkpt lat="46.154229305684566" lon="8.542527090758085">
        <ele>1578.03</ele>
        <time>2022-02-27T08:54:57Z</time>
      </trkpt>
      <trkpt lat="46.154254954308271" lon="8.542444529011846">
        <ele>1579.8099999999999</ele>
        <time>2022-02-27T08:55:09Z</time>
      </trkpt>
      <trkpt lat="46.154319243505597" lon="8.542384682223201">
        <ele>1581.79</ele>
        <time>2022-02-27T08:55:22Z</time>
      </trkpt>
      <trkpt lat="46.154398368671536" lon="8.542320393025875">
        <ele>1584.8900000000001</ele>
        <time>2022-02-27T08:55:40Z</time>
      </trkpt>
      <trkpt lat="46.154473051428795" lon="8.542269011959434">
        <ele>1586.6900000000001</ele>
        <time>2022-02-27T08:55:53Z</time>
      </trkpt>
      <trkpt lat="46.154555110260844" lon="8.54220581240952">
        <ele>1588.47</ele>
        <time>2022-02-27T08:56:07Z</time>
      </trkpt>
      <trkpt lat="46.154659800231457" lon="8.542155604809523">
        <ele>1589.8199999999999</ele>
        <time>2022-02-27T08:56:20Z</time>
      </trkpt>
      <trkpt lat="46.154684945940971" lon="8.542141355574131">
        <ele>1590.1099999999999</ele>
        <time>2022-02-27T08:56:23Z</time>
      </trkpt>
      <trkpt lat="46.154764406383038" lon="8.54205435141921">
        <ele>1592.0899999999999</ele>
        <time>2022-02-27T08:56:37Z</time>
      </trkpt>
      <trkpt lat="46.15483783185482" lon="8.541988972574472">
        <ele>1594.78</ele>
        <time>2022-02-27T08:56:50Z</time>
      </trkpt>
      <trkpt lat="46.154913101345301" lon="8.54194681160152">
        <ele>1597.9100000000001</ele>
        <time>2022-02-27T08:57:02Z</time>
      </trkpt>
      <trkpt lat="46.154976636171341" lon="8.541920995339751">
        <ele>1600.01</ele>
        <time>2022-02-27T08:57:18Z</time>
      </trkpt>
      <trkpt lat="46.154975295066833" lon="8.541992492973805">
        <ele>1599.1099999999999</ele>
        <time>2022-02-27T08:57:35Z</time>
      </trkpt>
      <trkpt lat="46.154953418299556" lon="8.541994672268629">
        <ele>1598.6400000000001</ele>
        <time>2022-02-27T08:57:49Z</time>
      </trkpt>
      <trkpt lat="46.15497563034296" lon="8.541958378627896">
        <ele>1599.8699999999999</ele>
        <time>2022-02-27T08:58:03Z</time>
      </trkpt>
      <trkpt lat="46.154970768839121" lon="8.541947398334742">
        <ele>1600.21</ele>
        <time>2022-02-27T08:58:23Z</time>
      </trkpt>
      <trkpt lat="46.154965991154313" lon="8.541949661448598">
        <ele>1597.0799999999999</ele>
        <time>2022-02-27T08:58:29Z</time>
      </trkpt>
      <trkpt lat="46.154964733868837" lon="8.541951086372137">
        <ele>1600.4400000000001</ele>
        <time>2022-02-27T08:58:30Z</time>
      </trkpt>
      <trkpt lat="46.154967332258821" lon="8.541948990896344">
        <ele>1598</ele>
        <time>2022-02-27T08:58:44Z</time>
      </trkpt>
      <trkpt lat="46.154978228732944" lon="8.5419702809304">
        <ele>1598.29</ele>
        <time>2022-02-27T08:59:23Z</time>
      </trkpt>
      <trkpt lat="46.154973953962326" lon="8.541978830471635">
        <ele>1598.3599999999999</ele>
        <time>2022-02-27T08:59:41Z</time>
      </trkpt>
      <trkpt lat="46.154978815466166" lon="8.541981093585491">
        <ele>1598.5799999999999</ele>
        <time>2022-02-27T08:59:57Z</time>
      </trkpt>
      <trkpt lat="46.15497755818069" lon="8.541972376406193">
        <ele>1597.73</ele>
        <time>2022-02-27T09:00:14Z</time>
      </trkpt>
      <trkpt lat="46.154964985325933" lon="8.541980255395174">
        <ele>1598.8800000000001</ele>
        <time>2022-02-27T09:00:28Z</time>
      </trkpt>
      <trkpt lat="46.154970517382026" lon="8.541970197111368">
        <ele>1597.9100000000001</ele>
        <time>2022-02-27T09:00:45Z</time>
      </trkpt>
      <trkpt lat="46.154966577887535" lon="8.541971789672971">
        <ele>1598.9100000000001</ele>
        <time>2022-02-27T09:01:04Z</time>
      </trkpt>
      <trkpt lat="46.154967164620757" lon="8.541966592893004">
        <ele>1599.47</ele>
        <time>2022-02-27T09:01:19Z</time>
      </trkpt>
      <trkpt lat="46.154966913163662" lon="8.541965922340751">
        <ele>1599.3800000000001</ele>
        <time>2022-02-27T09:01:37Z</time>
      </trkpt>
      <trkpt lat="46.154965572059155" lon="8.541968772187829">
        <ele>1599.48</ele>
        <time>2022-02-27T09:01:53Z</time>
      </trkpt>
      <trkpt lat="46.154962219297886" lon="8.541959300637245">
        <ele>1599.4300000000001</ele>
        <time>2022-02-27T09:02:11Z</time>
      </trkpt>
      <trkpt lat="46.154980240389705" lon="8.541966509073973">
        <ele>1599.0799999999999</ele>
        <time>2022-02-27T09:02:35Z</time>
      </trkpt>
      <trkpt lat="46.154977725818753" lon="8.541971622034907">
        <ele>1599.1700000000001</ele>
        <time>2022-02-27T09:03:02Z</time>
      </trkpt>
      <trkpt lat="46.154974037781358" lon="8.541960055008531">
        <ele>1599.04</ele>
        <time>2022-02-27T09:03:29Z</time>
      </trkpt>
      <trkpt lat="46.154978731647134" lon="8.541965084150434">
        <ele>1598.8</ele>
        <time>2022-02-27T09:04:00Z</time>
      </trkpt>
      <trkpt lat="46.154995830729604" lon="8.541907081380487">
        <ele>1599.76</ele>
        <time>2022-02-27T09:04:12Z</time>
      </trkpt>
      <trkpt lat="46.154993567615747" lon="8.541878163814545">
        <ele>1599.97</ele>
        <time>2022-02-27T09:04:15Z</time>
      </trkpt>
      <trkpt lat="46.155045786872506" lon="8.541756290942431">
        <ele>1601.8499999999999</ele>
        <time>2022-02-27T09:04:27Z</time>
      </trkpt>
      <trkpt lat="46.155093060806394" lon="8.541613211855292">
        <ele>1603.7</ele>
        <time>2022-02-27T09:04:40Z</time>
      </trkpt>
      <trkpt lat="46.155133629217744" lon="8.541469546034932">
        <ele>1606.0599999999999</ele>
        <time>2022-02-27T09:04:56Z</time>
      </trkpt>
      <trkpt lat="46.155200349166989" lon="8.541350606828928">
        <ele>1608.0899999999999</ele>
        <time>2022-02-27T09:05:10Z</time>
      </trkpt>
      <trkpt lat="46.155232703313231" lon="8.541233260184526">
        <ele>1610.0699999999999</ele>
        <time>2022-02-27T09:05:24Z</time>
      </trkpt>
      <trkpt lat="46.155244773253798" lon="8.541122870519757">
        <ele>1612.51</ele>
        <time>2022-02-27T09:05:38Z</time>
      </trkpt>
      <trkpt lat="46.155240414664149" lon="8.541045673191547">
        <ele>1614.54</ele>
        <time>2022-02-27T09:05:49Z</time>
      </trkpt>
      <trkpt lat="46.155237480998039" lon="8.540964284911752">
        <ele>1616.3599999999999</ele>
        <time>2022-02-27T09:06:01Z</time>
      </trkpt>
      <trkpt lat="46.155253071337938" lon="8.540876442566514">
        <ele>1618.8099999999999</ele>
        <time>2022-02-27T09:06:13Z</time>
      </trkpt>
      <trkpt lat="46.155290370807052" lon="8.540818439796567">
        <ele>1620.4300000000001</ele>
        <time>2022-02-27T09:06:24Z</time>
      </trkpt>
      <trkpt lat="46.155349044129252" lon="8.540782062336803">
        <ele>1622.9400000000001</ele>
        <time>2022-02-27T09:06:37Z</time>
      </trkpt>
      <trkpt lat="46.155416602268815" lon="8.540775272995234">
        <ele>1624.6900000000001</ele>
        <time>2022-02-27T09:06:51Z</time>
      </trkpt>
      <trkpt lat="46.155483154579997" lon="8.54073990136385">
        <ele>1626.74</ele>
        <time>2022-02-27T09:07:04Z</time>
      </trkpt>
      <trkpt lat="46.155507462099195" lon="8.540660860016942">
        <ele>1629.03</ele>
        <time>2022-02-27T09:07:17Z</time>
      </trkpt>
      <trkpt lat="46.155560435727239" lon="8.540610400959849">
        <ele>1630.77</ele>
        <time>2022-02-27T09:07:30Z</time>
      </trkpt>
      <trkpt lat="46.155609218403697" lon="8.54055910371244">
        <ele>1632.8099999999999</ele>
        <time>2022-02-27T09:07:42Z</time>
      </trkpt>
      <trkpt lat="46.155655235052109" lon="8.540502106770873">
        <ele>1635.1099999999999</ele>
        <time>2022-02-27T09:07:54Z</time>
      </trkpt>
      <trkpt lat="46.155679458752275" lon="8.540413761511445">
        <ele>1637.1600000000001</ele>
        <time>2022-02-27T09:08:06Z</time>
      </trkpt>
      <trkpt lat="46.155730839818716" lon="8.540384508669376">
        <ele>1639.4000000000001</ele>
        <time>2022-02-27T09:08:19Z</time>
      </trkpt>
      <trkpt lat="46.155791021883488" lon="8.540408480912447">
        <ele>1642.21</ele>
        <time>2022-02-27T09:08:33Z</time>
      </trkpt>
      <trkpt lat="46.15588104352355" lon="8.540391884744167">
        <ele>1644.4200000000001</ele>
        <time>2022-02-27T09:08:48Z</time>
      </trkpt>
      <trkpt lat="46.155951619148254" lon="8.540321812033653">
        <ele>1647.1500000000001</ele>
        <time>2022-02-27T09:09:03Z</time>
      </trkpt>
      <trkpt lat="46.155988331884146" lon="8.54022391140461">
        <ele>1649.6800000000001</ele>
        <time>2022-02-27T09:09:19Z</time>
      </trkpt>
      <trkpt lat="46.156068798154593" lon="8.540209829807282">
        <ele>1651.6199999999999</ele>
        <time>2022-02-27T09:09:32Z</time>
      </trkpt>
      <trkpt lat="46.156150940805674" lon="8.540194658562541">
        <ele>1654.05</ele>
        <time>2022-02-27T09:09:45Z</time>
      </trkpt>
      <trkpt lat="46.156188910827041" lon="8.540066499263048">
        <ele>1656.1800000000001</ele>
        <time>2022-02-27T09:10:00Z</time>
      </trkpt>
      <trkpt lat="46.156238866969943" lon="8.539968598634005">
        <ele>1658.53</ele>
        <time>2022-02-27T09:10:14Z</time>
      </trkpt>
      <trkpt lat="46.156263845041394" lon="8.539889305830002">
        <ele>1660.1400000000001</ele>
        <time>2022-02-27T09:10:24Z</time>
      </trkpt>
      <trkpt lat="46.156294606626034" lon="8.539770031347871">
        <ele>1662.51</ele>
        <time>2022-02-27T09:10:39Z</time>
      </trkpt>
      <trkpt lat="46.15634623914957" lon="8.539705574512482">
        <ele>1665</ele>
        <time>2022-02-27T09:10:53Z</time>
      </trkpt>
      <trkpt lat="46.156408432871103" lon="8.539589820429683">
        <ele>1668.01</ele>
        <time>2022-02-27T09:11:10Z</time>
      </trkpt>
      <trkpt lat="46.156461741775274" lon="8.539470797404647">
        <ele>1669.8399999999999</ele>
        <time>2022-02-27T09:11:24Z</time>
      </trkpt>
      <trkpt lat="46.156509602442384" lon="8.539410280063748">
        <ele>1671.79</ele>
        <time>2022-02-27T09:11:34Z</time>
      </trkpt>
      <trkpt lat="46.156564252451062" lon="8.539324449375272">
        <ele>1673.74</ele>
        <time>2022-02-27T09:11:47Z</time>
      </trkpt>
      <trkpt lat="46.156630804762244" lon="8.539235852658749">
        <ele>1675.45</ele>
        <time>2022-02-27T09:12:00Z</time>
      </trkpt>
      <trkpt lat="46.156700206920505" lon="8.539134683087468">
        <ele>1677.3</ele>
        <time>2022-02-27T09:12:14Z</time>
      </trkpt>
      <trkpt lat="46.156757287681103" lon="8.539024293422699">
        <ele>1678.98</ele>
        <time>2022-02-27T09:12:27Z</time>
      </trkpt>
      <trkpt lat="46.156810093671083" lon="8.53890560567379">
        <ele>1680.23</ele>
        <time>2022-02-27T09:12:41Z</time>
      </trkpt>
      <trkpt lat="46.156870946288109" lon="8.53883326984942">
        <ele>1682.1900000000001</ele>
        <time>2022-02-27T09:12:53Z</time>
      </trkpt>
      <trkpt lat="46.156911598518491" lon="8.538726484403014">
        <ele>1683.6700000000001</ele>
        <time>2022-02-27T09:13:06Z</time>
      </trkpt>
      <trkpt lat="46.156979659572244" lon="8.538640653714538">
        <ele>1686.0799999999999</ele>
        <time>2022-02-27T09:13:19Z</time>
      </trkpt>
      <trkpt lat="46.157047133892775" lon="8.538527581840754">
        <ele>1688.21</ele>
        <time>2022-02-27T09:13:36Z</time>
      </trkpt>
      <trkpt lat="46.157104969024658" lon="8.538444014266133">
        <ele>1689.8699999999999</ele>
        <time>2022-02-27T09:13:48Z</time>
      </trkpt>
      <trkpt lat="46.157169174402952" lon="8.538342341780663">
        <ele>1691.8199999999999</ele>
        <time>2022-02-27T09:14:03Z</time>
      </trkpt>
      <trkpt lat="46.157194906845689" lon="8.538199765607715">
        <ele>1692.6600000000001</ele>
        <time>2022-02-27T09:14:17Z</time>
      </trkpt>
      <trkpt lat="46.157247964292765" lon="8.538047298789024">
        <ele>1693.8399999999999</ele>
        <time>2022-02-27T09:14:33Z</time>
      </trkpt>
      <trkpt lat="46.15729808807373" lon="8.53790438733995">
        <ele>1696.1400000000001</ele>
        <time>2022-02-27T09:14:49Z</time>
      </trkpt>
      <trkpt lat="46.157365394756198" lon="8.537815203890204">
        <ele>1697.8299999999999</ele>
        <time>2022-02-27T09:15:03Z</time>
      </trkpt>
      <trkpt lat="46.157414009794593" lon="8.537646224722266">
        <ele>1699.8699999999999</ele>
        <time>2022-02-27T09:15:21Z</time>
      </trkpt>
      <trkpt lat="46.157485423609614" lon="8.537513371556997">
        <ele>1701.9000000000001</ele>
        <time>2022-02-27T09:15:38Z</time>
      </trkpt>
      <trkpt lat="46.157570499926805" lon="8.53743189945817">
        <ele>1704.1700000000001</ele>
        <time>2022-02-27T09:15:54Z</time>
      </trkpt>
      <trkpt lat="46.157649792730808" lon="8.537341542541981">
        <ele>1706.6099999999999</ele>
        <time>2022-02-27T09:16:10Z</time>
      </trkpt>
      <trkpt lat="46.157702933996916" lon="8.537276079878211">
        <ele>1708.3399999999999</ele>
        <time>2022-02-27T09:16:22Z</time>
      </trkpt>
      <trkpt lat="46.157761858776212" lon="8.537167869508266">
        <ele>1711.03</ele>
        <time>2022-02-27T09:16:40Z</time>
      </trkpt>
      <trkpt lat="46.157822208479047" lon="8.537099976092577">
        <ele>1712.99</ele>
        <time>2022-02-27T09:16:55Z</time>
      </trkpt>
      <trkpt lat="46.15787317045033" lon="8.536966117098928">
        <ele>1715.1900000000001</ele>
        <time>2022-02-27T09:17:13Z</time>
      </trkpt>
      <trkpt lat="46.157912230119109" lon="8.536876430734992">
        <ele>1716.5899999999999</ele>
        <time>2022-02-27T09:17:25Z</time>
      </trkpt>
      <trkpt lat="46.157943662256002" lon="8.536785487085581">
        <ele>1719.5599999999999</ele>
        <time>2022-02-27T09:17:40Z</time>
      </trkpt>
      <trkpt lat="46.158016668632627" lon="8.536694627255201">
        <ele>1722.7</ele>
        <time>2022-02-27T09:17:58Z</time>
      </trkpt>
      <trkpt lat="46.15808917209506" lon="8.536636792123318">
        <ele>1725.1800000000001</ele>
        <time>2022-02-27T09:18:13Z</time>
      </trkpt>
      <trkpt lat="46.158134266734123" lon="8.536543920636177">
        <ele>1727.8900000000001</ele>
        <time>2022-02-27T09:18:28Z</time>
      </trkpt>
      <trkpt lat="46.158198053017259" lon="8.53650251403451">
        <ele>1730.1900000000001</ele>
        <time>2022-02-27T09:18:42Z</time>
      </trkpt>
      <trkpt lat="46.158238705247641" lon="8.536527324467897">
        <ele>1733.0999999999999</ele>
        <time>2022-02-27T09:18:57Z</time>
      </trkpt>
      <trkpt lat="46.158280950039625" lon="8.53662027977407">
        <ele>1735.23</ele>
        <time>2022-02-27T09:19:13Z</time>
      </trkpt>
      <trkpt lat="46.15833593532443" lon="8.536705188453198">
        <ele>1736.8599999999999</ele>
        <time>2022-02-27T09:19:26Z</time>
      </trkpt>
      <trkpt lat="46.158382790163159" lon="8.536648862063885">
        <ele>1739.6099999999999</ele>
        <time>2022-02-27T09:19:40Z</time>
      </trkpt>
      <trkpt lat="46.158417155966163" lon="8.536553727462888">
        <ele>1741.8299999999999</ele>
        <time>2022-02-27T09:19:56Z</time>
      </trkpt>
      <trkpt lat="46.158470632508397" lon="8.536458844318986">
        <ele>1744.5999999999999</ele>
        <time>2022-02-27T09:20:15Z</time>
      </trkpt>
      <trkpt lat="46.15853525698185" lon="8.536379635334015">
        <ele>1747.0999999999999</ele>
        <time>2022-02-27T09:20:32Z</time>
      </trkpt>
      <trkpt lat="46.158592253923416" lon="8.536315094679594">
        <ele>1749.54</ele>
        <time>2022-02-27T09:20:48Z</time>
      </trkpt>
      <trkpt lat="46.158638689666986" lon="8.536291206255555">
        <ele>1751.6500000000001</ele>
        <time>2022-02-27T09:21:03Z</time>
      </trkpt>
      <trkpt lat="46.158637851476669" lon="8.536303779110313">
        <ele>1750.4100000000001</ele>
        <time>2022-02-27T09:21:08Z</time>
      </trkpt>
      <trkpt lat="46.158638270571828" lon="8.536296486854553">
        <ele>1752.26</ele>
        <time>2022-02-27T09:21:13Z</time>
      </trkpt>
      <trkpt lat="46.158653106540442" lon="8.536313166841865">
        <ele>1751.28</ele>
        <time>2022-02-27T09:21:32Z</time>
      </trkpt>
      <trkpt lat="46.158678084611893" lon="8.536390531808138">
        <ele>1753.04</ele>
        <time>2022-02-27T09:21:44Z</time>
      </trkpt>
      <trkpt lat="46.158723933622241" lon="8.536461023613811">
        <ele>1755.47</ele>
        <time>2022-02-27T09:21:57Z</time>
      </trkpt>
      <trkpt lat="46.15878738462925" lon="8.536360692232847">
        <ele>1758.1199999999999</ele>
        <time>2022-02-27T09:22:12Z</time>
      </trkpt>
      <trkpt lat="46.158847734332085" lon="8.536274274811149">
        <ele>1760.5799999999999</ele>
        <time>2022-02-27T09:22:26Z</time>
      </trkpt>
      <trkpt lat="46.158873550593853" lon="8.536154078319669">
        <ele>1763.2</ele>
        <time>2022-02-27T09:22:40Z</time>
      </trkpt>
      <trkpt lat="46.158901546150446" lon="8.536029271781445">
        <ele>1765.3</ele>
        <time>2022-02-27T09:22:56Z</time>
      </trkpt>
      <trkpt lat="46.158935241401196" lon="8.535967078059912">
        <ele>1767.4200000000001</ele>
        <time>2022-02-27T09:23:09Z</time>
      </trkpt>
      <trkpt lat="46.1589540168643" lon="8.535882337018848">
        <ele>1770.5899999999999</ele>
        <time>2022-02-27T09:23:25Z</time>
      </trkpt>
      <trkpt lat="46.158908167853951" lon="8.535744538530707">
        <ele>1772.3900000000001</ele>
        <time>2022-02-27T09:23:42Z</time>
      </trkpt>
      <trkpt lat="46.158897522836924" lon="8.53566013276577">
        <ele>1775.4300000000001</ele>
        <time>2022-02-27T09:23:58Z</time>
      </trkpt>
      <trkpt lat="46.158866677433252" lon="8.535604225471616">
        <ele>1775.9100000000001</ele>
        <time>2022-02-27T09:24:11Z</time>
      </trkpt>
      <trkpt lat="46.158807082101703" lon="8.535512527450919">
        <ele>1776.25</ele>
        <time>2022-02-27T09:24:25Z</time>
      </trkpt>
      <trkpt lat="46.15878889337182" lon="8.535484112799168">
        <ele>1776.4300000000001</ele>
        <time>2022-02-27T09:24:28Z</time>
      </trkpt>
      <trkpt lat="46.158723933622241" lon="8.535364083945751">
        <ele>1777.03</ele>
        <time>2022-02-27T09:24:40Z</time>
      </trkpt>
      <trkpt lat="46.158672384917736" lon="8.535246485844255">
        <ele>1779.24</ele>
        <time>2022-02-27T09:24:55Z</time>
      </trkpt>
      <trkpt lat="46.158633157610893" lon="8.535153865814209">
        <ele>1779.5999999999999</ele>
        <time>2022-02-27T09:25:11Z</time>
      </trkpt>
      <trkpt lat="46.15861245431006" lon="8.534985724836588">
        <ele>1781.9400000000001</ele>
        <time>2022-02-27T09:25:27Z</time>
      </trkpt>
      <trkpt lat="46.158619243651628" lon="8.534828228875995">
        <ele>1784.23</ele>
        <time>2022-02-27T09:25:42Z</time>
      </trkpt>
      <trkpt lat="46.158594768494368" lon="8.534692274406552">
        <ele>1785.1900000000001</ele>
        <time>2022-02-27T09:25:55Z</time>
      </trkpt>
      <trkpt lat="46.158639946952462" lon="8.534555314108729">
        <ele>1786.47</ele>
        <time>2022-02-27T09:26:10Z</time>
      </trkpt>
      <trkpt lat="46.158640114590526" lon="8.534426232799888">
        <ele>1789.3900000000001</ele>
        <time>2022-02-27T09:26:26Z</time>
      </trkpt>
      <trkpt lat="46.158623518422246" lon="8.53435255587101">
        <ele>1792.4400000000001</ele>
        <time>2022-02-27T09:26:39Z</time>
      </trkpt>
      <trkpt lat="46.158616729080677" lon="8.534248704090715">
        <ele>1795.01</ele>
        <time>2022-02-27T09:26:54Z</time>
      </trkpt>
      <trkpt lat="46.158632235601544" lon="8.53413512930274">
        <ele>1797.98</ele>
        <time>2022-02-27T09:27:12Z</time>
      </trkpt>
      <trkpt lat="46.158627290278673" lon="8.534039743244648">
        <ele>1799.7</ele>
        <time>2022-02-27T09:27:25Z</time>
      </trkpt>
      <trkpt lat="46.158657381311059" lon="8.533973107114434">
        <ele>1802.23</ele>
        <time>2022-02-27T09:27:40Z</time>
      </trkpt>
      <trkpt lat="46.158679509535432" lon="8.53386539965868">
        <ele>1803.51</ele>
        <time>2022-02-27T09:27:56Z</time>
      </trkpt>
      <trkpt lat="46.15876198746264" lon="8.53376573882997">
        <ele>1804.27</ele>
        <time>2022-02-27T09:28:10Z</time>
      </trkpt>
      <trkpt lat="46.158824348822236" lon="8.533734222874045">
        <ele>1805.5999999999999</ele>
        <time>2022-02-27T09:28:20Z</time>
      </trkpt>
      <trkpt lat="46.158858798444271" lon="8.533671442419291">
        <ele>1807.3599999999999</ele>
        <time>2022-02-27T09:28:31Z</time>
      </trkpt>
      <trkpt lat="46.15888218395412" lon="8.533568345010281">
        <ele>1808.3199999999999</ele>
        <time>2022-02-27T09:28:42Z</time>
      </trkpt>
      <trkpt lat="46.15891202352941" lon="8.533511934801936">
        <ele>1809.1500000000001</ele>
        <time>2022-02-27T09:28:52Z</time>
      </trkpt>
      <trkpt lat="46.158969607204199" lon="8.533441526815295">
        <ele>1811.1099999999999</ele>
        <time>2022-02-27T09:29:06Z</time>
      </trkpt>
      <trkpt lat="46.158989807590842" lon="8.533396432176232">
        <ele>1811.3599999999999</ele>
        <time>2022-02-27T09:29:18Z</time>
      </trkpt>
      <trkpt lat="46.158999865874648" lon="8.533415040001273">
        <ele>1810.7</ele>
        <time>2022-02-27T09:29:29Z</time>
      </trkpt>
      <trkpt lat="46.158998440951109" lon="8.533432725816965">
        <ele>1811.1400000000001</ele>
        <time>2022-02-27T09:29:42Z</time>
      </trkpt>
      <trkpt lat="46.158991986885667" lon="8.53342610411346">
        <ele>1810.3900000000001</ele>
        <time>2022-02-27T09:29:58Z</time>
      </trkpt>
      <trkpt lat="46.158986873924732" lon="8.533420991152525">
        <ele>1810.5</ele>
        <time>2022-02-27T09:30:19Z</time>
      </trkpt>
      <trkpt lat="46.159006906673312" lon="8.533389894291759">
        <ele>1810.1700000000001</ele>
        <time>2022-02-27T09:30:37Z</time>
      </trkpt>
      <trkpt lat="46.159014953300357" lon="8.533407161012292">
        <ele>1810.3299999999999</ele>
        <time>2022-02-27T09:30:59Z</time>
      </trkpt>
      <trkpt lat="46.159026185050607" lon="8.533425433561206">
        <ele>1810.52</ele>
        <time>2022-02-27T09:31:23Z</time>
      </trkpt>
      <trkpt lat="46.159036494791508" lon="8.533427612856031">
        <ele>1811.22</ele>
        <time>2022-02-27T09:31:35Z</time>
      </trkpt>
      <trkpt lat="46.159056862816215" lon="8.533449741080403">
        <ele>1813.6099999999999</ele>
        <time>2022-02-27T09:31:45Z</time>
      </trkpt>
      <trkpt lat="46.15907714702189" lon="8.533517802134156">
        <ele>1816.71</ele>
        <time>2022-02-27T09:31:59Z</time>
      </trkpt>
      <trkpt lat="46.159097347408533" lon="8.53360983543098">
        <ele>1819.5999999999999</ele>
        <time>2022-02-27T09:32:16Z</time>
      </trkpt>
      <trkpt lat="46.159098520874977" lon="8.533649314194918">
        <ele>1820.49</ele>
        <time>2022-02-27T09:32:20Z</time>
      </trkpt>
      <trkpt lat="46.159112099558115" lon="8.533735228702426">
        <ele>1822.05</ele>
        <time>2022-02-27T09:32:32Z</time>
      </trkpt>
      <trkpt lat="46.159173622727394" lon="8.533780071884394">
        <ele>1824.5699999999999</ele>
        <time>2022-02-27T09:32:48Z</time>
      </trkpt>
      <trkpt lat="46.159230368211865" lon="8.533766241744161">
        <ele>1826.79</ele>
        <time>2022-02-27T09:33:02Z</time>
      </trkpt>
      <trkpt lat="46.159294573590159" lon="8.533821813762188">
        <ele>1829.46</ele>
        <time>2022-02-27T09:33:18Z</time>
      </trkpt>
      <trkpt lat="46.159351654350758" lon="8.533804547041655">
        <ele>1832.4400000000001</ele>
        <time>2022-02-27T09:33:32Z</time>
      </trkpt>
      <trkpt lat="46.159419296309352" lon="8.533817874267697">
        <ele>1834.8800000000001</ele>
        <time>2022-02-27T09:33:48Z</time>
      </trkpt>
      <trkpt lat="46.15947101265192" lon="8.533872272819281">
        <ele>1837.25</ele>
        <time>2022-02-27T09:34:02Z</time>
      </trkpt>
      <trkpt lat="46.159526417031884" lon="8.533974196761847">
        <ele>1839.3499999999999</ele>
        <time>2022-02-27T09:34:17Z</time>
      </trkpt>
      <trkpt lat="46.159584252163768" lon="8.534040246158838">
        <ele>1838.04</ele>
        <time>2022-02-27T09:34:28Z</time>
      </trkpt>
      <trkpt lat="46.159648122265935" lon="8.534030355513096">
        <ele>1838.8599999999999</ele>
        <time>2022-02-27T09:34:39Z</time>
      </trkpt>
      <trkpt lat="46.159712495282292" lon="8.534087017178536">
        <ele>1839.5599999999999</ele>
        <time>2022-02-27T09:34:48Z</time>
      </trkpt>
      <trkpt lat="46.159788016229868" lon="8.534179301932454">
        <ele>1840.8299999999999</ele>
        <time>2022-02-27T09:35:00Z</time>
      </trkpt>
      <trkpt lat="46.159810898825526" lon="8.534225318580866">
        <ele>1841.73</ele>
        <time>2022-02-27T09:35:05Z</time>
      </trkpt>
      <trkpt lat="46.159848617389798" lon="8.534303354099393">
        <ele>1843.3599999999999</ele>
        <time>2022-02-27T09:35:15Z</time>
      </trkpt>
      <trkpt lat="46.159875439479947" lon="8.534375270828605">
        <ele>1844.3</ele>
        <time>2022-02-27T09:35:27Z</time>
      </trkpt>
      <trkpt lat="46.159955319017172" lon="8.534415252506733">
        <ele>1847.6400000000001</ele>
        <time>2022-02-27T09:35:44Z</time>
      </trkpt>
      <trkpt lat="46.160009885206819" lon="8.534483313560486">
        <ele>1849.74</ele>
        <time>2022-02-27T09:35:59Z</time>
      </trkpt>
      <trkpt lat="46.160080712288618" lon="8.534508626908064">
        <ele>1852.0999999999999</ele>
        <time>2022-02-27T09:36:13Z</time>
      </trkpt>
      <trkpt lat="46.160125723108649" lon="8.53443905711174">
        <ele>1854.9200000000001</ele>
        <time>2022-02-27T09:36:30Z</time>
      </trkpt>
      <trkpt lat="46.160139804705977" lon="8.534351130947471">
        <ele>1857.6500000000001</ele>
        <time>2022-02-27T09:36:45Z</time>
      </trkpt>
      <trkpt lat="46.160151204094291" lon="8.534303857013583">
        <ele>1858.8800000000001</ele>
        <time>2022-02-27T09:36:57Z</time>
      </trkpt>
      <trkpt lat="46.160204093903303" lon="8.534210314974189">
        <ele>1861.8099999999999</ele>
        <time>2022-02-27T09:37:14Z</time>
      </trkpt>
      <trkpt lat="46.160249691456556" lon="8.534162286669016">
        <ele>1864.4100000000001</ele>
        <time>2022-02-27T09:37:30Z</time>
      </trkpt>
      <trkpt lat="46.160291349515319" lon="8.534208722412586">
        <ele>1866.9200000000001</ele>
        <time>2022-02-27T09:37:43Z</time>
      </trkpt>
      <trkpt lat="46.160332001745701" lon="8.53427485562861">
        <ele>1869.3900000000001</ele>
        <time>2022-02-27T09:37:57Z</time>
      </trkpt>
      <trkpt lat="46.160369468852878" lon="8.534321710467339">
        <ele>1871.6800000000001</ele>
        <time>2022-02-27T09:38:10Z</time>
      </trkpt>
      <trkpt lat="46.16041406057775" lon="8.534361440688372">
        <ele>1874.47</ele>
        <time>2022-02-27T09:38:24Z</time>
      </trkpt>
      <trkpt lat="46.160461166873574" lon="8.534405194222927">
        <ele>1876.9000000000001</ele>
        <time>2022-02-27T09:38:39Z</time>
      </trkpt>
      <trkpt lat="46.160527300089598" lon="8.534440482035279">
        <ele>1879.6800000000001</ele>
        <time>2022-02-27T09:38:58Z</time>
      </trkpt>
      <trkpt lat="46.160581447184086" lon="8.534477362409234">
        <ele>1882.75</ele>
        <time>2022-02-27T09:39:14Z</time>
      </trkpt>
      <trkpt lat="46.160619333386421" lon="8.534518098458648">
        <ele>1885.6099999999999</ele>
        <time>2022-02-27T09:39:31Z</time>
      </trkpt>
      <trkpt lat="46.160660572350025" lon="8.534515164792538">
        <ele>1886.9000000000001</ele>
        <time>2022-02-27T09:39:46Z</time>
      </trkpt>
      <trkpt lat="46.160739865154028" lon="8.534459928050637">
        <ele>1889.8599999999999</ele>
        <time>2022-02-27T09:40:03Z</time>
      </trkpt>
      <trkpt lat="46.160800885409117" lon="8.534434530884028">
        <ele>1892.9200000000001</ele>
        <time>2022-02-27T09:40:17Z</time>
      </trkpt>
      <trkpt lat="46.160883866250515" lon="8.534424724057317">
        <ele>1895.8900000000001</ele>
        <time>2022-02-27T09:40:35Z</time>
      </trkpt>
      <trkpt lat="46.160955363884568" lon="8.534448025748134">
        <ele>1897.72</ele>
        <time>2022-02-27T09:40:49Z</time>
      </trkpt>
      <trkpt lat="46.161045385524631" lon="8.534460095688701">
        <ele>1900.24</ele>
        <time>2022-02-27T09:41:05Z</time>
      </trkpt>
      <trkpt lat="46.161149153485894" lon="8.53448549285531">
        <ele>1902.6300000000001</ele>
        <time>2022-02-27T09:41:23Z</time>
      </trkpt>
      <trkpt lat="46.161247054114938" lon="8.534490941092372">
        <ele>1905.45</ele>
        <time>2022-02-27T09:41:41Z</time>
      </trkpt>
      <trkpt lat="46.161302709951997" lon="8.534511560574174">
        <ele>1906.3800000000001</ele>
        <time>2022-02-27T09:41:54Z</time>
      </trkpt>
      <trkpt lat="46.161356773227453" lon="8.53452798910439">
        <ele>1910.0599999999999</ele>
        <time>2022-02-27T09:42:03Z</time>
      </trkpt>
      <trkpt lat="46.161363143473864" lon="8.534530838951469">
        <ele>1910.3099999999999</ele>
        <time>2022-02-27T09:42:04Z</time>
      </trkpt>
      <trkpt lat="46.161473616957664" lon="8.534566042944789">
        <ele>1910.9000000000001</ele>
        <time>2022-02-27T09:42:21Z</time>
      </trkpt>
      <trkpt lat="46.161556094884872" lon="8.534608287736774">
        <ele>1913.9300000000001</ele>
        <time>2022-02-27T09:42:37Z</time>
      </trkpt>
      <trkpt lat="46.161630861461163" lon="8.534638797864318">
        <ele>1916.73</ele>
        <time>2022-02-27T09:42:52Z</time>
      </trkpt>
      <trkpt lat="46.161702694371343" lon="8.534658662974834">
        <ele>1919.3</ele>
        <time>2022-02-27T09:43:06Z</time>
      </trkpt>
      <trkpt lat="46.16178710013628" lon="8.534679198637605">
        <ele>1922.4200000000001</ele>
        <time>2022-02-27T09:43:23Z</time>
      </trkpt>
      <trkpt lat="46.161844013258815" lon="8.53469604626298">
        <ele>1924.75</ele>
        <time>2022-02-27T09:43:37Z</time>
      </trkpt>
      <trkpt lat="46.161899250000715" lon="8.53468825109303">
        <ele>1927.1099999999999</ele>
        <time>2022-02-27T09:43:51Z</time>
      </trkpt>
      <trkpt lat="46.1619639582932" lon="8.534670313820243">
        <ele>1929.4400000000001</ele>
        <time>2022-02-27T09:44:06Z</time>
      </trkpt>
      <trkpt lat="46.162030678242445" lon="8.534637037664652">
        <ele>1932.02</ele>
        <time>2022-02-27T09:44:22Z</time>
      </trkpt>
      <trkpt lat="46.162099661305547" lon="8.534616585820913">
        <ele>1934.79</ele>
        <time>2022-02-27T09:44:37Z</time>
      </trkpt>
      <trkpt lat="46.162171494215727" lon="8.534596301615238">
        <ele>1936.9000000000001</ele>
        <time>2022-02-27T09:44:52Z</time>
      </trkpt>
      <trkpt lat="46.162192029878497" lon="8.534611472859979">
        <ele>1937.53</ele>
        <time>2022-02-27T09:45:07Z</time>
      </trkpt>
      <trkpt lat="46.162177696824074" lon="8.534644413739443">
        <ele>1936.6099999999999</ele>
        <time>2022-02-27T09:45:22Z</time>
      </trkpt>
      <trkpt lat="46.162137631326914" lon="8.534659501165152">
        <ele>1935.77</ele>
        <time>2022-02-27T09:45:34Z</time>
      </trkpt>
      <trkpt lat="46.162127824500203" lon="8.534596972167492">
        <ele>1935.6300000000001</ele>
        <time>2022-02-27T09:45:45Z</time>
      </trkpt>
      <trkpt lat="46.162133440375328" lon="8.534599905833602">
        <ele>1935.3099999999999</ele>
        <time>2022-02-27T09:46:00Z</time>
      </trkpt>
      <trkpt lat="46.162187419831753" lon="8.534575346857309">
        <ele>1936.24</ele>
        <time>2022-02-27T09:46:12Z</time>
      </trkpt>
      <trkpt lat="46.162193119525909" lon="8.534571155905724">
        <ele>1936.02</ele>
        <time>2022-02-27T09:46:25Z</time>
      </trkpt>
      <trkpt lat="46.162199154496193" lon="8.5345758497715">
        <ele>1935.2</ele>
        <time>2022-02-27T09:46:45Z</time>
      </trkpt>
      <trkpt lat="46.162195885553956" lon="8.534579873085022">
        <ele>1934.79</ele>
        <time>2022-02-27T09:47:33Z</time>
      </trkpt>
      <trkpt lat="46.162195634096861" lon="8.534574257209897">
        <ele>1934.9400000000001</ele>
        <time>2022-02-27T09:47:57Z</time>
      </trkpt>
      <trkpt lat="46.162191946059465" lon="8.534574592486024">
        <ele>1934.71</ele>
        <time>2022-02-27T09:48:37Z</time>
      </trkpt>
      <trkpt lat="46.162191946059465" lon="8.534577274695039">
        <ele>1934.55</ele>
        <time>2022-02-27T09:49:14Z</time>
      </trkpt>
      <trkpt lat="46.162188425660133" lon="8.534567970782518">
        <ele>1935.6300000000001</ele>
        <time>2022-02-27T09:49:44Z</time>
      </trkpt>
      <trkpt lat="46.162190772593021" lon="8.534570150077343">
        <ele>1935.99</ele>
        <time>2022-02-27T09:50:00Z</time>
      </trkpt>
      <trkpt lat="46.162187671288848" lon="8.534563612192869">
        <ele>1935.8599999999999</ele>
        <time>2022-02-27T09:50:15Z</time>
      </trkpt>
      <trkpt lat="46.162186246365309" lon="8.534567803144455">
        <ele>1936.3900000000001</ele>
        <time>2022-02-27T09:50:26Z</time>
      </trkpt>
      <trkpt lat="46.162186749279499" lon="8.534556990489364">
        <ele>1936.76</ele>
        <time>2022-02-27T09:50:41Z</time>
      </trkpt>
      <trkpt lat="46.162189766764641" lon="8.53456512093544">
        <ele>1936.1700000000001</ele>
        <time>2022-02-27T09:51:00Z</time>
      </trkpt>
      <trkpt lat="46.162209967151284" lon="8.534553805366159">
        <ele>1936.6900000000001</ele>
        <time>2022-02-27T09:51:09Z</time>
      </trkpt>
      <trkpt lat="46.162279704585671" lon="8.534497395157814">
        <ele>1936.6900000000001</ele>
        <time>2022-02-27T09:51:21Z</time>
      </trkpt>
      <trkpt lat="46.162358745932579" lon="8.534419778734446">
        <ele>1935.97</ele>
        <time>2022-02-27T09:51:34Z</time>
      </trkpt>
      <trkpt lat="46.162395542487502" lon="8.534390442073345">
        <ele>1935.6400000000001</ele>
        <time>2022-02-27T09:51:44Z</time>
      </trkpt>
      <trkpt lat="46.162456059828401" lon="8.534335792064667">
        <ele>1936.4100000000001</ele>
        <time>2022-02-27T09:51:56Z</time>
      </trkpt>
      <trkpt lat="46.162489671260118" lon="8.534297570586205">
        <ele>1938.21</ele>
        <time>2022-02-27T09:52:07Z</time>
      </trkpt>
      <trkpt lat="46.162529233843088" lon="8.534278878942132">
        <ele>1940.52</ele>
        <time>2022-02-27T09:52:18Z</time>
      </trkpt>
      <trkpt lat="46.162528647109866" lon="8.534230012446642">
        <ele>1941.9100000000001</ele>
        <time>2022-02-27T09:52:30Z</time>
      </trkpt>
      <trkpt lat="46.162560665979981" lon="8.534200675785542">
        <ele>1944.77</ele>
        <time>2022-02-27T09:52:43Z</time>
      </trkpt>
      <trkpt lat="46.162589248269796" lon="8.534168740734458">
        <ele>1946.5799999999999</ele>
        <time>2022-02-27T09:52:56Z</time>
      </trkpt>
      <trkpt lat="46.162616489455104" lon="8.53412096388638">
        <ele>1948.51</ele>
        <time>2022-02-27T09:53:09Z</time>
      </trkpt>
      <trkpt lat="46.162640461698174" lon="8.534098416566849">
        <ele>1950.1500000000001</ele>
        <time>2022-02-27T09:53:20Z</time>
      </trkpt>
      <trkpt lat="46.16266761906445" lon="8.534063212573528">
        <ele>1951.76</ele>
        <time>2022-02-27T09:53:35Z</time>
      </trkpt>
      <trkpt lat="46.162705169990659" lon="8.534059105440974">
        <ele>1954.02</ele>
        <time>2022-02-27T09:53:49Z</time>
      </trkpt>
      <trkpt lat="46.162739787250757" lon="8.534060949459672">
        <ele>1956.4300000000001</ele>
        <time>2022-02-27T09:54:03Z</time>
      </trkpt>
      <trkpt lat="46.162762921303511" lon="8.534068996086717">
        <ele>1957.95</ele>
        <time>2022-02-27T09:54:13Z</time>
      </trkpt>
      <trkpt lat="46.162787145003676" lon="8.534073941409588">
        <ele>1960.28</ele>
        <time>2022-02-27T09:54:24Z</time>
      </trkpt>
      <trkpt lat="46.162825282663107" lon="8.534091543406248">
        <ele>1962</ele>
        <time>2022-02-27T09:54:38Z</time>
      </trkpt>
      <trkpt lat="46.162870293483138" lon="8.534098165109754">
        <ele>1964.74</ele>
        <time>2022-02-27T09:54:56Z</time>
      </trkpt>
      <trkpt lat="46.162892924621701" lon="8.534060614183545">
        <ele>1966.77</ele>
        <time>2022-02-27T09:55:10Z</time>
      </trkpt>
      <trkpt lat="46.162906838580966" lon="8.534031864255667">
        <ele>1968.3199999999999</ele>
        <time>2022-02-27T09:55:22Z</time>
      </trkpt>
      <trkpt lat="46.162913041189313" lon="8.534028679132462">
        <ele>1968.3099999999999</ele>
        <time>2022-02-27T09:55:41Z</time>
      </trkpt>
      <trkpt lat="46.162896612659097" lon="8.533979477360845">
        <ele>1969.02</ele>
        <time>2022-02-27T09:55:57Z</time>
      </trkpt>
      <trkpt lat="46.162885380908847" lon="8.533941423520446">
        <ele>1970.1400000000001</ele>
        <time>2022-02-27T09:56:11Z</time>
      </trkpt>
      <trkpt lat="46.162907760590315" lon="8.533935891464353">
        <ele>1970.5799999999999</ele>
        <time>2022-02-27T09:56:14Z</time>
      </trkpt>
      <trkpt lat="46.163009768351912" lon="8.533933963626623">
        <ele>1972.54</ele>
        <time>2022-02-27T09:56:28Z</time>
      </trkpt>
      <trkpt lat="46.163088558241725" lon="8.533974532037973">
        <ele>1974.29</ele>
        <time>2022-02-27T09:56:39Z</time>
      </trkpt>
      <trkpt lat="46.163114458322525" lon="8.533973358571529">
        <ele>1974.3199999999999</ele>
        <time>2022-02-27T09:56:53Z</time>
      </trkpt>
      <trkpt lat="46.163199199363589" lon="8.534024571999908">
        <ele>1976.02</ele>
        <time>2022-02-27T09:57:07Z</time>
      </trkpt>
      <trkpt lat="46.163264997303486" lon="8.534051897004247">
        <ele>1976.46</ele>
        <time>2022-02-27T09:57:18Z</time>
      </trkpt>
      <trkpt lat="46.163356443867087" lon="8.534106966108084">
        <ele>1976.8099999999999</ele>
        <time>2022-02-27T09:57:30Z</time>
      </trkpt>
      <trkpt lat="46.163432635366917" lon="8.534121969714761">
        <ele>1978.02</ele>
        <time>2022-02-27T09:57:44Z</time>
      </trkpt>
      <trkpt lat="46.163437329232693" lon="8.534112079069018">
        <ele>1978.1600000000001</ele>
        <time>2022-02-27T09:57:45Z</time>
      </trkpt>
      <trkpt lat="46.163491727784276" lon="8.534098835662007">
        <ele>1977.48</ele>
        <time>2022-02-27T09:57:55Z</time>
      </trkpt>
      <trkpt lat="46.163471527397633" lon="8.53410973213613">
        <ele>1978.02</ele>
        <time>2022-02-27T09:58:12Z</time>
      </trkpt>
      <trkpt lat="46.163533553481102" lon="8.534067487344146">
        <ele>1976.27</ele>
        <time>2022-02-27T09:58:22Z</time>
      </trkpt>
      <trkpt lat="46.163587616756558" lon="8.534053405746818">
        <ele>1975.01</ele>
        <time>2022-02-27T09:58:36Z</time>
      </trkpt>
      <trkpt lat="46.163540259003639" lon="8.534084586426616">
        <ele>1975.78</ele>
        <time>2022-02-27T09:58:52Z</time>
      </trkpt>
      <trkpt lat="46.163515029475093" lon="8.534093303605914">
        <ele>1976.46</ele>
        <time>2022-02-27T09:59:01Z</time>
      </trkpt>
      <trkpt lat="46.163511257618666" lon="8.534097578376532">
        <ele>1976.3299999999999</ele>
        <time>2022-02-27T09:59:18Z</time>
      </trkpt>
      <trkpt lat="46.163511173799634" lon="8.534094979986548">
        <ele>1976.54</ele>
        <time>2022-02-27T09:59:35Z</time>
      </trkpt>
      <trkpt lat="46.163507318124175" lon="8.534097662195563">
        <ele>1976.04</ele>
        <time>2022-02-27T09:59:58Z</time>
      </trkpt>
      <trkpt lat="46.163500528782606" lon="8.534089447930455">
        <ele>1976.25</ele>
        <time>2022-02-27T10:00:31Z</time>
      </trkpt>
      <trkpt lat="46.16348996758461" lon="8.534114677459002">
        <ele>1976.9200000000001</ele>
        <time>2022-02-27T10:00:43Z</time>
      </trkpt>
      <trkpt lat="46.163491895422339" lon="8.534109145402908">
        <ele>1976.5599999999999</ele>
        <time>2022-02-27T10:00:58Z</time>
      </trkpt>
      <trkpt lat="46.163490973412991" lon="8.534109061583877">
        <ele>1976.72</ele>
        <time>2022-02-27T10:01:10Z</time>
      </trkpt>
      <trkpt lat="46.163494577631354" lon="8.534109564498067">
        <ele>1976.28</ele>
        <time>2022-02-27T10:01:24Z</time>
      </trkpt>
      <trkpt lat="46.163504384458065" lon="8.534096572548151">
        <ele>1975.8499999999999</ele>
        <time>2022-02-27T10:01:41Z</time>
      </trkpt>
      <trkpt lat="46.16351829841733" lon="8.534063631668687">
        <ele>1976.1700000000001</ele>
        <time>2022-02-27T10:01:46Z</time>
      </trkpt>
      <trkpt lat="46.163494912907481" lon="8.534098668023944">
        <ele>1975.96</ele>
        <time>2022-02-27T10:02:25Z</time>
      </trkpt>
      <trkpt lat="46.16348410025239" lon="8.534109396860004">
        <ele>1975.8199999999999</ele>
        <time>2022-02-27T10:02:39Z</time>
      </trkpt>
      <trkpt lat="46.163472533226013" lon="8.534110402688384">
        <ele>1976.28</ele>
        <time>2022-02-27T10:03:28Z</time>
      </trkpt>
      <trkpt lat="46.163472449406981" lon="8.534110151231289">
        <ele>1975.8499999999999</ele>
        <time>2022-02-27T10:03:56Z</time>
      </trkpt>
      <trkpt lat="46.163466665893793" lon="8.534109648317099">
        <ele>1975.49</ele>
        <time>2022-02-27T10:04:52Z</time>
      </trkpt>
      <trkpt lat="46.163461888208985" lon="8.534102607518435">
        <ele>1975.48</ele>
        <time>2022-02-27T10:05:38Z</time>
      </trkpt>
      <trkpt lat="46.163468677550554" lon="8.534105625003576">
        <ele>1975.5799999999999</ele>
        <time>2022-02-27T10:06:21Z</time>
      </trkpt>
      <trkpt lat="46.163468426093459" lon="8.534106714650989">
        <ele>1975.96</ele>
        <time>2022-02-27T10:07:21Z</time>
      </trkpt>
      <trkpt lat="46.163467755541205" lon="8.534106547012925">
        <ele>1975.9400000000001</ele>
        <time>2022-02-27T10:08:22Z</time>
      </trkpt>
      <trkpt lat="46.163467336446047" lon="8.534105122089386">
        <ele>1975.9100000000001</ele>
        <time>2022-02-27T10:09:20Z</time>
      </trkpt>
      <trkpt lat="46.163469767197967" lon="8.534105876460671">
        <ele>1976.1700000000001</ele>
        <time>2022-02-27T10:10:12Z</time>
      </trkpt>
      <trkpt lat="46.163468761369586" lon="8.534101936966181">
        <ele>1976.1800000000001</ele>
        <time>2022-02-27T10:11:08Z</time>
      </trkpt>
      <trkpt lat="46.16346993483603" lon="8.534100595861673">
        <ele>1975.5999999999999</ele>
        <time>2022-02-27T10:12:10Z</time>
      </trkpt>
      <trkpt lat="46.163470018655062" lon="8.534102691337466">
        <ele>1974.95</ele>
        <time>2022-02-27T10:13:10Z</time>
      </trkpt>
      <trkpt lat="46.163469515740871" lon="8.534106127917767">
        <ele>1974.8299999999999</ele>
        <time>2022-02-27T10:14:10Z</time>
      </trkpt>
      <trkpt lat="46.163470018655062" lon="8.534104535356164">
        <ele>1974.9400000000001</ele>
        <time>2022-02-27T10:14:57Z</time>
      </trkpt>
      <trkpt lat="46.163468509912491" lon="8.534107720479369">
        <ele>1975.3699999999999</ele>
        <time>2022-02-27T10:15:45Z</time>
      </trkpt>
      <trkpt lat="46.163468593731523" lon="8.534105625003576">
        <ele>1975.3699999999999</ele>
        <time>2022-02-27T10:16:41Z</time>
      </trkpt>
      <trkpt lat="46.163471778854728" lon="8.534117611125112">
        <ele>1975.0599999999999</ele>
        <time>2022-02-27T10:17:25Z</time>
      </trkpt>
      <trkpt lat="46.16347337141633" lon="8.534120209515095">
        <ele>1975.3299999999999</ele>
        <time>2022-02-27T10:18:20Z</time>
      </trkpt>
      <trkpt lat="46.163474712520838" lon="8.534116689115763">
        <ele>1975.1300000000001</ele>
        <time>2022-02-27T10:19:05Z</time>
      </trkpt>
      <trkpt lat="46.163482256233692" lon="8.534124149009585">
        <ele>1976.1300000000001</ele>
        <time>2022-02-27T10:19:18Z</time>
      </trkpt>
      <trkpt lat="46.16348116658628" lon="8.534127166494727">
        <ele>1976.1600000000001</ele>
        <time>2022-02-27T10:19:34Z</time>
      </trkpt>
      <trkpt lat="46.163493487983942" lon="8.534116940572858">
        <ele>1975.6900000000001</ele>
        <time>2022-02-27T10:19:51Z</time>
      </trkpt>
      <trkpt lat="46.163445208221674" lon="8.53412389755249">
        <ele>1976.48</ele>
        <time>2022-02-27T10:20:03Z</time>
      </trkpt>
      <trkpt lat="46.163410171866417" lon="8.53414099663496">
        <ele>1976.3800000000001</ele>
        <time>2022-02-27T10:20:16Z</time>
      </trkpt>
      <trkpt lat="46.163380583748221" lon="8.53416639380157">
        <ele>1976.3399999999999</ele>
        <time>2022-02-27T10:20:29Z</time>
      </trkpt>
      <trkpt lat="46.163329118862748" lon="8.534139739349484">
        <ele>1974.46</ele>
        <time>2022-02-27T10:20:40Z</time>
      </trkpt>
      <trkpt lat="46.163265751674771" lon="8.534108139574528">
        <ele>1974.3399999999999</ele>
        <time>2022-02-27T10:20:50Z</time>
      </trkpt>
      <trkpt lat="46.163209090009332" lon="8.534073103219271">
        <ele>1974.0599999999999</ele>
        <time>2022-02-27T10:21:00Z</time>
      </trkpt>
      <trkpt lat="46.163131222128868" lon="8.534017112106085">
        <ele>1973.6500000000001</ele>
        <time>2022-02-27T10:21:12Z</time>
      </trkpt>
      <trkpt lat="46.163053018972278" lon="8.534014765173197">
        <ele>1972.97</ele>
        <time>2022-02-27T10:21:24Z</time>
      </trkpt>
      <trkpt lat="46.16304631344974" lon="8.534013675525785">
        <ele>1972.71</ele>
        <time>2022-02-27T10:21:25Z</time>
      </trkpt>
      <trkpt lat="46.162964338436723" lon="8.533962462097406">
        <ele>1970.8900000000001</ele>
        <time>2022-02-27T10:21:37Z</time>
      </trkpt>
      <trkpt lat="46.162924692034721" lon="8.533961959183216">
        <ele>1969.6900000000001</ele>
        <time>2022-02-27T10:21:42Z</time>
      </trkpt>
      <trkpt lat="46.162857552990317" lon="8.533977465704083">
        <ele>1968.6199999999999</ele>
        <time>2022-02-27T10:21:56Z</time>
      </trkpt>
      <trkpt lat="46.162865767255425" lon="8.533968580886722">
        <ele>1968.53</ele>
        <time>2022-02-27T10:22:10Z</time>
      </trkpt>
      <trkpt lat="46.162928128615022" lon="8.534068912267685">
        <ele>1966.23</ele>
        <time>2022-02-27T10:22:23Z</time>
      </trkpt>
      <trkpt lat="46.162917818874121" lon="8.53408089838922">
        <ele>1964.96</ele>
        <time>2022-02-27T10:22:26Z</time>
      </trkpt>
      <trkpt lat="46.16289334371686" lon="8.534124735742807">
        <ele>1962.26</ele>
        <time>2022-02-27T10:22:36Z</time>
      </trkpt>
      <trkpt lat="46.162853110581636" lon="8.534127250313759">
        <ele>1960.3900000000001</ele>
        <time>2022-02-27T10:22:45Z</time>
      </trkpt>
      <trkpt lat="46.162819666787982" lon="8.534112246707082">
        <ele>1958.4100000000001</ele>
        <time>2022-02-27T10:22:57Z</time>
      </trkpt>
      <trkpt lat="46.162790497764945" lon="8.534101685509086">
        <ele>1956.29</ele>
        <time>2022-02-27T10:23:09Z</time>
      </trkpt>
      <trkpt lat="46.162776667624712" lon="8.53409799747169">
        <ele>1955.4200000000001</ele>
        <time>2022-02-27T10:23:19Z</time>
      </trkpt>
      <trkpt lat="46.16275068372488" lon="8.534098835662007">
        <ele>1953.5599999999999</ele>
        <time>2022-02-27T10:23:29Z</time>
      </trkpt>
      <trkpt lat="46.162736853584647" lon="8.534115431830287">
        <ele>1951.7</ele>
        <time>2022-02-27T10:23:41Z</time>
      </trkpt>
      <trkpt lat="46.162738362327218" lon="8.534104283899069">
        <ele>1951.8</ele>
        <time>2022-02-27T10:23:51Z</time>
      </trkpt>
      <trkpt lat="46.162720257416368" lon="8.534087268635631">
        <ele>1951.76</ele>
        <time>2022-02-27T10:24:10Z</time>
      </trkpt>
      <trkpt lat="46.162713216617703" lon="8.534090956673026">
        <ele>1951.96</ele>
        <time>2022-02-27T10:24:26Z</time>
      </trkpt>
      <trkpt lat="46.162717575207353" lon="8.534085508435965">
        <ele>1951.6600000000001</ele>
        <time>2022-02-27T10:24:44Z</time>
      </trkpt>
      <trkpt lat="46.162713468074799" lon="8.534080982208252">
        <ele>1951.8099999999999</ele>
        <time>2022-02-27T10:24:57Z</time>
      </trkpt>
      <trkpt lat="46.162715731188655" lon="8.534082490950823">
        <ele>1951.76</ele>
        <time>2022-02-27T10:25:12Z</time>
      </trkpt>
      <trkpt lat="46.162721682339907" lon="8.534088023006916">
        <ele>1951.6300000000001</ele>
        <time>2022-02-27T10:25:25Z</time>
      </trkpt>
      <trkpt lat="46.162723610177636" lon="8.53408383205533">
        <ele>1951.75</ele>
        <time>2022-02-27T10:25:39Z</time>
      </trkpt>
      <trkpt lat="46.16272084414959" lon="8.534078299999237">
        <ele>1951.8699999999999</ele>
        <time>2022-02-27T10:25:57Z</time>
      </trkpt>
      <trkpt lat="46.162712210789323" lon="8.534084586426616">
        <ele>1951.1800000000001</ele>
        <time>2022-02-27T10:26:18Z</time>
      </trkpt>
      <trkpt lat="46.162671810016036" lon="8.534104116261005">
        <ele>1949.0999999999999</ele>
        <time>2022-02-27T10:26:31Z</time>
      </trkpt>
      <trkpt lat="46.162666194140911" lon="8.534122304990888">
        <ele>1948.24</ele>
        <time>2022-02-27T10:26:44Z</time>
      </trkpt>
      <trkpt lat="46.162686226889491" lon="8.534107469022274">
        <ele>1948.5599999999999</ele>
        <time>2022-02-27T10:27:00Z</time>
      </trkpt>
      <trkpt lat="46.162729142233729" lon="8.53408383205533">
        <ele>1951.5799999999999</ele>
        <time>2022-02-27T10:27:12Z</time>
      </trkpt>
      <trkpt lat="46.162735009565949" lon="8.534093974158168">
        <ele>1950.05</ele>
        <time>2022-02-27T10:27:22Z</time>
      </trkpt>
      <trkpt lat="46.162736099213362" lon="8.534092381596565">
        <ele>1950.8299999999999</ele>
        <time>2022-02-27T10:27:24Z</time>
      </trkpt>
      <trkpt lat="46.162730986252427" lon="8.534087939187884">
        <ele>1950.3299999999999</ele>
        <time>2022-02-27T10:28:16Z</time>
      </trkpt>
      <trkpt lat="46.16272771731019" lon="8.534087100997567">
        <ele>1950.53</ele>
        <time>2022-02-27T10:29:08Z</time>
      </trkpt>
      <trkpt lat="46.16272428072989" lon="8.534079557284713">
        <ele>1951.1400000000001</ele>
        <time>2022-02-27T10:29:35Z</time>
      </trkpt>
      <trkpt lat="46.162720173597336" lon="8.534085173159838">
        <ele>1951.95</ele>
        <time>2022-02-27T10:29:53Z</time>
      </trkpt>
      <trkpt lat="46.162720927968621" lon="8.534086346626282">
        <ele>1951.55</ele>
        <time>2022-02-27T10:30:10Z</time>
      </trkpt>
      <trkpt lat="46.162717910483479" lon="8.534086011350155">
        <ele>1951.5999999999999</ele>
        <time>2022-02-27T10:30:23Z</time>
      </trkpt>
      <trkpt lat="46.162720927968621" lon="8.534083245322108">
        <ele>1951.8</ele>
        <time>2022-02-27T10:30:39Z</time>
      </trkpt>
      <trkpt lat="46.16271841339767" lon="8.534079222008586">
        <ele>1951.4200000000001</ele>
        <time>2022-02-27T10:30:56Z</time>
      </trkpt>
      <trkpt lat="46.162693267688155" lon="8.534079138189554">
        <ele>1950.4300000000001</ele>
        <time>2022-02-27T10:31:14Z</time>
      </trkpt>
      <trkpt lat="46.162676168605685" lon="8.534084670245647">
        <ele>1949.27</ele>
        <time>2022-02-27T10:31:25Z</time>
      </trkpt>
      <trkpt lat="46.162668038159609" lon="8.534101853147149">
        <ele>1948.8</ele>
        <time>2022-02-27T10:31:44Z</time>
      </trkpt>
      <trkpt lat="46.162647167220712" lon="8.534122724086046">
        <ele>1947.1600000000001</ele>
        <time>2022-02-27T10:31:54Z</time>
      </trkpt>
      <trkpt lat="46.162626715376973" lon="8.534125657752156">
        <ele>1946.1500000000001</ele>
        <time>2022-02-27T10:32:05Z</time>
      </trkpt>
      <trkpt lat="46.162609364837408" lon="8.534166226163507">
        <ele>1944.6400000000001</ele>
        <time>2022-02-27T10:32:17Z</time>
      </trkpt>
      <trkpt lat="46.162575082853436" lon="8.53420645929873">
        <ele>1941.55</ele>
        <time>2022-02-27T10:32:30Z</time>
      </trkpt>
      <trkpt lat="46.162557229399681" lon="8.534247865900397">
        <ele>1939.6900000000001</ele>
        <time>2022-02-27T10:32:43Z</time>
      </trkpt>
      <trkpt lat="46.16254155524075" lon="8.534256666898727">
        <ele>1938.6400000000001</ele>
        <time>2022-02-27T10:32:53Z</time>
      </trkpt>
      <trkpt lat="46.162529904395342" lon="8.534282483160496">
        <ele>1936.8699999999999</ele>
        <time>2022-02-27T10:33:06Z</time>
      </trkpt>
      <trkpt lat="46.162500148639083" lon="8.534301090985537">
        <ele>1934.7</ele>
        <time>2022-02-27T10:33:20Z</time>
      </trkpt>
      <trkpt lat="46.162467040121555" lon="8.534340150654316">
        <ele>1932.04</ele>
        <time>2022-02-27T10:33:32Z</time>
      </trkpt>
      <trkpt lat="46.162431500852108" lon="8.534379880875349">
        <ele>1931.76</ele>
        <time>2022-02-27T10:33:44Z</time>
      </trkpt>
      <trkpt lat="46.162416329607368" lon="8.53440091945231">
        <ele>1931.3099999999999</ele>
        <time>2022-02-27T10:33:49Z</time>
      </trkpt>
      <trkpt lat="46.16234265267849" lon="8.53446202352643">
        <ele>1932.26</ele>
        <time>2022-02-27T10:34:00Z</time>
      </trkpt>
      <trkpt lat="46.162324799224734" lon="8.534488007426262">
        <ele>1932.9000000000001</ele>
        <time>2022-02-27T10:34:15Z</time>
      </trkpt>
      <trkpt lat="46.162293870002031" lon="8.534517344087362">
        <ele>1932.54</ele>
        <time>2022-02-27T10:34:23Z</time>
      </trkpt>
      <trkpt lat="46.162219187244773" lon="8.534533604979515">
        <ele>1932.3900000000001</ele>
        <time>2022-02-27T10:34:36Z</time>
      </trkpt>
      <trkpt lat="46.162223629653454" lon="8.534526815637946">
        <ele>1932.76</ele>
        <time>2022-02-27T10:34:52Z</time>
      </trkpt>
      <trkpt lat="46.162199070677161" lon="8.534525977447629">
        <ele>1932.21</ele>
        <time>2022-02-27T10:35:15Z</time>
      </trkpt>
      <trkpt lat="46.162126567214727" lon="8.5345758497715">
        <ele>1929.1700000000001</ele>
        <time>2022-02-27T10:35:29Z</time>
      </trkpt>
      <trkpt lat="46.162026571109891" lon="8.534607952460647">
        <ele>1926.52</ele>
        <time>2022-02-27T10:35:42Z</time>
      </trkpt>
      <trkpt lat="46.161986757069826" lon="8.534668888896704">
        <ele>1924.53</ele>
        <time>2022-02-27T10:35:52Z</time>
      </trkpt>
      <trkpt lat="46.161888772621751" lon="8.534712055698037">
        <ele>1920.72</ele>
        <time>2022-02-27T10:36:04Z</time>
      </trkpt>
      <trkpt lat="46.161810234189034" lon="8.534707948565483">
        <ele>1917.9000000000001</ele>
        <time>2022-02-27T10:36:18Z</time>
      </trkpt>
      <trkpt lat="46.161748794838786" lon="8.534694453701377">
        <ele>1914.8</ele>
        <time>2022-02-27T10:36:27Z</time>
      </trkpt>
      <trkpt lat="46.161674363538623" lon="8.534678611904383">
        <ele>1911.6900000000001</ele>
        <time>2022-02-27T10:36:37Z</time>
      </trkpt>
      <trkpt lat="46.161628598347306" lon="8.534666290506721">
        <ele>1910.78</ele>
        <time>2022-02-27T10:36:45Z</time>
      </trkpt>
      <trkpt lat="46.161588784307241" lon="8.534652544185519">
        <ele>1908.3</ele>
        <time>2022-02-27T10:36:51Z</time>
      </trkpt>
      <trkpt lat="46.161483842879534" lon="8.534605018794537">
        <ele>1905.24</ele>
        <time>2022-02-27T10:37:06Z</time>
      </trkpt>
      <trkpt lat="46.161360964179039" lon="8.534560091793537">
        <ele>1902.4300000000001</ele>
        <time>2022-02-27T10:37:21Z</time>
      </trkpt>
      <trkpt lat="46.161293992772698" lon="8.534521535038948">
        <ele>1900.04</ele>
        <time>2022-02-27T10:37:35Z</time>
      </trkpt>
      <trkpt lat="46.161242444068193" lon="8.534513153135777">
        <ele>1899.05</ele>
        <time>2022-02-27T10:37:46Z</time>
      </trkpt>
      <trkpt lat="46.161234229803085" lon="8.534492617473006">
        <ele>1899.21</ele>
        <time>2022-02-27T10:37:59Z</time>
      </trkpt>
      <trkpt lat="46.161188967525959" lon="8.534466717392206">
        <ele>1897.1400000000001</ele>
        <time>2022-02-27T10:38:17Z</time>
      </trkpt>
      <trkpt lat="46.161052342504263" lon="8.534454312175512">
        <ele>1894.55</ele>
        <time>2022-02-27T10:38:34Z</time>
      </trkpt>
      <trkpt lat="46.160963913425803" lon="8.534465795382857">
        <ele>1892.3099999999999</ele>
        <time>2022-02-27T10:38:46Z</time>
      </trkpt>
      <trkpt lat="46.160868695005774" lon="8.534448696300387">
        <ele>1888.8599999999999</ele>
        <time>2022-02-27T10:38:59Z</time>
      </trkpt>
      <trkpt lat="46.160855116322637" lon="8.534438638016582">
        <ele>1888.02</ele>
        <time>2022-02-27T10:39:01Z</time>
      </trkpt>
      <trkpt lat="46.160767106339335" lon="8.534476608037949">
        <ele>1885.54</ele>
        <time>2022-02-27T10:39:14Z</time>
      </trkpt>
      <trkpt lat="46.160689909011126" lon="8.534514410421252">
        <ele>1882.23</ele>
        <time>2022-02-27T10:39:24Z</time>
      </trkpt>
      <trkpt lat="46.16061681881547" lon="8.534545255824924">
        <ele>1878.96</ele>
        <time>2022-02-27T10:39:34Z</time>
      </trkpt>
      <trkpt lat="46.160598043352365" lon="8.534512231126428">
        <ele>1877.3199999999999</ele>
        <time>2022-02-27T10:39:38Z</time>
      </trkpt>
      <trkpt lat="46.160535681992769" lon="8.534469148144126">
        <ele>1874.2</ele>
        <time>2022-02-27T10:39:44Z</time>
      </trkpt>
      <trkpt lat="46.160490335896611" lon="8.534437045454979">
        <ele>1870.9100000000001</ele>
        <time>2022-02-27T10:39:48Z</time>
      </trkpt>
      <trkpt lat="46.160489832982421" lon="8.534432854503393">
        <ele>1870.8699999999999</ele>
        <time>2022-02-27T10:39:49Z</time>
      </trkpt>
      <trkpt lat="46.160467704758048" lon="8.534420784562826">
        <ele>1870.2</ele>
        <time>2022-02-27T10:39:57Z</time>
      </trkpt>
      <trkpt lat="46.16044239141047" lon="8.534394716843963">
        <ele>1868.5899999999999</ele>
        <time>2022-02-27T10:40:00Z</time>
      </trkpt>
      <trkpt lat="46.160369049757719" lon="8.534333864226937">
        <ele>1865.03</ele>
        <time>2022-02-27T10:40:09Z</time>
      </trkpt>
      <trkpt lat="46.160325463861227" lon="8.534274436533451">
        <ele>1861.8099999999999</ele>
        <time>2022-02-27T10:40:15Z</time>
      </trkpt>
      <trkpt lat="46.160287242382765" lon="8.534216349944472">
        <ele>1859.0899999999999</ele>
        <time>2022-02-27T10:40:22Z</time>
      </trkpt>
      <trkpt lat="46.160219432786107" lon="8.534223809838295">
        <ele>1855.49</ele>
        <time>2022-02-27T10:40:33Z</time>
      </trkpt>
      <trkpt lat="46.16016679443419" lon="8.534296480938792">
        <ele>1852.28</ele>
        <time>2022-02-27T10:40:43Z</time>
      </trkpt>
      <trkpt lat="46.160130752250552" lon="8.53441609069705">
        <ele>1848.9100000000001</ele>
        <time>2022-02-27T10:40:56Z</time>
      </trkpt>
      <trkpt lat="46.160122370347381" lon="8.534482894465327">
        <ele>1846.99</ele>
        <time>2022-02-27T10:41:05Z</time>
      </trkpt>
      <trkpt lat="46.160060930997133" lon="8.534526647999883">
        <ele>1843.3299999999999</ele>
        <time>2022-02-27T10:41:13Z</time>
      </trkpt>
      <trkpt lat="46.159973759204149" lon="8.534443499520421">
        <ele>1840.1099999999999</ele>
        <time>2022-02-27T10:41:25Z</time>
      </trkpt>
      <trkpt lat="46.159908631816506" lon="8.534397482872009">
        <ele>1837.04</ele>
        <time>2022-02-27T10:41:34Z</time>
      </trkpt>
      <trkpt lat="46.159865967929363" lon="8.534380635246635">
        <ele>1836.03</ele>
        <time>2022-02-27T10:41:46Z</time>
      </trkpt>
      <trkpt lat="46.15986336953938" lon="8.534376109018922">
        <ele>1835.98</ele>
        <time>2022-02-27T10:42:07Z</time>
      </trkpt>
      <trkpt lat="46.159866470843554" lon="8.534386502578855">
        <ele>1835.0999999999999</ele>
        <time>2022-02-27T10:42:20Z</time>
      </trkpt>
      <trkpt lat="46.159862615168095" lon="8.534378204494715">
        <ele>1834.8499999999999</ele>
        <time>2022-02-27T10:42:39Z</time>
      </trkpt>
      <trkpt lat="46.159878540784121" lon="8.53437602519989">
        <ele>1835.23</ele>
        <time>2022-02-27T10:43:00Z</time>
      </trkpt>
      <trkpt lat="46.159890946000814" lon="8.534378623589873">
        <ele>1834.8399999999999</ele>
        <time>2022-02-27T10:43:23Z</time>
      </trkpt>
      <trkpt lat="46.159884408116341" lon="8.534385748207569">
        <ele>1834.6099999999999</ele>
        <time>2022-02-27T10:43:35Z</time>
      </trkpt>
      <trkpt lat="46.159863704815507" lon="8.534393208101392">
        <ele>1834.5</ele>
        <time>2022-02-27T10:43:40Z</time>
      </trkpt>
      <trkpt lat="46.159872841089964" lon="8.534390358254314">
        <ele>1834.3299999999999</ele>
        <time>2022-02-27T10:44:05Z</time>
      </trkpt>
      <trkpt lat="46.159874936565757" lon="8.534382730722427">
        <ele>1834.45</ele>
        <time>2022-02-27T10:44:37Z</time>
      </trkpt>
      <trkpt lat="46.159875607118011" lon="8.534378288313747">
        <ele>1833.9300000000001</ele>
        <time>2022-02-27T10:44:53Z</time>
      </trkpt>
      <trkpt lat="46.159874768927693" lon="8.534380719065666">
        <ele>1832.8</ele>
        <time>2022-02-27T10:44:58Z</time>
      </trkpt>
      <trkpt lat="46.15987217053771" lon="8.534386837854981">
        <ele>1837.46</ele>
        <time>2022-02-27T10:45:03Z</time>
      </trkpt>
      <trkpt lat="46.159853478893638" lon="8.534397482872009">
        <ele>1834.5</ele>
        <time>2022-02-27T10:45:50Z</time>
      </trkpt>
      <trkpt lat="46.159856077283621" lon="8.534395387396216">
        <ele>1834.96</ele>
        <time>2022-02-27T10:46:45Z</time>
      </trkpt>
      <trkpt lat="46.159857334569097" lon="8.534383652731776">
        <ele>1835.1099999999999</ele>
        <time>2022-02-27T10:47:33Z</time>
      </trkpt>
      <trkpt lat="46.159854819998145" lon="8.534382143989205">
        <ele>1835.3499999999999</ele>
        <time>2022-02-27T10:48:14Z</time>
      </trkpt>
      <trkpt lat="46.159853814169765" lon="8.534387173131108">
        <ele>1835.2</ele>
        <time>2022-02-27T10:49:04Z</time>
      </trkpt>
      <trkpt lat="46.159849790856242" lon="8.534390022978187">
        <ele>1835.1700000000001</ele>
        <time>2022-02-27T10:49:52Z</time>
      </trkpt>
      <trkpt lat="46.159844761714339" lon="8.534401087090373">
        <ele>1835.5599999999999</ele>
        <time>2022-02-27T10:50:42Z</time>
      </trkpt>
      <trkpt lat="46.159851467236876" lon="8.5344014223665">
        <ele>1835.5</ele>
        <time>2022-02-27T10:51:29Z</time>
      </trkpt>
      <trkpt lat="46.159850880503654" lon="8.534398237243295">
        <ele>1835.4000000000001</ele>
        <time>2022-02-27T10:52:14Z</time>
      </trkpt>
      <trkpt lat="46.159853059798479" lon="8.534404439851642">
        <ele>1835.6900000000001</ele>
        <time>2022-02-27T10:52:58Z</time>
      </trkpt>
      <trkpt lat="46.159854987636209" lon="8.534394549205899">
        <ele>1835.8900000000001</ele>
        <time>2022-02-27T10:53:41Z</time>
      </trkpt>
      <trkpt lat="46.15985456854105" lon="8.534381305798888">
        <ele>1835.98</ele>
        <time>2022-02-27T10:54:24Z</time>
      </trkpt>
      <trkpt lat="46.159860687330365" lon="8.534382311627269">
        <ele>1835.95</ele>
        <time>2022-02-27T10:55:02Z</time>
      </trkpt>
      <trkpt lat="46.159855742007494" lon="8.534391196444631">
        <ele>1836.29</ele>
        <time>2022-02-27T10:55:39Z</time>
      </trkpt>
      <trkpt lat="46.159866554662585" lon="8.534388095140457">
        <ele>1835.9200000000001</ele>
        <time>2022-02-27T10:56:22Z</time>
      </trkpt>
      <trkpt lat="46.159880887717009" lon="8.534383401274681">
        <ele>1836.54</ele>
        <time>2022-02-27T10:56:40Z</time>
      </trkpt>
      <trkpt lat="46.159889856353402" lon="8.5343755222857">
        <ele>1836.21</ele>
        <time>2022-02-27T10:57:02Z</time>
      </trkpt>
      <trkpt lat="46.159897902980447" lon="8.534365212544799">
        <ele>1835.9200000000001</ele>
        <time>2022-02-27T10:57:21Z</time>
      </trkpt>
      <trkpt lat="46.15990100428462" lon="8.534351382404566">
        <ele>1836.5999999999999</ele>
        <time>2022-02-27T10:57:43Z</time>
      </trkpt>
      <trkpt lat="46.159902261570096" lon="8.534369068220258">
        <ele>1836.24</ele>
        <time>2022-02-27T10:58:04Z</time>
      </trkpt>
      <trkpt lat="46.159907961264253" lon="8.534355657175183">
        <ele>1836.03</ele>
        <time>2022-02-27T10:58:27Z</time>
      </trkpt>
      <trkpt lat="46.159898992627859" lon="8.534361608326435">
        <ele>1835.97</ele>
        <time>2022-02-27T10:58:50Z</time>
      </trkpt>
      <trkpt lat="46.159904105588794" lon="8.534351633861661">
        <ele>1836.0999999999999</ele>
        <time>2022-02-27T10:59:13Z</time>
      </trkpt>
      <trkpt lat="46.159913158044219" lon="8.534347359091044">
        <ele>1835.8</ele>
        <time>2022-02-27T10:59:35Z</time>
      </trkpt>
      <trkpt lat="46.159914582967758" lon="8.534339480102062">
        <ele>1836.4100000000001</ele>
        <time>2022-02-27T10:59:59Z</time>
      </trkpt>
      <trkpt lat="46.159916929900646" lon="8.534326823428273">
        <ele>1835.3599999999999</ele>
        <time>2022-02-27T11:00:22Z</time>
      </trkpt>
      <trkpt lat="46.159907542169094" lon="8.53432908654213">
        <ele>1835.6300000000001</ele>
        <time>2022-02-27T11:00:47Z</time>
      </trkpt>
      <trkpt lat="46.15990343503654" lon="8.5343496222049">
        <ele>1835.8099999999999</ele>
        <time>2022-02-27T11:01:20Z</time>
      </trkpt>
      <trkpt lat="46.159892454743385" lon="8.534372756257653">
        <ele>1835.6099999999999</ele>
        <time>2022-02-27T11:02:01Z</time>
      </trkpt>
      <trkpt lat="46.159892287105322" lon="8.534376109018922">
        <ele>1835.25</ele>
        <time>2022-02-27T11:02:35Z</time>
      </trkpt>
      <trkpt lat="46.159898489713669" lon="8.534369990229607">
        <ele>1835.2</ele>
        <time>2022-02-27T11:02:59Z</time>
      </trkpt>
      <trkpt lat="46.159895472228527" lon="8.534380467608571">
        <ele>1835.3099999999999</ele>
        <time>2022-02-27T11:03:41Z</time>
      </trkpt>
      <trkpt lat="46.159887341782451" lon="8.534382060170174">
        <ele>1835.24</ele>
        <time>2022-02-27T11:04:18Z</time>
      </trkpt>
      <trkpt lat="46.159890694543719" lon="8.534379797056317">
        <ele>1835.05</ele>
        <time>2022-02-27T11:04:42Z</time>
      </trkpt>
      <trkpt lat="46.159893628209829" lon="8.534362697973847">
        <ele>1835.23</ele>
        <time>2022-02-27T11:05:04Z</time>
      </trkpt>
      <trkpt lat="46.15988390520215" lon="8.534371247515082">
        <ele>1835.25</ele>
        <time>2022-02-27T11:05:34Z</time>
      </trkpt>
      <trkpt lat="46.159886168316007" lon="8.53438968770206">
        <ele>1835.03</ele>
        <time>2022-02-27T11:06:07Z</time>
      </trkpt>
      <trkpt lat="46.159874936565757" lon="8.534399578347802">
        <ele>1834.77</ele>
        <time>2022-02-27T11:06:45Z</time>
      </trkpt>
      <trkpt lat="46.159872505813837" lon="8.534398321062326">
        <ele>1834.9000000000001</ele>
        <time>2022-02-27T11:07:35Z</time>
      </trkpt>
      <trkpt lat="46.159871919080615" lon="8.53439505212009">
        <ele>1835.6700000000001</ele>
        <time>2022-02-27T11:08:22Z</time>
      </trkpt>
      <trkpt lat="46.159871583804488" lon="8.534392789006233">
        <ele>1835.7</ele>
        <time>2022-02-27T11:09:07Z</time>
      </trkpt>
      <trkpt lat="46.159872589632869" lon="8.534395303577185">
        <ele>1836.3900000000001</ele>
        <time>2022-02-27T11:09:55Z</time>
      </trkpt>
      <trkpt lat="46.159871248528361" lon="8.534398740157485">
        <ele>1836.3099999999999</ele>
        <time>2022-02-27T11:10:40Z</time>
      </trkpt>
      <trkpt lat="46.159874433651567" lon="8.534402428194881">
        <ele>1836.0999999999999</ele>
        <time>2022-02-27T11:11:24Z</time>
      </trkpt>
      <trkpt lat="46.159870075061917" lon="8.534403517842293">
        <ele>1836.22</ele>
        <time>2022-02-27T11:12:13Z</time>
      </trkpt>
      <trkpt lat="46.159873008728027" lon="8.534402344375849">
        <ele>1835.98</ele>
        <time>2022-02-27T11:13:01Z</time>
      </trkpt>
      <trkpt lat="46.159869069233537" lon="8.534401170909405">
        <ele>1836.0599999999999</ele>
        <time>2022-02-27T11:13:25Z</time>
      </trkpt>
      <trkpt lat="46.159867309033871" lon="8.534407373517752">
        <ele>1836.3299999999999</ele>
        <time>2022-02-27T11:14:05Z</time>
      </trkpt>
      <trkpt lat="46.159876026213169" lon="8.534396477043629">
        <ele>1836.73</ele>
        <time>2022-02-27T11:14:46Z</time>
      </trkpt>
      <trkpt lat="46.159885665401816" lon="8.534395974129438">
        <ele>1836.48</ele>
        <time>2022-02-27T11:15:22Z</time>
      </trkpt>
      <trkpt lat="46.159884659573436" lon="8.534385580569506">
        <ele>1836.47</ele>
        <time>2022-02-27T11:15:59Z</time>
      </trkpt>
      <trkpt lat="46.159889101982117" lon="8.534386502578855">
        <ele>1836.3399999999999</ele>
        <time>2022-02-27T11:16:35Z</time>
      </trkpt>
      <trkpt lat="46.159887425601482" lon="8.53438725695014">
        <ele>1836.21</ele>
        <time>2022-02-27T11:17:15Z</time>
      </trkpt>
      <trkpt lat="46.159883067011833" lon="8.534387173131108">
        <ele>1836.71</ele>
        <time>2022-02-27T11:17:51Z</time>
      </trkpt>
      <trkpt lat="46.159884240478277" lon="8.534391364082694">
        <ele>1836.9400000000001</ele>
        <time>2022-02-27T11:18:30Z</time>
      </trkpt>
      <trkpt lat="46.159867728129029" lon="8.534400416538119">
        <ele>1836.9200000000001</ele>
        <time>2022-02-27T11:19:11Z</time>
      </trkpt>
      <trkpt lat="46.159870745614171" lon="8.534397482872009">
        <ele>1837.4200000000001</ele>
        <time>2022-02-27T11:19:51Z</time>
      </trkpt>
      <trkpt lat="46.159869320690632" lon="8.534404272213578">
        <ele>1837.3199999999999</ele>
        <time>2022-02-27T11:20:28Z</time>
      </trkpt>
      <trkpt lat="46.159877870231867" lon="8.534395303577185">
        <ele>1837.22</ele>
        <time>2022-02-27T11:21:01Z</time>
      </trkpt>
      <trkpt lat="46.15987166762352" lon="8.534393711015582">
        <ele>1836.97</ele>
        <time>2022-02-27T11:21:37Z</time>
      </trkpt>
      <trkpt lat="46.159875607118011" lon="8.53438968770206">
        <ele>1837.0899999999999</ele>
        <time>2022-02-27T11:22:15Z</time>
      </trkpt>
      <trkpt lat="46.159878205507994" lon="8.53438775986433">
        <ele>1836.98</ele>
        <time>2022-02-27T11:22:53Z</time>
      </trkpt>
      <trkpt lat="46.15987510420382" lon="8.53439211845398">
        <ele>1837.1500000000001</ele>
        <time>2022-02-27T11:23:35Z</time>
      </trkpt>
      <trkpt lat="46.159883821383119" lon="8.534393040463328">
        <ele>1837.25</ele>
        <time>2022-02-27T11:24:15Z</time>
      </trkpt>
      <trkpt lat="46.159886252135038" lon="8.534390274435282">
        <ele>1837.6700000000001</ele>
        <time>2022-02-27T11:24:51Z</time>
      </trkpt>
      <trkpt lat="46.159879546612501" lon="8.534398069605231">
        <ele>1838.04</ele>
        <time>2022-02-27T11:25:36Z</time>
      </trkpt>
      <trkpt lat="46.159874014556408" lon="8.534391447901726">
        <ele>1838.1900000000001</ele>
        <time>2022-02-27T11:26:23Z</time>
      </trkpt>
      <trkpt lat="46.159873260185122" lon="8.534396979957819">
        <ele>1838.6099999999999</ele>
        <time>2022-02-27T11:27:07Z</time>
      </trkpt>
      <trkpt lat="46.159888096153736" lon="8.53439555503428">
        <ele>1838.5999999999999</ele>
        <time>2022-02-27T11:27:47Z</time>
      </trkpt>
      <trkpt lat="46.159888850525022" lon="8.534396979957819">
        <ele>1838.6600000000001</ele>
        <time>2022-02-27T11:28:25Z</time>
      </trkpt>
      <trkpt lat="46.159885078668594" lon="8.534403685480356">
        <ele>1838.55</ele>
        <time>2022-02-27T11:29:05Z</time>
      </trkpt>
      <trkpt lat="46.15987703204155" lon="8.534412989392877">
        <ele>1838.71</ele>
        <time>2022-02-27T11:29:40Z</time>
      </trkpt>
      <trkpt lat="46.159877451136708" lon="8.534403098747134">
        <ele>1838.4100000000001</ele>
        <time>2022-02-27T11:30:23Z</time>
      </trkpt>
      <trkpt lat="46.159868314862251" lon="8.534401087090373">
        <ele>1838.48</ele>
        <time>2022-02-27T11:31:00Z</time>
      </trkpt>
      <trkpt lat="46.159859262406826" lon="8.534399075433612">
        <ele>1838.04</ele>
        <time>2022-02-27T11:31:38Z</time>
      </trkpt>
      <trkpt lat="46.15985993295908" lon="8.534389855340123">
        <ele>1838.1500000000001</ele>
        <time>2022-02-27T11:32:26Z</time>
      </trkpt>
      <trkpt lat="46.159856496378779" lon="8.534394465386868">
        <ele>1838.26</ele>
        <time>2022-02-27T11:33:11Z</time>
      </trkpt>
      <trkpt lat="46.159857669845223" lon="8.534388681873679">
        <ele>1838.25</ele>
        <time>2022-02-27T11:33:54Z</time>
      </trkpt>
      <trkpt lat="46.159852975979447" lon="8.534393459558487">
        <ele>1838.03</ele>
        <time>2022-02-27T11:34:30Z</time>
      </trkpt>
      <trkpt lat="46.15985406562686" lon="8.534391531720758">
        <ele>1838.26</ele>
        <time>2022-02-27T11:35:07Z</time>
      </trkpt>
      <trkpt lat="46.159854903817177" lon="8.53440192528069">
        <ele>1838.1700000000001</ele>
        <time>2022-02-27T11:35:50Z</time>
      </trkpt>
      <trkpt lat="46.159853059798479" lon="8.534397566691041">
        <ele>1838.4000000000001</ele>
        <time>2022-02-27T11:36:36Z</time>
      </trkpt>
      <trkpt lat="46.159864543005824" lon="8.534395638853312">
        <ele>1838.4100000000001</ele>
        <time>2022-02-27T11:37:29Z</time>
      </trkpt>
      <trkpt lat="46.159872505813837" lon="8.534394716843963">
        <ele>1838.8299999999999</ele>
        <time>2022-02-27T11:38:09Z</time>
      </trkpt>
      <trkpt lat="46.159872924908996" lon="8.534396309405565">
        <ele>1838.8099999999999</ele>
        <time>2022-02-27T11:38:49Z</time>
      </trkpt>
      <trkpt lat="46.15986529737711" lon="8.534394884482026">
        <ele>1838.5799999999999</ele>
        <time>2022-02-27T11:39:31Z</time>
      </trkpt>
      <trkpt lat="46.159864794462919" lon="8.534393543377519">
        <ele>1839.22</ele>
        <time>2022-02-27T11:40:13Z</time>
      </trkpt>
      <trkpt lat="46.159866554662585" lon="8.534395890310407">
        <ele>1839.1300000000001</ele>
        <time>2022-02-27T11:40:51Z</time>
      </trkpt>
      <trkpt lat="46.159868398681283" lon="8.53439656086266">
        <ele>1839.1700000000001</ele>
        <time>2022-02-27T11:41:26Z</time>
      </trkpt>
      <trkpt lat="46.159869488328695" lon="8.534392034634948">
        <ele>1839.2</ele>
        <time>2022-02-27T11:42:11Z</time>
      </trkpt>
      <trkpt lat="46.159869069233537" lon="8.534384742379189">
        <ele>1839.6099999999999</ele>
        <time>2022-02-27T11:42:49Z</time>
      </trkpt>
      <trkpt lat="46.159868566319346" lon="8.534387927502394">
        <ele>1839.02</ele>
        <time>2022-02-27T11:43:31Z</time>
      </trkpt>
      <trkpt lat="46.159864040091634" lon="8.534383317455649">
        <ele>1838.74</ele>
        <time>2022-02-27T11:44:12Z</time>
      </trkpt>
      <trkpt lat="46.159858172759414" lon="8.534385245293379">
        <ele>1838.8800000000001</ele>
        <time>2022-02-27T11:44:53Z</time>
      </trkpt>
      <trkpt lat="46.159849120303988" lon="8.534378204494715">
        <ele>1838.8499999999999</ele>
        <time>2022-02-27T11:45:35Z</time>
      </trkpt>
      <trkpt lat="46.159846521914005" lon="8.534375187009573">
        <ele>1839.28</ele>
        <time>2022-02-27T11:46:16Z</time>
      </trkpt>
      <trkpt lat="46.159855909645557" lon="8.534376360476017">
        <ele>1839.1500000000001</ele>
        <time>2022-02-27T11:46:52Z</time>
      </trkpt>
      <trkpt lat="46.159842498600483" lon="8.53438189253211">
        <ele>1839.0899999999999</ele>
        <time>2022-02-27T11:47:37Z</time>
      </trkpt>
      <trkpt lat="46.159841660410166" lon="8.534378372132778">
        <ele>1839.23</ele>
        <time>2022-02-27T11:48:14Z</time>
      </trkpt>
      <trkpt lat="46.15984383970499" lon="8.534376611933112">
        <ele>1839.3499999999999</ele>
        <time>2022-02-27T11:48:51Z</time>
      </trkpt>
      <trkpt lat="46.159844091162086" lon="8.534378875046969">
        <ele>1839.1800000000001</ele>
        <time>2022-02-27T11:49:21Z</time>
      </trkpt>
      <trkpt lat="46.159833194687963" lon="8.534376276656985">
        <ele>1838.8299999999999</ele>
        <time>2022-02-27T11:50:01Z</time>
      </trkpt>
      <trkpt lat="46.159828836098313" lon="8.534378036856651">
        <ele>1839.26</ele>
        <time>2022-02-27T11:50:38Z</time>
      </trkpt>
      <trkpt lat="46.159829339012504" lon="8.534377114847302">
        <ele>1836</ele>
        <time>2022-02-27T11:50:44Z</time>
      </trkpt>
      <trkpt lat="46.159829339012504" lon="8.534376947209239">
        <ele>1835.72</ele>
        <time>2022-02-27T11:50:45Z</time>
      </trkpt>
      <trkpt lat="46.159829925745726" lon="8.534376444295049">
        <ele>1839.97</ele>
        <time>2022-02-27T11:50:46Z</time>
      </trkpt>
      <trkpt lat="46.159831015393138" lon="8.534376779571176">
        <ele>1839.25</ele>
        <time>2022-02-27T11:50:47Z</time>
      </trkpt>
      <trkpt lat="46.159831350669265" lon="8.534376109018922">
        <ele>1834.0799999999999</ele>
        <time>2022-02-27T11:50:48Z</time>
      </trkpt>
      <trkpt lat="46.15983160212636" lon="8.534375773742795">
        <ele>1836.6700000000001</ele>
        <time>2022-02-27T11:50:49Z</time>
      </trkpt>
      <trkpt lat="46.159832943230867" lon="8.534374851733446">
        <ele>1842.8199999999999</ele>
        <time>2022-02-27T11:50:51Z</time>
      </trkpt>
      <trkpt lat="46.159833278506994" lon="8.534374348819256">
        <ele>1840.99</ele>
        <time>2022-02-27T11:50:52Z</time>
      </trkpt>
      <trkpt lat="46.159835709258914" lon="8.534373762086034">
        <ele>1838.8900000000001</ele>
        <time>2022-02-27T11:50:55Z</time>
      </trkpt>
      <trkpt lat="46.159846018999815" lon="8.53436135686934">
        <ele>1839.29</ele>
        <time>2022-02-27T11:51:38Z</time>
      </trkpt>
      <trkpt lat="46.159845683723688" lon="8.534364458173513">
        <ele>1839.4100000000001</ele>
        <time>2022-02-27T11:52:19Z</time>
      </trkpt>
      <trkpt lat="46.159839564934373" lon="8.534362865611911">
        <ele>1841.1700000000001</ele>
        <time>2022-02-27T11:52:50Z</time>
      </trkpt>
      <trkpt lat="46.159840822219849" lon="8.534365799278021">
        <ele>1840.01</ele>
        <time>2022-02-27T11:52:59Z</time>
      </trkpt>
      <trkpt lat="46.159841157495975" lon="8.534363368526101">
        <ele>1838.8499999999999</ele>
        <time>2022-02-27T11:53:01Z</time>
      </trkpt>
      <trkpt lat="46.159840067848563" lon="8.534362949430943">
        <ele>1840.9100000000001</ele>
        <time>2022-02-27T11:53:03Z</time>
      </trkpt>
      <trkpt lat="46.159837218001485" lon="8.534373175352812">
        <ele>1840.5</ele>
        <time>2022-02-27T11:53:18Z</time>
      </trkpt>
      <trkpt lat="46.159838056191802" lon="8.53437359444797">
        <ele>1840.48</ele>
        <time>2022-02-27T11:53:34Z</time>
      </trkpt>
      <trkpt lat="46.159833949059248" lon="8.534364039078355">
        <ele>1839.79</ele>
        <time>2022-02-27T11:53:46Z</time>
      </trkpt>
      <trkpt lat="46.159836715087295" lon="8.534358674660325">
        <ele>1840.6500000000001</ele>
        <time>2022-02-27T11:54:07Z</time>
      </trkpt>
      <trkpt lat="46.159815341234207" lon="8.534335708245635">
        <ele>1839.4300000000001</ele>
        <time>2022-02-27T11:54:27Z</time>
      </trkpt>
      <trkpt lat="46.159794637933373" lon="8.534332774579525">
        <ele>1838.8800000000001</ele>
        <time>2022-02-27T11:54:41Z</time>
      </trkpt>
      <trkpt lat="46.159793548285961" lon="8.534334534779191">
        <ele>1839.48</ele>
        <time>2022-02-27T11:54:59Z</time>
      </trkpt>
      <trkpt lat="46.159793380647898" lon="8.534316010773182">
        <ele>1839.52</ele>
        <time>2022-02-27T11:55:18Z</time>
      </trkpt>
      <trkpt lat="46.1597915366292" lon="8.534318776801229">
        <ele>1839.3699999999999</ele>
        <time>2022-02-27T11:55:40Z</time>
      </trkpt>
      <trkpt lat="46.159787429496646" lon="8.534319531172514">
        <ele>1839.26</ele>
        <time>2022-02-27T11:56:03Z</time>
      </trkpt>
      <trkpt lat="46.159785417839885" lon="8.534317435696721">
        <ele>1839.3199999999999</ele>
        <time>2022-02-27T11:56:25Z</time>
      </trkpt>
      <trkpt lat="46.159790530800819" lon="8.534310730174184">
        <ele>1839.02</ele>
        <time>2022-02-27T11:56:53Z</time>
      </trkpt>
      <trkpt lat="46.15980084054172" lon="8.534305868670344">
        <ele>1839.28</ele>
        <time>2022-02-27T11:57:11Z</time>
      </trkpt>
      <trkpt lat="46.159789860248566" lon="8.53426655754447">
        <ele>1839.26</ele>
        <time>2022-02-27T11:57:34Z</time>
      </trkpt>
      <trkpt lat="46.159777706488967" lon="8.534252811223269">
        <ele>1838.8299999999999</ele>
        <time>2022-02-27T11:57:49Z</time>
      </trkpt>
      <trkpt lat="46.159767815843225" lon="8.534233700484037">
        <ele>1837.8599999999999</ele>
        <time>2022-02-27T11:58:07Z</time>
      </trkpt>
      <trkpt lat="46.159735629335046" lon="8.53417226113379">
        <ele>1837.21</ele>
        <time>2022-02-27T11:58:14Z</time>
      </trkpt>
      <trkpt lat="46.159609984606504" lon="8.534035133197904">
        <ele>1835.48</ele>
        <time>2022-02-27T11:58:28Z</time>
      </trkpt>
      <trkpt lat="46.159587102010846" lon="8.534043012186885">
        <ele>1835.1500000000001</ele>
        <time>2022-02-27T11:58:31Z</time>
      </trkpt>
      <trkpt lat="46.159546198323369" lon="8.534038653597236">
        <ele>1835.26</ele>
        <time>2022-02-27T11:58:36Z</time>
      </trkpt>
      <trkpt lat="46.159473778679967" lon="8.533935723826289">
        <ele>1835.8699999999999</ele>
        <time>2022-02-27T11:58:47Z</time>
      </trkpt>
      <trkpt lat="46.159399850293994" lon="8.533823322504759">
        <ele>1832.8399999999999</ele>
        <time>2022-02-27T11:58:58Z</time>
      </trkpt>
      <trkpt lat="46.159342182800174" lon="8.533804966136813">
        <ele>1829.52</ele>
        <time>2022-02-27T11:59:04Z</time>
      </trkpt>
      <trkpt lat="46.15930194966495" lon="8.533798260614276">
        <ele>1828.45</ele>
        <time>2022-02-27T11:59:09Z</time>
      </trkpt>
      <trkpt lat="46.15922030992806" lon="8.533768588677049">
        <ele>1824.8499999999999</ele>
        <time>2022-02-27T11:59:19Z</time>
      </trkpt>
      <trkpt lat="46.159144621342421" lon="8.533769343048334">
        <ele>1821.8499999999999</ele>
        <time>2022-02-27T11:59:29Z</time>
      </trkpt>
      <trkpt lat="46.159106651321054" lon="8.53373296558857">
        <ele>1820.28</ele>
        <time>2022-02-27T11:59:34Z</time>
      </trkpt>
      <trkpt lat="46.159075554460287" lon="8.533562645316124">
        <ele>1816.8099999999999</ele>
        <time>2022-02-27T11:59:48Z</time>
      </trkpt>
      <trkpt lat="46.159065328538418" lon="8.533539175987244">
        <ele>1815.96</ele>
        <time>2022-02-27T11:59:50Z</time>
      </trkpt>
      <trkpt lat="46.159037668257952" lon="8.533448064699769">
        <ele>1812.5799999999999</ele>
        <time>2022-02-27T11:59:58Z</time>
      </trkpt>
      <trkpt lat="46.159012438729405" lon="8.533406741917133">
        <ele>1809.24</ele>
        <time>2022-02-27T12:00:07Z</time>
      </trkpt>
      <trkpt lat="46.158988298848271" lon="8.533419230952859">
        <ele>1808.22</ele>
        <time>2022-02-27T12:00:11Z</time>
      </trkpt>
      <trkpt lat="46.158934570848942" lon="8.533489387482405">
        <ele>1807.0999999999999</ele>
        <time>2022-02-27T12:00:19Z</time>
      </trkpt>
      <trkpt lat="46.158876903355122" lon="8.533526603132486">
        <ele>1805.1300000000001</ele>
        <time>2022-02-27T12:00:27Z</time>
      </trkpt>
      <trkpt lat="46.15882845595479" lon="8.533666329458356">
        <ele>1803.46</ele>
        <time>2022-02-27T12:00:39Z</time>
      </trkpt>
      <trkpt lat="46.158741870895028" lon="8.533751824870706">
        <ele>1800.8599999999999</ele>
        <time>2022-02-27T12:00:50Z</time>
      </trkpt>
      <trkpt lat="46.15867649205029" lon="8.533850815147162">
        <ele>1800.3800000000001</ele>
        <time>2022-02-27T12:00:59Z</time>
      </trkpt>
      <trkpt lat="46.158637432381511" lon="8.5339420940727">
        <ele>1798.6900000000001</ele>
        <time>2022-02-27T12:01:10Z</time>
      </trkpt>
      <trkpt lat="46.158609939739108" lon="8.534010658040643">
        <ele>1796.3399999999999</ele>
        <time>2022-02-27T12:01:21Z</time>
      </trkpt>
      <trkpt lat="46.158613292500377" lon="8.534113755449653">
        <ele>1794.1199999999999</ele>
        <time>2022-02-27T12:01:32Z</time>
      </trkpt>
      <trkpt lat="46.15860122255981" lon="8.534181145951152">
        <ele>1791.5699999999999</ele>
        <time>2022-02-27T12:01:38Z</time>
      </trkpt>
      <trkpt lat="46.158601054921746" lon="8.534279717132449">
        <ele>1788.45</ele>
        <time>2022-02-27T12:01:48Z</time>
      </trkpt>
      <trkpt lat="46.158611113205552" lon="8.534378623589873">
        <ele>1785.23</ele>
        <time>2022-02-27T12:01:59Z</time>
      </trkpt>
      <trkpt lat="46.158610945567489" lon="8.534522959962487">
        <ele>1782.22</ele>
        <time>2022-02-27T12:02:12Z</time>
      </trkpt>
      <trkpt lat="46.158591751009226" lon="8.534587249159813">
        <ele>1781.1900000000001</ele>
        <time>2022-02-27T12:02:17Z</time>
      </trkpt>
      <trkpt lat="46.158605664968491" lon="8.534732507541776">
        <ele>1779.97</ele>
        <time>2022-02-27T12:02:28Z</time>
      </trkpt>
      <trkpt lat="46.15861589089036" lon="8.534777350723743">
        <ele>1779.99</ele>
        <time>2022-02-27T12:02:31Z</time>
      </trkpt>
      <trkpt lat="46.15861346013844" lon="8.534809872508049">
        <ele>1779.6500000000001</ele>
        <time>2022-02-27T12:02:33Z</time>
      </trkpt>
      <trkpt lat="46.158612370491028" lon="8.534935349598527">
        <ele>1778.1600000000001</ele>
        <time>2022-02-27T12:02:44Z</time>
      </trkpt>
      <trkpt lat="46.158625530079007" lon="8.535104915499687">
        <ele>1775.6600000000001</ele>
        <time>2022-02-27T12:02:57Z</time>
      </trkpt>
      <trkpt lat="46.158631816506386" lon="8.535115057602525">
        <ele>1775.46</ele>
        <time>2022-02-27T12:02:58Z</time>
      </trkpt>
      <trkpt lat="46.158694261685014" lon="8.535263249650598">
        <ele>1774.04</ele>
        <time>2022-02-27T12:03:11Z</time>
      </trkpt>
      <trkpt lat="46.158772716298699" lon="8.535389481112361">
        <ele>1771.73</ele>
        <time>2022-02-27T12:03:24Z</time>
      </trkpt>
      <trkpt lat="46.158820660784841" lon="8.535484615713358">
        <ele>1771.3</ele>
        <time>2022-02-27T12:03:32Z</time>
      </trkpt>
      <trkpt lat="46.158843878656626" lon="8.535509090870619">
        <ele>1771.1400000000001</ele>
        <time>2022-02-27T12:03:35Z</time>
      </trkpt>
      <trkpt lat="46.15893691778183" lon="8.535639429464936">
        <ele>1769.5899999999999</ele>
        <time>2022-02-27T12:03:50Z</time>
      </trkpt>
      <trkpt lat="46.158958878368139" lon="8.535709166899324">
        <ele>1767.6800000000001</ele>
        <time>2022-02-27T12:03:58Z</time>
      </trkpt>
      <trkpt lat="46.158947227522731" lon="8.535813605412841">
        <ele>1765.02</ele>
        <time>2022-02-27T12:04:09Z</time>
      </trkpt>
      <trkpt lat="46.158908000215888" lon="8.535922318696976">
        <ele>1761.78</ele>
        <time>2022-02-27T12:04:20Z</time>
      </trkpt>
      <trkpt lat="46.15886609070003" lon="8.536022482439876">
        <ele>1758.5699999999999</ele>
        <time>2022-02-27T12:04:29Z</time>
      </trkpt>
      <trkpt lat="46.158864665776491" lon="8.536147624254227">
        <ele>1756.8399999999999</ele>
        <time>2022-02-27T12:04:40Z</time>
      </trkpt>
      <trkpt lat="46.158826444298029" lon="8.536283411085606">
        <ele>1753.76</ele>
        <time>2022-02-27T12:04:54Z</time>
      </trkpt>
      <trkpt lat="46.158751677721739" lon="8.536392711102963">
        <ele>1750.73</ele>
        <time>2022-02-27T12:05:06Z</time>
      </trkpt>
      <trkpt lat="46.158747151494026" lon="8.536417605355382">
        <ele>1750.51</ele>
        <time>2022-02-27T12:05:08Z</time>
      </trkpt>
      <trkpt lat="46.158689064905047" lon="8.536388436332345">
        <ele>1747.73</ele>
        <time>2022-02-27T12:05:18Z</time>
      </trkpt>
      <trkpt lat="46.158627457916737" lon="8.536287099123001">
        <ele>1745.5</ele>
        <time>2022-02-27T12:05:30Z</time>
      </trkpt>
      <trkpt lat="46.158612538129091" lon="8.536278381943703">
        <ele>1744.53</ele>
        <time>2022-02-27T12:05:34Z</time>
      </trkpt>
      <trkpt lat="46.15854213014245" lon="8.536359099671245">
        <ele>1741.48</ele>
        <time>2022-02-27T12:05:46Z</time>
      </trkpt>
      <trkpt lat="46.158476080745459" lon="8.53643118403852">
        <ele>1738.6300000000001</ele>
        <time>2022-02-27T12:05:56Z</time>
      </trkpt>
      <trkpt lat="46.158417155966163" lon="8.536525564268231">
        <ele>1735.3399999999999</ele>
        <time>2022-02-27T12:06:08Z</time>
      </trkpt>
      <trkpt lat="46.158398045226932" lon="8.53658608160913">
        <ele>1733.95</ele>
        <time>2022-02-27T12:06:13Z</time>
      </trkpt>
      <trkpt lat="46.158329900354147" lon="8.536690101027489">
        <ele>1730.75</ele>
        <time>2022-02-27T12:06:26Z</time>
      </trkpt>
      <trkpt lat="46.158260079100728" lon="8.536630840972066">
        <ele>1728.05</ele>
        <time>2022-02-27T12:06:36Z</time>
      </trkpt>
      <trkpt lat="46.158197047188878" lon="8.536513410508633">
        <ele>1724.6900000000001</ele>
        <time>2022-02-27T12:06:48Z</time>
      </trkpt>
      <trkpt lat="46.158135272562504" lon="8.536504609510303">
        <ele>1721.49</ele>
        <time>2022-02-27T12:06:58Z</time>
      </trkpt>
      <trkpt lat="46.158063355833292" lon="8.536603599786758">
        <ele>1718.1600000000001</ele>
        <time>2022-02-27T12:07:11Z</time>
      </trkpt>
      <trkpt lat="46.158001665025949" lon="8.536695968359709">
        <ele>1715.1099999999999</ele>
        <time>2022-02-27T12:07:21Z</time>
      </trkpt>
      <trkpt lat="46.157933603972197" lon="8.536767885088921">
        <ele>1711.9200000000001</ele>
        <time>2022-02-27T12:07:32Z</time>
      </trkpt>
      <trkpt lat="46.157913655042648" lon="8.536850530654192">
        <ele>1709.5599999999999</ele>
        <time>2022-02-27T12:07:39Z</time>
      </trkpt>
      <trkpt lat="46.157848024740815" lon="8.53697843849659">
        <ele>1706.72</ele>
        <time>2022-02-27T12:07:51Z</time>
      </trkpt>
      <trkpt lat="46.157793626189232" lon="8.537078350782394">
        <ele>1704.48</ele>
        <time>2022-02-27T12:08:01Z</time>
      </trkpt>
      <trkpt lat="46.15772807970643" lon="8.537178095430136">
        <ele>1701.6900000000001</ele>
        <time>2022-02-27T12:08:12Z</time>
      </trkpt>
      <trkpt lat="46.157686254009604" lon="8.537290161475539">
        <ele>1698.6400000000001</ele>
        <time>2022-02-27T12:08:23Z</time>
      </trkpt>
      <trkpt lat="46.157629759982228" lon="8.537392001599073">
        <ele>1696.28</ele>
        <time>2022-02-27T12:08:35Z</time>
      </trkpt>
      <trkpt lat="46.157559771090746" lon="8.537486465647817">
        <ele>1694.29</ele>
        <time>2022-02-27T12:08:48Z</time>
      </trkpt>
      <trkpt lat="46.157523980364203" lon="8.53750959970057">
        <ele>1693.1700000000001</ele>
        <time>2022-02-27T12:08:53Z</time>
      </trkpt>
      <trkpt lat="46.157466983422637" lon="8.537587383762002">
        <ele>1691.5599999999999</ele>
        <time>2022-02-27T12:09:02Z</time>
      </trkpt>
      <trkpt lat="46.157411830499768" lon="8.537737252190709">
        <ele>1690.3900000000001</ele>
        <time>2022-02-27T12:09:14Z</time>
      </trkpt>
      <trkpt lat="46.157351899892092" lon="8.537882845848799">
        <ele>1688.1500000000001</ele>
        <time>2022-02-27T12:09:27Z</time>
      </trkpt>
      <trkpt lat="46.157340332865715" lon="8.537901872768998">
        <ele>1687.95</ele>
        <time>2022-02-27T12:09:30Z</time>
      </trkpt>
      <trkpt lat="46.157297668978572" lon="8.538007652387023">
        <ele>1685.79</ele>
        <time>2022-02-27T12:09:40Z</time>
      </trkpt>
      <trkpt lat="46.157267997041345" lon="8.538061715662479">
        <ele>1684.6900000000001</ele>
        <time>2022-02-27T12:09:51Z</time>
      </trkpt>
      <trkpt lat="46.157253831624985" lon="8.538053082302213">
        <ele>1684.3699999999999</ele>
        <time>2022-02-27T12:10:08Z</time>
      </trkpt>
      <trkpt lat="46.157243186607957" lon="8.538043694570661">
        <ele>1684.0799999999999</ele>
        <time>2022-02-27T12:10:26Z</time>
      </trkpt>
      <trkpt lat="46.157242096960545" lon="8.538044700399041">
        <ele>1683.1500000000001</ele>
        <time>2022-02-27T12:10:42Z</time>
      </trkpt>
      <trkpt lat="46.157240755856037" lon="8.538058530539274">
        <ele>1683.4300000000001</ele>
        <time>2022-02-27T12:11:04Z</time>
      </trkpt>
      <trkpt lat="46.157243940979242" lon="8.538057776167989">
        <ele>1683.02</ele>
        <time>2022-02-27T12:11:41Z</time>
      </trkpt>
      <trkpt lat="46.157251065596938" lon="8.538072528317571">
        <ele>1683.0999999999999</ele>
        <time>2022-02-27T12:12:29Z</time>
      </trkpt>
      <trkpt lat="46.157241761684418" lon="8.538061464205384">
        <ele>1683.9100000000001</ele>
        <time>2022-02-27T12:12:41Z</time>
      </trkpt>
      <trkpt lat="46.157234385609627" lon="8.538065319880843">
        <ele>1684.1900000000001</ele>
        <time>2022-02-27T12:12:55Z</time>
      </trkpt>
      <trkpt lat="46.157231871038675" lon="8.53805685415864">
        <ele>1684.23</ele>
        <time>2022-02-27T12:13:07Z</time>
      </trkpt>
      <trkpt lat="46.157231451943517" lon="8.538057776167989">
        <ele>1684.53</ele>
        <time>2022-02-27T12:13:24Z</time>
      </trkpt>
      <trkpt lat="46.157230865210295" lon="8.538052076473832">
        <ele>1684.48</ele>
        <time>2022-02-27T12:13:41Z</time>
      </trkpt>
      <trkpt lat="46.15723111666739" lon="8.538053836673498">
        <ele>1684.1199999999999</ele>
        <time>2022-02-27T12:14:05Z</time>
      </trkpt>
      <trkpt lat="46.157219214364886" lon="8.538063308224082">
        <ele>1683.6400000000001</ele>
        <time>2022-02-27T12:14:24Z</time>
      </trkpt>
      <trkpt lat="46.157208988443017" lon="8.538127765059471">
        <ele>1683.3499999999999</ele>
        <time>2022-02-27T12:14:36Z</time>
      </trkpt>
      <trkpt lat="46.157194906845689" lon="8.538193311542273">
        <ele>1683.0599999999999</ele>
        <time>2022-02-27T12:14:46Z</time>
      </trkpt>
      <trkpt lat="46.157168922945857" lon="8.538309149444103">
        <ele>1682.45</ele>
        <time>2022-02-27T12:14:56Z</time>
      </trkpt>
      <trkpt lat="46.157140508294106" lon="8.538446947932243">
        <ele>1682.0999999999999</ele>
        <time>2022-02-27T12:15:08Z</time>
      </trkpt>
      <trkpt lat="46.157070603221655" lon="8.538535377010703">
        <ele>1680.0799999999999</ele>
        <time>2022-02-27T12:15:20Z</time>
      </trkpt>
      <trkpt lat="46.156985945999622" lon="8.538623051717877">
        <ele>1677.52</ele>
        <time>2022-02-27T12:15:34Z</time>
      </trkpt>
      <trkpt lat="46.156919645145535" lon="8.538722544908524">
        <ele>1674.6400000000001</ele>
        <time>2022-02-27T12:15:46Z</time>
      </trkpt>
      <trkpt lat="46.156867006793618" lon="8.538849279284477">
        <ele>1673.48</ele>
        <time>2022-02-27T12:15:58Z</time>
      </trkpt>
      <trkpt lat="46.156823839992285" lon="8.538901079446077">
        <ele>1672.3</ele>
        <time>2022-02-27T12:16:04Z</time>
      </trkpt>
      <trkpt lat="46.156769189983606" lon="8.538988418877125">
        <ele>1670.24</ele>
        <time>2022-02-27T12:16:12Z</time>
      </trkpt>
      <trkpt lat="46.156727029010653" lon="8.539154380559921">
        <ele>1668.72</ele>
        <time>2022-02-27T12:16:24Z</time>
      </trkpt>
      <trkpt lat="46.15663792937994" lon="8.539290418848395">
        <ele>1665.5</ele>
        <time>2022-02-27T12:16:37Z</time>
      </trkpt>
      <trkpt lat="46.156555535271764" lon="8.539423020556569">
        <ele>1663.1900000000001</ele>
        <time>2022-02-27T12:16:50Z</time>
      </trkpt>
      <trkpt lat="46.156501891091466" lon="8.539502648636699">
        <ele>1661.1199999999999</ele>
        <time>2022-02-27T12:16:59Z</time>
      </trkpt>
      <trkpt lat="46.156458975747228" lon="8.539560148492456">
        <ele>1659.3900000000001</ele>
        <time>2022-02-27T12:17:05Z</time>
      </trkpt>
      <trkpt lat="46.156382448971272" lon="8.53969668969512">
        <ele>1656.5699999999999</ele>
        <time>2022-02-27T12:17:18Z</time>
      </trkpt>
      <trkpt lat="46.156287817284465" lon="8.539788136258721">
        <ele>1653.28</ele>
        <time>2022-02-27T12:17:31Z</time>
      </trkpt>
      <trkpt lat="46.156249176710844" lon="8.539887964725494">
        <ele>1651.26</ele>
        <time>2022-02-27T12:17:41Z</time>
      </trkpt>
      <trkpt lat="46.156227216124535" lon="8.540036743506789">
        <ele>1648.21</ele>
        <time>2022-02-27T12:17:53Z</time>
      </trkpt>
      <trkpt lat="46.156169967725873" lon="8.540160711854696">
        <ele>1645.3599999999999</ele>
        <time>2022-02-27T12:18:04Z</time>
      </trkpt>
      <trkpt lat="46.156078521162271" lon="8.540225839242339">
        <ele>1641.9000000000001</ele>
        <time>2022-02-27T12:18:15Z</time>
      </trkpt>
      <trkpt lat="46.155974753201008" lon="8.540285853669047">
        <ele>1639.2</ele>
        <time>2022-02-27T12:18:28Z</time>
      </trkpt>
      <trkpt lat="46.155908284708858" lon="8.540362883359194">
        <ele>1636.27</ele>
        <time>2022-02-27T12:18:38Z</time>
      </trkpt>
      <trkpt lat="46.155831757932901" lon="8.540406972169876">
        <ele>1632.6300000000001</ele>
        <time>2022-02-27T12:18:48Z</time>
      </trkpt>
      <trkpt lat="46.15575254894793" lon="8.540416108444333">
        <ele>1629.5799999999999</ele>
        <time>2022-02-27T12:18:59Z</time>
      </trkpt>
      <trkpt lat="46.155685745179653" lon="8.540492299944162">
        <ele>1626.49</ele>
        <time>2022-02-27T12:19:10Z</time>
      </trkpt>
      <trkpt lat="46.155623719096184" lon="8.540610317140818">
        <ele>1623.4400000000001</ele>
        <time>2022-02-27T12:19:23Z</time>
      </trkpt>
      <trkpt lat="46.155558256432414" lon="8.540667733177543">
        <ele>1620.3499999999999</ele>
        <time>2022-02-27T12:19:33Z</time>
      </trkpt>
      <trkpt lat="46.155534870922565" lon="8.540682485327125">
        <ele>1618.96</ele>
        <time>2022-02-27T12:19:36Z</time>
      </trkpt>
      <trkpt lat="46.155466893687844" lon="8.540759598836303">
        <ele>1615.8199999999999</ele>
        <time>2022-02-27T12:19:47Z</time>
      </trkpt>
      <trkpt lat="46.155389444902539" lon="8.540790611878038">
        <ele>1612.5599999999999</ele>
        <time>2022-02-27T12:19:59Z</time>
      </trkpt>
      <trkpt lat="46.155314426869154" lon="8.540847022086382">
        <ele>1609.3099999999999</ele>
        <time>2022-02-27T12:20:12Z</time>
      </trkpt>
      <trkpt lat="46.155256172642112" lon="8.540943749248982">
        <ele>1606.1800000000001</ele>
        <time>2022-02-27T12:20:23Z</time>
      </trkpt>
      <trkpt lat="46.155248796567321" lon="8.541060592979193">
        <ele>1603.4000000000001</ele>
        <time>2022-02-27T12:20:33Z</time>
      </trkpt>
      <trkpt lat="46.155240582302213" lon="8.54114550165832">
        <ele>1601.01</ele>
        <time>2022-02-27T12:20:40Z</time>
      </trkpt>
      <trkpt lat="46.155219040811062" lon="8.541303500533104">
        <ele>1597.5599999999999</ele>
        <time>2022-02-27T12:20:52Z</time>
      </trkpt>
      <trkpt lat="46.155191631987691" lon="8.541373908519745">
        <ele>1596.55</ele>
        <time>2022-02-27T12:20:57Z</time>
      </trkpt>
      <trkpt lat="46.155179142951965" lon="8.541397880762816">
        <ele>1596.3499999999999</ele>
        <time>2022-02-27T12:20:59Z</time>
      </trkpt>
      <trkpt lat="46.155122900381684" lon="8.541513802483678">
        <ele>1594.22</ele>
        <time>2022-02-27T12:21:10Z</time>
      </trkpt>
      <trkpt lat="46.15509188733995" lon="8.541558478027582">
        <ele>1593.05</ele>
        <time>2022-02-27T12:21:28Z</time>
      </trkpt>
      <trkpt lat="46.155091300606728" lon="8.541607176885009">
        <ele>1592.5799999999999</ele>
        <time>2022-02-27T12:21:31Z</time>
      </trkpt>
      <trkpt lat="46.155004715546966" lon="8.541805576533079">
        <ele>1590.05</ele>
        <time>2022-02-27T12:21:46Z</time>
      </trkpt>
      <trkpt lat="46.154985688626766" lon="8.541845222935081">
        <ele>1589.49</ele>
        <time>2022-02-27T12:21:49Z</time>
      </trkpt>
      <trkpt lat="46.154912766069174" lon="8.541951673105359">
        <ele>1586.9100000000001</ele>
        <time>2022-02-27T12:22:00Z</time>
      </trkpt>
      <trkpt lat="46.154843866825104" lon="8.542015543207526">
        <ele>1583.1500000000001</ele>
        <time>2022-02-27T12:22:09Z</time>
      </trkpt>
      <trkpt lat="46.154750408604741" lon="8.542092824354768">
        <ele>1580.05</ele>
        <time>2022-02-27T12:22:20Z</time>
      </trkpt>
      <trkpt lat="46.154627446085215" lon="8.542201789095998">
        <ele>1577.26</ele>
        <time>2022-02-27T12:22:33Z</time>
      </trkpt>
      <trkpt lat="46.154502807185054" lon="8.54226197116077">
        <ele>1576.0999999999999</ele>
        <time>2022-02-27T12:22:48Z</time>
      </trkpt>
      <trkpt lat="46.154479002580047" lon="8.542279154062271">
        <ele>1575.49</ele>
        <time>2022-02-27T12:22:59Z</time>
      </trkpt>
      <trkpt lat="46.15446693263948" lon="8.542269514873624">
        <ele>1574.9400000000001</ele>
        <time>2022-02-27T12:23:23Z</time>
      </trkpt>
      <trkpt lat="46.154467184096575" lon="8.542272280901671">
        <ele>1574.98</ele>
        <time>2022-02-27T12:23:44Z</time>
      </trkpt>
      <trkpt lat="46.154465842992067" lon="8.542257947847247">
        <ele>1574.1300000000001</ele>
        <time>2022-02-27T12:24:01Z</time>
      </trkpt>
      <trkpt lat="46.154468189924955" lon="8.542247051373124">
        <ele>1575.6900000000001</ele>
        <time>2022-02-27T12:24:23Z</time>
      </trkpt>
      <trkpt lat="46.154470117762685" lon="8.542268425226212">
        <ele>1575.54</ele>
        <time>2022-02-27T12:24:42Z</time>
      </trkpt>
      <trkpt lat="46.154474141076207" lon="8.542283177375794">
        <ele>1575.23</ele>
        <time>2022-02-27T12:25:06Z</time>
      </trkpt>
      <trkpt lat="46.154470955953002" lon="8.54228887706995">
        <ele>1575.0599999999999</ele>
        <time>2022-02-27T12:25:28Z</time>
      </trkpt>
      <trkpt lat="46.154473135247827" lon="8.542288793250918">
        <ele>1575.3699999999999</ele>
        <time>2022-02-27T12:25:49Z</time>
      </trkpt>
      <trkpt lat="46.154472129419446" lon="8.542296001687646">
        <ele>1575.53</ele>
        <time>2022-02-27T12:26:11Z</time>
      </trkpt>
      <trkpt lat="46.154463831335306" lon="8.542287033051252">
        <ele>1575.55</ele>
        <time>2022-02-27T12:26:38Z</time>
      </trkpt>
      <trkpt lat="46.154468022286892" lon="8.542278064414859">
        <ele>1575.0999999999999</ele>
        <time>2022-02-27T12:26:54Z</time>
      </trkpt>
      <trkpt lat="46.154463412240148" lon="8.54227127507329">
        <ele>1574.97</ele>
        <time>2022-02-27T12:27:13Z</time>
      </trkpt>
      <trkpt lat="46.154478499665856" lon="8.542299522086978">
        <ele>1575.5999999999999</ele>
        <time>2022-02-27T12:27:34Z</time>
      </trkpt>
      <trkpt lat="46.154469363391399" lon="8.542278734967113">
        <ele>1575.6099999999999</ele>
        <time>2022-02-27T12:27:59Z</time>
      </trkpt>
      <trkpt lat="46.154474895447493" lon="8.542290134355426">
        <ele>1576.0999999999999</ele>
        <time>2022-02-27T12:28:30Z</time>
      </trkpt>
      <trkpt lat="46.154474392533302" lon="8.54229080490768">
        <ele>1576.1199999999999</ele>
        <time>2022-02-27T12:28:55Z</time>
      </trkpt>
      <trkpt lat="46.154476236552" lon="8.542302874848247">
        <ele>1576.1199999999999</ele>
        <time>2022-02-27T12:29:23Z</time>
      </trkpt>
      <trkpt lat="46.154475230723619" lon="8.542304467409849">
        <ele>1576.0599999999999</ele>
        <time>2022-02-27T12:29:45Z</time>
      </trkpt>
      <trkpt lat="46.154472967609763" lon="8.542301114648581">
        <ele>1576.1400000000001</ele>
        <time>2022-02-27T12:30:10Z</time>
      </trkpt>
      <trkpt lat="46.154474643990397" lon="8.542295917868614">
        <ele>1575.9300000000001</ele>
        <time>2022-02-27T12:30:41Z</time>
      </trkpt>
      <trkpt lat="46.154468273743987" lon="8.542300863191485">
        <ele>1575.9300000000001</ele>
        <time>2022-02-27T12:31:16Z</time>
      </trkpt>
      <trkpt lat="46.154430722817779" lon="8.542296253144741">
        <ele>1575.45</ele>
        <time>2022-02-27T12:31:44Z</time>
      </trkpt>
      <trkpt lat="46.15432133898139" lon="8.54235827922821">
        <ele>1572.54</ele>
        <time>2022-02-27T12:32:00Z</time>
      </trkpt>
      <trkpt lat="46.154255205765367" lon="8.542408067733049">
        <ele>1570.5799999999999</ele>
        <time>2022-02-27T12:32:13Z</time>
      </trkpt>
      <trkpt lat="46.154258139431477" lon="8.542409911751747">
        <ele>1570.45</ele>
        <time>2022-02-27T12:32:41Z</time>
      </trkpt>
      <trkpt lat="46.154257636517286" lon="8.542423658072949">
        <ele>1570.5</ele>
        <time>2022-02-27T12:33:03Z</time>
      </trkpt>
      <trkpt lat="46.154243554919958" lon="8.542428771033883">
        <ele>1570.53</ele>
        <time>2022-02-27T12:33:15Z</time>
      </trkpt>
      <trkpt lat="46.154225952923298" lon="8.542441092431545">
        <ele>1570.0799999999999</ele>
        <time>2022-02-27T12:33:17Z</time>
      </trkpt>
      <trkpt lat="46.154196783900261" lon="8.542522313073278">
        <ele>1568.1300000000001</ele>
        <time>2022-02-27T12:33:25Z</time>
      </trkpt>
      <trkpt lat="46.154146743938327" lon="8.542642761021853">
        <ele>1565</ele>
        <time>2022-02-27T12:33:36Z</time>
      </trkpt>
      <trkpt lat="46.154134003445506" lon="8.542692800983787">
        <ele>1563.6099999999999</ele>
        <time>2022-02-27T12:33:40Z</time>
      </trkpt>
      <trkpt lat="46.154108354821801" lon="8.542812075465918">
        <ele>1560.52</ele>
        <time>2022-02-27T12:33:50Z</time>
      </trkpt>
      <trkpt lat="46.154088322073221" lon="8.542911903932691">
        <ele>1557.3299999999999</ele>
        <time>2022-02-27T12:34:00Z</time>
      </trkpt>
      <trkpt lat="46.154073067009449" lon="8.543004272505641">
        <ele>1554.05</ele>
        <time>2022-02-27T12:34:09Z</time>
      </trkpt>
      <trkpt lat="46.154084298759699" lon="8.543133437633514">
        <ele>1550.8699999999999</ele>
        <time>2022-02-27T12:34:20Z</time>
      </trkpt>
      <trkpt lat="46.154071809723973" lon="8.543216921389103">
        <ele>1547.78</ele>
        <time>2022-02-27T12:34:28Z</time>
      </trkpt>
      <trkpt lat="46.154070720076561" lon="8.543253550305963">
        <ele>1546.49</ele>
        <time>2022-02-27T12:34:31Z</time>
      </trkpt>
      <trkpt lat="46.154087064787745" lon="8.543354719877243">
        <ele>1543.29</ele>
        <time>2022-02-27T12:34:40Z</time>
      </trkpt>
      <trkpt lat="46.15410927683115" lon="8.543468881398439">
        <ele>1540.26</ele>
        <time>2022-02-27T12:34:49Z</time>
      </trkpt>
      <trkpt lat="46.15411170758307" lon="8.543483465909958">
        <ele>1539.95</ele>
        <time>2022-02-27T12:34:50Z</time>
      </trkpt>
      <trkpt lat="46.154121346771717" lon="8.54351531714201">
        <ele>1539.3499999999999</ele>
        <time>2022-02-27T12:34:52Z</time>
      </trkpt>
      <trkpt lat="46.154151856899261" lon="8.54367365129292">
        <ele>1535.96</ele>
        <time>2022-02-27T12:35:04Z</time>
      </trkpt>
      <trkpt lat="46.154170129448175" lon="8.54377725161612">
        <ele>1532.9400000000001</ele>
        <time>2022-02-27T12:35:13Z</time>
      </trkpt>
      <trkpt lat="46.154203824698925" lon="8.543906752020121">
        <ele>1529.6800000000001</ele>
        <time>2022-02-27T12:35:23Z</time>
      </trkpt>
      <trkpt lat="46.154244812205434" lon="8.543990151956677">
        <ele>1527.6900000000001</ele>
        <time>2022-02-27T12:35:32Z</time>
      </trkpt>
      <trkpt lat="46.154282866045833" lon="8.544107917696238">
        <ele>1524.6800000000001</ele>
        <time>2022-02-27T12:35:42Z</time>
      </trkpt>
      <trkpt lat="46.154242884367704" lon="8.544227359816432">
        <ele>1521.47</ele>
        <time>2022-02-27T12:35:55Z</time>
      </trkpt>
      <trkpt lat="46.154246237128973" lon="8.544274214655161">
        <ele>1520.0999999999999</ele>
        <time>2022-02-27T12:36:01Z</time>
      </trkpt>
      <trkpt lat="46.154253864660859" lon="8.544302461668849">
        <ele>1519.6199999999999</ele>
        <time>2022-02-27T12:36:03Z</time>
      </trkpt>
      <trkpt lat="46.154207177460194" lon="8.544442523270845">
        <ele>1516.1700000000001</ele>
        <time>2022-02-27T12:36:15Z</time>
      </trkpt>
      <trkpt lat="46.154201896861196" lon="8.544465992599726">
        <ele>1515.75</ele>
        <time>2022-02-27T12:36:17Z</time>
      </trkpt>
      <trkpt lat="46.154142133891582" lon="8.544535813853145">
        <ele>1512.6700000000001</ele>
        <time>2022-02-27T12:36:27Z</time>
      </trkpt>
      <trkpt lat="46.154132829979062" lon="8.544554421678186">
        <ele>1511.8599999999999</ele>
        <time>2022-02-27T12:36:29Z</time>
      </trkpt>
      <trkpt lat="46.154067786410451" lon="8.544579902663827">
        <ele>1509.5699999999999</ele>
        <time>2022-02-27T12:36:40Z</time>
      </trkpt>
      <trkpt lat="46.15401498042047" lon="8.544690376147628">
        <ele>1506.45</ele>
        <time>2022-02-27T12:36:51Z</time>
      </trkpt>
      <trkpt lat="46.153982123360038" lon="8.544795317575336">
        <ele>1503.03</ele>
        <time>2022-02-27T12:37:02Z</time>
      </trkpt>
      <trkpt lat="46.153955552726984" lon="8.544905539602041">
        <ele>1499.6199999999999</ele>
        <time>2022-02-27T12:37:12Z</time>
      </trkpt>
      <trkpt lat="46.15393728017807" lon="8.5449059586972">
        <ele>1499.1800000000001</ele>
        <time>2022-02-27T12:37:14Z</time>
      </trkpt>
      <trkpt lat="46.153772324323654" lon="8.544795736670494">
        <ele>1495.9300000000001</ele>
        <time>2022-02-27T12:37:31Z</time>
      </trkpt>
      <trkpt lat="46.15368565544486" lon="8.544704876840115">
        <ele>1493.5899999999999</ele>
        <time>2022-02-27T12:37:41Z</time>
      </trkpt>
      <trkpt lat="46.153660006821156" lon="8.544675204902887">
        <ele>1493.29</ele>
        <time>2022-02-27T12:37:44Z</time>
      </trkpt>
      <trkpt lat="46.15357618778944" lon="8.544546458870173">
        <ele>1489.96</ele>
        <time>2022-02-27T12:37:56Z</time>
      </trkpt>
      <trkpt lat="46.153464121744037" lon="8.54440706782043">
        <ele>1487.6400000000001</ele>
        <time>2022-02-27T12:38:09Z</time>
      </trkpt>
      <trkpt lat="46.153350127860904" lon="8.544290894642472">
        <ele>1485.75</ele>
        <time>2022-02-27T12:38:23Z</time>
      </trkpt>
      <trkpt lat="46.153280977159739" lon="8.544190647080541">
        <ele>1482.99</ele>
        <time>2022-02-27T12:38:34Z</time>
      </trkpt>
      <trkpt lat="46.153227752074599" lon="8.544025691226125">
        <ele>1481.1900000000001</ele>
        <time>2022-02-27T12:38:46Z</time>
      </trkpt>
      <trkpt lat="46.153225405141711" lon="8.544015046209097">
        <ele>1481.21</ele>
        <time>2022-02-27T12:38:47Z</time>
      </trkpt>
      <trkpt lat="46.153181483969092" lon="8.543893173336983">
        <ele>1480.45</ele>
        <time>2022-02-27T12:38:57Z</time>
      </trkpt>
      <trkpt lat="46.153148291632533" lon="8.543872889131308">
        <ele>1480.1500000000001</ele>
        <time>2022-02-27T12:39:00Z</time>
      </trkpt>
      <trkpt lat="46.153051648288965" lon="8.543759314343333">
        <ele>1478.1300000000001</ele>
        <time>2022-02-27T12:39:12Z</time>
      </trkpt>
      <trkpt lat="46.153018623590469" lon="8.543718159198761">
        <ele>1477.3800000000001</ele>
        <time>2022-02-27T12:39:17Z</time>
      </trkpt>
      <trkpt lat="46.152963051572442" lon="8.543682033196092">
        <ele>1476.6500000000001</ele>
        <time>2022-02-27T12:39:24Z</time>
      </trkpt>
      <trkpt lat="46.15287646651268" lon="8.543594358488917">
        <ele>1475.5699999999999</ele>
        <time>2022-02-27T12:39:33Z</time>
      </trkpt>
      <trkpt lat="46.152833551168442" lon="8.543535098433495">
        <ele>1475</ele>
        <time>2022-02-27T12:39:37Z</time>
      </trkpt>
      <trkpt lat="46.15273816511035" lon="8.543397635221481">
        <ele>1472.24</ele>
        <time>2022-02-27T12:39:50Z</time>
      </trkpt>
      <trkpt lat="46.152683598920703" lon="8.543311720713973">
        <ele>1469.6400000000001</ele>
        <time>2022-02-27T12:39:57Z</time>
      </trkpt>
      <trkpt lat="46.152580585330725" lon="8.543180963024497">
        <ele>1468.28</ele>
        <time>2022-02-27T12:40:09Z</time>
      </trkpt>
      <trkpt lat="46.152435410767794" lon="8.542999746277928">
        <ele>1466.5899999999999</ele>
        <time>2022-02-27T12:40:24Z</time>
      </trkpt>
      <trkpt lat="46.152403894811869" lon="8.542957250028849">
        <ele>1466.6400000000001</ele>
        <time>2022-02-27T12:40:28Z</time>
      </trkpt>
      <trkpt lat="46.152382269501686" lon="8.542925985530019">
        <ele>1466.52</ele>
        <time>2022-02-27T12:40:31Z</time>
      </trkpt>
      <trkpt lat="46.152275986969471" lon="8.542956160381436">
        <ele>1463.45</ele>
        <time>2022-02-27T12:40:43Z</time>
      </trkpt>
      <trkpt lat="46.152157969772816" lon="8.542997818440199">
        <ele>1460.25</ele>
        <time>2022-02-27T12:40:55Z</time>
      </trkpt>
      <trkpt lat="46.152109187096357" lon="8.543058419600129">
        <ele>1458.8599999999999</ele>
        <time>2022-02-27T12:41:01Z</time>
      </trkpt>
      <trkpt lat="46.152052525430918" lon="8.543068896979094">
        <ele>1457.02</ele>
        <time>2022-02-27T12:41:07Z</time>
      </trkpt>
      <trkpt lat="46.151993935927749" lon="8.543062526732683">
        <ele>1456.0799999999999</ele>
        <time>2022-02-27T12:41:19Z</time>
      </trkpt>
      <trkpt lat="46.15198764950037" lon="8.543069064617157">
        <ele>1455.78</ele>
        <time>2022-02-27T12:41:22Z</time>
      </trkpt>
      <trkpt lat="46.15184155292809" lon="8.543128576129675">
        <ele>1454.3599999999999</ele>
        <time>2022-02-27T12:41:36Z</time>
      </trkpt>
      <trkpt lat="46.151824286207557" lon="8.543122289702296">
        <ele>1454.4400000000001</ele>
        <time>2022-02-27T12:41:38Z</time>
      </trkpt>
      <trkpt lat="46.151734096929431" lon="8.543080044910312">
        <ele>1453.5699999999999</ele>
        <time>2022-02-27T12:41:48Z</time>
      </trkpt>
      <trkpt lat="46.151705179363489" lon="8.543075518682599">
        <ele>1453.03</ele>
        <time>2022-02-27T12:41:51Z</time>
      </trkpt>
      <trkpt lat="46.151599399745464" lon="8.543084654957056">
        <ele>1449.5999999999999</ele>
        <time>2022-02-27T12:42:03Z</time>
      </trkpt>
      <trkpt lat="46.151518598198891" lon="8.543129917234182">
        <ele>1447.24</ele>
        <time>2022-02-27T12:42:13Z</time>
      </trkpt>
      <trkpt lat="46.151484483852983" lon="8.543152716010809">
        <ele>1445.72</ele>
        <time>2022-02-27T12:42:17Z</time>
      </trkpt>
      <trkpt lat="46.151390355080366" lon="8.543227985501289">
        <ele>1442.6700000000001</ele>
        <time>2022-02-27T12:42:31Z</time>
      </trkpt>
      <trkpt lat="46.151339476928115" lon="8.543262854218483">
        <ele>1441.22</ele>
        <time>2022-02-27T12:42:38Z</time>
      </trkpt>
      <trkpt lat="46.151197655126452" lon="8.543324042111635">
        <ele>1438.04</ele>
        <time>2022-02-27T12:42:54Z</time>
      </trkpt>
      <trkpt lat="46.151146106421947" lon="8.5433413926512">
        <ele>1436.1199999999999</ele>
        <time>2022-02-27T12:43:00Z</time>
      </trkpt>
      <trkpt lat="46.151037896052003" lon="8.543266039341688">
        <ele>1432.97</ele>
        <time>2022-02-27T12:43:14Z</time>
      </trkpt>
      <trkpt lat="46.151001853868365" lon="8.543117428198457">
        <ele>1430.25</ele>
        <time>2022-02-27T12:43:28Z</time>
      </trkpt>
      <trkpt lat="46.151021802797914" lon="8.542981138452888">
        <ele>1427.24</ele>
        <time>2022-02-27T12:43:42Z</time>
      </trkpt>
      <trkpt lat="46.15105289965868" lon="8.542858678847551">
        <ele>1424.51</ele>
        <time>2022-02-27T12:43:54Z</time>
      </trkpt>
      <trkpt lat="46.151057844981551" lon="8.542775781825185">
        <ele>1422.8699999999999</ele>
        <time>2022-02-27T12:44:04Z</time>
      </trkpt>
      <trkpt lat="46.151096485555172" lon="8.542687017470598">
        <ele>1421.22</ele>
        <time>2022-02-27T12:44:15Z</time>
      </trkpt>
      <trkpt lat="46.151120038703084" lon="8.542637228965759">
        <ele>1419.8900000000001</ele>
        <time>2022-02-27T12:44:19Z</time>
      </trkpt>
      <trkpt lat="46.151153733953834" lon="8.542483756318688">
        <ele>1417.75</ele>
        <time>2022-02-27T12:44:33Z</time>
      </trkpt>
      <trkpt lat="46.15121609531343" lon="8.542324835434556">
        <ele>1414.95</ele>
        <time>2022-02-27T12:44:46Z</time>
      </trkpt>
      <trkpt lat="46.151263704523444" lon="8.542254595085979">
        <ele>1414.1900000000001</ele>
        <time>2022-02-27T12:44:53Z</time>
      </trkpt>
      <trkpt lat="46.151311062276363" lon="8.542185192927718">
        <ele>1414.4400000000001</ele>
        <time>2022-02-27T12:45:01Z</time>
      </trkpt>
      <trkpt lat="46.151387505233288" lon="8.542072456330061">
        <ele>1413.1199999999999</ele>
        <time>2022-02-27T12:45:10Z</time>
      </trkpt>
      <trkpt lat="46.151468139141798" lon="8.541948404163122">
        <ele>1410.27</ele>
        <time>2022-02-27T12:45:22Z</time>
      </trkpt>
      <trkpt lat="46.151486579328775" lon="8.54192677885294">
        <ele>1410</ele>
        <time>2022-02-27T12:45:24Z</time>
      </trkpt>
      <trkpt lat="46.151535864919424" lon="8.541798451915383">
        <ele>1407.5899999999999</ele>
        <time>2022-02-27T12:45:37Z</time>
      </trkpt>
      <trkpt lat="46.151536786928773" lon="8.541766349226236">
        <ele>1406.0999999999999</ele>
        <time>2022-02-27T12:45:53Z</time>
      </trkpt>
      <trkpt lat="46.15147216245532" lon="8.541616899892688">
        <ele>1406.9000000000001</ele>
        <time>2022-02-27T12:46:08Z</time>
      </trkpt>
      <trkpt lat="46.151404520496726" lon="8.541548922657967">
        <ele>1405.23</ele>
        <time>2022-02-27T12:46:21Z</time>
      </trkpt>
      <trkpt lat="46.151397144421935" lon="8.541553532704711">
        <ele>1405.04</ele>
        <time>2022-02-27T12:46:38Z</time>
      </trkpt>
      <trkpt lat="46.15138323046267" lon="8.541558058932424">
        <ele>1404.55</ele>
        <time>2022-02-27T12:46:59Z</time>
      </trkpt>
      <trkpt lat="46.151395048946142" lon="8.541563088074327">
        <ele>1405.0799999999999</ele>
        <time>2022-02-27T12:47:21Z</time>
      </trkpt>
      <trkpt lat="46.151374680921435" lon="8.541542552411556">
        <ele>1404.5</ele>
        <time>2022-02-27T12:47:32Z</time>
      </trkpt>
      <trkpt lat="46.151332268491387" lon="8.54140349663794">
        <ele>1404.9400000000001</ele>
        <time>2022-02-27T12:47:44Z</time>
      </trkpt>
      <trkpt lat="46.151252221316099" lon="8.541269386187196">
        <ele>1402.6800000000001</ele>
        <time>2022-02-27T12:47:59Z</time>
      </trkpt>
      <trkpt lat="46.151209138333797" lon="8.541205013170838">
        <ele>1400.3</ele>
        <time>2022-02-27T12:48:07Z</time>
      </trkpt>
      <trkpt lat="46.151190865784883" lon="8.541165953502059">
        <ele>1399.4200000000001</ele>
        <time>2022-02-27T12:48:10Z</time>
      </trkpt>
      <trkpt lat="46.151107298210263" lon="8.541049864143133">
        <ele>1396.78</ele>
        <time>2022-02-27T12:48:24Z</time>
      </trkpt>
      <trkpt lat="46.1510587669909" lon="8.540928578004241">
        <ele>1393.77</ele>
        <time>2022-02-27T12:48:36Z</time>
      </trkpt>
      <trkpt lat="46.151044433936477" lon="8.540807291865349">
        <ele>1390.4300000000001</ele>
        <time>2022-02-27T12:48:47Z</time>
      </trkpt>
      <trkpt lat="46.151068238541484" lon="8.540728418156505">
        <ele>1388.04</ele>
        <time>2022-02-27T12:48:57Z</time>
      </trkpt>
      <trkpt lat="46.151039991527796" lon="8.540637139230967">
        <ele>1385.05</ele>
        <time>2022-02-27T12:49:10Z</time>
      </trkpt>
      <trkpt lat="46.151027921587229" lon="8.540549799799919">
        <ele>1382.9300000000001</ele>
        <time>2022-02-27T12:49:20Z</time>
      </trkpt>
      <trkpt lat="46.151001853868365" lon="8.54046287946403">
        <ele>1379.8800000000001</ele>
        <time>2022-02-27T12:49:35Z</time>
      </trkpt>
      <trkpt lat="46.151036974042654" lon="8.540364475920796">
        <ele>1377.1800000000001</ele>
        <time>2022-02-27T12:49:51Z</time>
      </trkpt>
      <trkpt lat="46.150985928252339" lon="8.540249727666378">
        <ele>1375.3900000000001</ele>
        <time>2022-02-27T12:50:03Z</time>
      </trkpt>
      <trkpt lat="46.150916526094079" lon="8.540182337164879">
        <ele>1375.53</ele>
        <time>2022-02-27T12:50:15Z</time>
      </trkpt>
      <trkpt lat="46.150908563286066" lon="8.54017554782331">
        <ele>1375.28</ele>
        <time>2022-02-27T12:50:16Z</time>
      </trkpt>
      <trkpt lat="46.150891967117786" lon="8.54016775265336">
        <ele>1374.97</ele>
        <time>2022-02-27T12:50:18Z</time>
      </trkpt>
      <trkpt lat="46.150807896628976" lon="8.540126429870725">
        <ele>1372.9200000000001</ele>
        <time>2022-02-27T12:50:30Z</time>
      </trkpt>
      <trkpt lat="46.15069666877389" lon="8.540041269734502">
        <ele>1370.74</ele>
        <time>2022-02-27T12:50:46Z</time>
      </trkpt>
      <trkpt lat="46.150679234415293" lon="8.540033977478743">
        <ele>1370.4400000000001</ele>
        <time>2022-02-27T12:50:48Z</time>
      </trkpt>
      <trkpt lat="46.150628691539168" lon="8.540010172873735">
        <ele>1369.4200000000001</ele>
        <time>2022-02-27T12:50:53Z</time>
      </trkpt>
      <trkpt lat="46.150520145893097" lon="8.539923168718815">
        <ele>1368.5599999999999</ele>
        <time>2022-02-27T12:51:06Z</time>
      </trkpt>
      <trkpt lat="46.150499945506454" lon="8.539916630834341">
        <ele>1368.4400000000001</ele>
        <time>2022-02-27T12:51:16Z</time>
      </trkpt>
      <trkpt lat="46.15043867379427" lon="8.539983937516809">
        <ele>1366.25</ele>
        <time>2022-02-27T12:51:29Z</time>
      </trkpt>
      <trkpt lat="46.150374049320817" lon="8.540018973872066">
        <ele>1364.3800000000001</ele>
        <time>2022-02-27T12:51:42Z</time>
      </trkpt>
      <trkpt lat="46.150358961895108" lon="8.540060380473733">
        <ele>1363.8299999999999</ele>
        <time>2022-02-27T12:51:56Z</time>
      </trkpt>
      <trkpt lat="46.150290481746197" lon="8.540147803723812">
        <ele>1360.9300000000001</ele>
        <time>2022-02-27T12:52:06Z</time>
      </trkpt>
      <trkpt lat="46.150182439014316" lon="8.540097260847688">
        <ele>1358.8499999999999</ele>
        <time>2022-02-27T12:52:19Z</time>
      </trkpt>
      <trkpt lat="46.150218229740858" lon="8.540062643587589">
        <ele>1360.05</ele>
        <time>2022-02-27T12:52:34Z</time>
      </trkpt>
      <trkpt lat="46.150216720998287" lon="8.540070438757539">
        <ele>1360.3499999999999</ele>
        <time>2022-02-27T12:52:47Z</time>
      </trkpt>
      <trkpt lat="46.150158299133182" lon="8.540080497041345">
        <ele>1358.01</ele>
        <time>2022-02-27T12:52:58Z</time>
      </trkpt>
      <trkpt lat="46.150162909179926" lon="8.540068175643683">
        <ele>1357.5999999999999</ele>
        <time>2022-02-27T12:53:09Z</time>
      </trkpt>
      <trkpt lat="46.15016165189445" lon="8.540058452636004">
        <ele>1357.99</ele>
        <time>2022-02-27T12:53:27Z</time>
      </trkpt>
      <trkpt lat="46.150160059332848" lon="8.540058536455035">
        <ele>1356.6099999999999</ele>
        <time>2022-02-27T12:53:31Z</time>
      </trkpt>
      <trkpt lat="46.150166345760226" lon="8.540067002177239">
        <ele>1357.0999999999999</ele>
        <time>2022-02-27T12:53:44Z</time>
      </trkpt>
      <trkpt lat="46.150159053504467" lon="8.540072618052363">
        <ele>1357.3099999999999</ele>
        <time>2022-02-27T12:54:04Z</time>
      </trkpt>
      <trkpt lat="46.150157209485769" lon="8.540073372423649">
        <ele>1357.54</ele>
        <time>2022-02-27T12:54:30Z</time>
      </trkpt>
      <trkpt lat="46.150157796218991" lon="8.540066918358207">
        <ele>1357.8699999999999</ele>
        <time>2022-02-27T12:55:02Z</time>
      </trkpt>
      <trkpt lat="46.150155197829008" lon="8.540069432929158">
        <ele>1357.8199999999999</ele>
        <time>2022-02-27T12:55:19Z</time>
      </trkpt>
      <trkpt lat="46.150154946371913" lon="8.540072534233332">
        <ele>1358.0599999999999</ele>
        <time>2022-02-27T12:55:43Z</time>
      </trkpt>
      <trkpt lat="46.150151593610644" lon="8.54006708599627">
        <ele>1358.45</ele>
        <time>2022-02-27T12:56:24Z</time>
      </trkpt>
      <trkpt lat="46.150148659944534" lon="8.540072198957205">
        <ele>1358.8800000000001</ele>
        <time>2022-02-27T12:56:47Z</time>
      </trkpt>
      <trkpt lat="46.150150671601295" lon="8.54007295332849">
        <ele>1358.3099999999999</ele>
        <time>2022-02-27T12:57:20Z</time>
      </trkpt>
      <trkpt lat="46.150149581953883" lon="8.540086280554533">
        <ele>1359.4000000000001</ele>
        <time>2022-02-27T12:57:42Z</time>
      </trkpt>
      <trkpt lat="46.150141283869743" lon="8.540071025490761">
        <ele>1359.77</ele>
        <time>2022-02-27T12:58:04Z</time>
      </trkpt>
      <trkpt lat="46.150145726278424" lon="8.540079072117806">
        <ele>1359.8499999999999</ele>
        <time>2022-02-27T12:58:20Z</time>
      </trkpt>
      <trkpt lat="46.150145139545202" lon="8.540084017440677">
        <ele>1360.5799999999999</ele>
        <time>2022-02-27T12:58:44Z</time>
      </trkpt>
      <trkpt lat="46.15013332106173" lon="8.540065493434668">
        <ele>1360.6199999999999</ele>
        <time>2022-02-27T12:58:58Z</time>
      </trkpt>
      <trkpt lat="46.150131309404969" lon="8.540049567818642">
        <ele>1360.9100000000001</ele>
        <time>2022-02-27T12:59:22Z</time>
      </trkpt>
      <trkpt lat="46.150133069604635" lon="8.540057027712464">
        <ele>1360.5699999999999</ele>
        <time>2022-02-27T12:59:37Z</time>
      </trkpt>
      <trkpt lat="46.150145977735519" lon="8.540082676336169">
        <ele>1360.99</ele>
        <time>2022-02-27T12:59:55Z</time>
      </trkpt>
      <trkpt lat="46.15014991723001" lon="8.540095249190927">
        <ele>1360.8900000000001</ele>
        <time>2022-02-27T13:00:12Z</time>
      </trkpt>
      <trkpt lat="46.150121837854385" lon="8.54008074849844">
        <ele>1361.02</ele>
        <time>2022-02-27T13:00:27Z</time>
      </trkpt>
      <trkpt lat="46.150112701579928" lon="8.54005828499794">
        <ele>1361.51</ele>
        <time>2022-02-27T13:00:49Z</time>
      </trkpt>
      <trkpt lat="46.150112953037024" lon="8.540062978863716">
        <ele>1361.95</ele>
        <time>2022-02-27T13:01:13Z</time>
      </trkpt>
      <trkpt lat="46.15007221698761" lon="8.540026769042015">
        <ele>1361.1300000000001</ele>
        <time>2022-02-27T13:01:24Z</time>
      </trkpt>
      <trkpt lat="46.150028379634023" lon="8.54001428000629">
        <ele>1360.46</ele>
        <time>2022-02-27T13:01:29Z</time>
      </trkpt>
      <trkpt lat="46.149958893656731" lon="8.54002894833684">
        <ele>1359.25</ele>
        <time>2022-02-27T13:01:36Z</time>
      </trkpt>
      <trkpt lat="46.149849509820342" lon="8.539957869797945">
        <ele>1356.22</ele>
        <time>2022-02-27T13:01:47Z</time>
      </trkpt>
      <trkpt lat="46.149770217016339" lon="8.53986918926239">
        <ele>1353</ele>
        <time>2022-02-27T13:01:56Z</time>
      </trkpt>
      <trkpt lat="46.14962219260633" lon="8.539725271984935">
        <ele>1349.8</ele>
        <time>2022-02-27T13:02:12Z</time>
      </trkpt>
      <trkpt lat="46.149426978081465" lon="8.539644302800298">
        <ele>1348.6700000000001</ele>
        <time>2022-02-27T13:02:29Z</time>
      </trkpt>
      <trkpt lat="46.14922882989049" lon="8.539466103538871">
        <ele>1346.8199999999999</ele>
        <time>2022-02-27T13:02:48Z</time>
      </trkpt>
      <trkpt lat="46.149031352251768" lon="8.53930626064539">
        <ele>1344.8399999999999</ele>
        <time>2022-02-27T13:03:06Z</time>
      </trkpt>
      <trkpt lat="46.148847537115216" lon="8.539188494905829">
        <ele>1342.8900000000001</ele>
        <time>2022-02-27T13:03:23Z</time>
      </trkpt>
      <trkpt lat="46.148779392242432" lon="8.539192769676447">
        <ele>1340.6600000000001</ele>
        <time>2022-02-27T13:03:32Z</time>
      </trkpt>
      <trkpt lat="46.148720299825072" lon="8.539142059162259">
        <ele>1337.4000000000001</ele>
        <time>2022-02-27T13:03:42Z</time>
      </trkpt>
      <trkpt lat="46.148697249591351" lon="8.539081960916519">
        <ele>1336.1400000000001</ele>
        <time>2022-02-27T13:03:47Z</time>
      </trkpt>
      <trkpt lat="46.14859021268785" lon="8.538881884887815">
        <ele>1333.24</ele>
        <time>2022-02-27T13:04:04Z</time>
      </trkpt>
      <trkpt lat="46.14853204227984" lon="8.538857074454427">
        <ele>1331.8</ele>
        <time>2022-02-27T13:04:11Z</time>
      </trkpt>
      <trkpt lat="46.148415701463819" lon="8.538829162716866">
        <ele>1328.3800000000001</ele>
        <time>2022-02-27T13:04:23Z</time>
      </trkpt>
      <trkpt lat="46.148331211879849" lon="8.538717515766621">
        <ele>1325.6300000000001</ele>
        <time>2022-02-27T13:04:35Z</time>
      </trkpt>
      <trkpt lat="46.148221911862493" lon="8.53854501619935">
        <ele>1322.5899999999999</ele>
        <time>2022-02-27T13:04:48Z</time>
      </trkpt>
      <trkpt lat="46.14811085164547" lon="8.538336055353284">
        <ele>1320.3</ele>
        <time>2022-02-27T13:05:03Z</time>
      </trkpt>
      <trkpt lat="46.148010268807411" lon="8.538261456415057">
        <ele>1318.1500000000001</ele>
        <time>2022-02-27T13:05:14Z</time>
      </trkpt>
      <trkpt lat="46.14790222607553" lon="8.538296995684505">
        <ele>1314.8900000000001</ele>
        <time>2022-02-27T13:05:25Z</time>
      </trkpt>
      <trkpt lat="46.147817820310593" lon="8.538297582417727">
        <ele>1312.9300000000001</ele>
        <time>2022-02-27T13:05:34Z</time>
      </trkpt>
      <trkpt lat="46.147748166695237" lon="8.538267239928246">
        <ele>1309.8699999999999</ele>
        <time>2022-02-27T13:05:42Z</time>
      </trkpt>
      <trkpt lat="46.147669963538647" lon="8.538256175816059">
        <ele>1307.98</ele>
        <time>2022-02-27T13:05:50Z</time>
      </trkpt>
      <trkpt lat="46.147555131465197" lon="8.538281070068479">
        <ele>1304.95</ele>
        <time>2022-02-27T13:06:00Z</time>
      </trkpt>
      <trkpt lat="46.14739696495235" lon="8.538336055353284">
        <ele>1301.75</ele>
        <time>2022-02-27T13:06:15Z</time>
      </trkpt>
      <trkpt lat="46.147299902513623" lon="8.538336139172316">
        <ele>1298.74</ele>
        <time>2022-02-27T13:06:25Z</time>
      </trkpt>
      <trkpt lat="46.147198816761374" lon="8.538330104202032">
        <ele>1295.96</ele>
        <time>2022-02-27T13:06:37Z</time>
      </trkpt>
      <trkpt lat="46.147182220593095" lon="8.538326751440764">
        <ele>1295.4200000000001</ele>
        <time>2022-02-27T13:06:39Z</time>
      </trkpt>
      <trkpt lat="46.14713167771697" lon="8.538289619609714">
        <ele>1293.3499999999999</ele>
        <time>2022-02-27T13:06:51Z</time>
      </trkpt>
      <trkpt lat="46.147070908918977" lon="8.538210075348616">
        <ele>1290.3399999999999</ele>
        <time>2022-02-27T13:07:04Z</time>
      </trkpt>
      <trkpt lat="46.147064873948693" lon="8.538185264915228">
        <ele>1289.48</ele>
        <time>2022-02-27T13:07:06Z</time>
      </trkpt>
      <trkpt lat="46.146973427385092" lon="8.538124663755298">
        <ele>1286.0899999999999</ele>
        <time>2022-02-27T13:07:17Z</time>
      </trkpt>
      <trkpt lat="46.146891452372074" lon="8.538120472803712">
        <ele>1283.02</ele>
        <time>2022-02-27T13:07:26Z</time>
      </trkpt>
      <trkpt lat="46.146859098225832" lon="8.538095494732261">
        <ele>1281.29</ele>
        <time>2022-02-27T13:07:30Z</time>
      </trkpt>
      <trkpt lat="46.146836550906301" lon="8.538077892735601">
        <ele>1280.6700000000001</ele>
        <time>2022-02-27T13:07:40Z</time>
      </trkpt>
      <trkpt lat="46.146822804585099" lon="8.538099685683847">
        <ele>1280.7</ele>
        <time>2022-02-27T13:07:53Z</time>
      </trkpt>
      <trkpt lat="46.146791037172079" lon="8.538170345127583">
        <ele>1281.3699999999999</ele>
        <time>2022-02-27T13:08:04Z</time>
      </trkpt>
      <trkpt lat="46.146783912554383" lon="8.538192724809051">
        <ele>1280.99</ele>
        <time>2022-02-27T13:08:06Z</time>
      </trkpt>
      <trkpt lat="46.146747786551714" lon="8.538262126967311">
        <ele>1281.1800000000001</ele>
        <time>2022-02-27T13:08:13Z</time>
      </trkpt>
      <trkpt lat="46.146689532324672" lon="8.538358770310879">
        <ele>1280.29</ele>
        <time>2022-02-27T13:08:25Z</time>
      </trkpt>
      <trkpt lat="46.146630272269249" lon="8.538388106971979">
        <ele>1277.3900000000001</ele>
        <time>2022-02-27T13:08:33Z</time>
      </trkpt>
      <trkpt lat="46.146621974185109" lon="8.538381066173315">
        <ele>1278.8599999999999</ele>
        <time>2022-02-27T13:08:36Z</time>
      </trkpt>
      <trkpt lat="46.146604791283607" lon="8.538370588794351">
        <ele>1278.3499999999999</ele>
        <time>2022-02-27T13:08:49Z</time>
      </trkpt>
      <trkpt lat="46.146595571190119" lon="8.538351729512215">
        <ele>1276.99</ele>
        <time>2022-02-27T13:09:00Z</time>
      </trkpt>
      <trkpt lat="46.146577466279268" lon="8.538297917693853">
        <ele>1276.3199999999999</ele>
        <time>2022-02-27T13:09:04Z</time>
      </trkpt>
      <trkpt lat="46.146554332226515" lon="8.538260031491518">
        <ele>1276.0699999999999</ele>
        <time>2022-02-27T13:09:14Z</time>
      </trkpt>
      <trkpt lat="46.146507309749722" lon="8.538313759490848">
        <ele>1275.01</ele>
        <time>2022-02-27T13:09:26Z</time>
      </trkpt>
      <trkpt lat="46.146491467952728" lon="8.53832021355629">
        <ele>1275</ele>
        <time>2022-02-27T13:09:28Z</time>
      </trkpt>
      <trkpt lat="46.146414605900645" lon="8.538290206342936">
        <ele>1273.8299999999999</ele>
        <time>2022-02-27T13:09:39Z</time>
      </trkpt>
      <trkpt lat="46.146421395242214" lon="8.538264306262136">
        <ele>1273.9300000000001</ele>
        <time>2022-02-27T13:10:00Z</time>
      </trkpt>
      <trkpt lat="46.146425837650895" lon="8.538267156109214">
        <ele>1272.6600000000001</ele>
        <time>2022-02-27T13:10:15Z</time>
      </trkpt>
      <trkpt lat="46.146435309201479" lon="8.538251146674156">
        <ele>1273.0699999999999</ele>
        <time>2022-02-27T13:10:28Z</time>
      </trkpt>
      <trkpt lat="46.146432626992464" lon="8.538240920752287">
        <ele>1273.3399999999999</ele>
        <time>2022-02-27T13:10:45Z</time>
      </trkpt>
      <trkpt lat="46.146455425769091" lon="8.538216613233089">
        <ele>1273.3800000000001</ele>
        <time>2022-02-27T13:11:03Z</time>
      </trkpt>
      <trkpt lat="46.146447798237205" lon="8.538215607404709">
        <ele>1273.8499999999999</ele>
        <time>2022-02-27T13:11:20Z</time>
      </trkpt>
      <trkpt lat="46.146436147391796" lon="8.538222229108214">
        <ele>1273.5899999999999</ele>
        <time>2022-02-27T13:11:34Z</time>
      </trkpt>
      <trkpt lat="46.146438913419843" lon="8.538224073126912">
        <ele>1274.03</ele>
        <time>2022-02-27T13:11:53Z</time>
      </trkpt>
      <trkpt lat="46.146441930904984" lon="8.538230862468481">
        <ele>1273.97</ele>
        <time>2022-02-27T13:12:15Z</time>
      </trkpt>
      <trkpt lat="46.146444780752063" lon="8.538224995136261">
        <ele>1273.8800000000001</ele>
        <time>2022-02-27T13:12:31Z</time>
      </trkpt>
      <trkpt lat="46.146447127684951" lon="8.538225581869483">
        <ele>1273.9000000000001</ele>
        <time>2022-02-27T13:12:49Z</time>
      </trkpt>
      <trkpt lat="46.146447379142046" lon="8.538219379261136">
        <ele>1274.0599999999999</ele>
        <time>2022-02-27T13:13:02Z</time>
      </trkpt>
      <trkpt lat="46.146407229825854" lon="8.538197502493858">
        <ele>1273.1099999999999</ele>
        <time>2022-02-27T13:13:11Z</time>
      </trkpt>
      <trkpt lat="46.146320560947061" lon="8.538149558007717">
        <ele>1270.72</ele>
        <time>2022-02-27T13:13:22Z</time>
      </trkpt>
      <trkpt lat="46.146233472973108" lon="8.537997510284185">
        <ele>1269.1800000000001</ele>
        <time>2022-02-27T13:13:35Z</time>
      </trkpt>
      <trkpt lat="46.146117132157087" lon="8.537885611876845">
        <ele>1266.6500000000001</ele>
        <time>2022-02-27T13:13:48Z</time>
      </trkpt>
      <trkpt lat="46.146001797169447" lon="8.537765583023429">
        <ele>1264.5799999999999</ele>
        <time>2022-02-27T13:14:01Z</time>
      </trkpt>
      <trkpt lat="46.145884785801172" lon="8.537687379866839">
        <ele>1261.3800000000001</ele>
        <time>2022-02-27T13:14:13Z</time>
      </trkpt>
      <trkpt lat="46.145819071680307" lon="8.537619905546308">
        <ele>1260.3800000000001</ele>
        <time>2022-02-27T13:14:20Z</time>
      </trkpt>
      <trkpt lat="46.145789148285985" lon="8.537597442045808">
        <ele>1260.21</ele>
        <time>2022-02-27T13:14:23Z</time>
      </trkpt>
      <trkpt lat="46.145750759169459" lon="8.53757749311626">
        <ele>1259.9200000000001</ele>
        <time>2022-02-27T13:14:27Z</time>
      </trkpt>
      <trkpt lat="46.145671801641583" lon="8.537543211132288">
        <ele>1258.04</ele>
        <time>2022-02-27T13:14:36Z</time>
      </trkpt>
      <trkpt lat="46.145606255158782" lon="8.537441873922944">
        <ele>1254.7</ele>
        <time>2022-02-27T13:14:47Z</time>
      </trkpt>
      <trkpt lat="46.14555973559618" lon="8.537367861717939">
        <ele>1252.3299999999999</ele>
        <time>2022-02-27T13:14:56Z</time>
      </trkpt>
      <trkpt lat="46.145557388663292" lon="8.537308601662517">
        <ele>1251.54</ele>
        <time>2022-02-27T13:15:00Z</time>
      </trkpt>
      <trkpt lat="46.145493183284998" lon="8.537205001339316">
        <ele>1249.2</ele>
        <time>2022-02-27T13:15:12Z</time>
      </trkpt>
      <trkpt lat="46.145404921844602" lon="8.537140628322959">
        <ele>1245.79</ele>
        <time>2022-02-27T13:15:23Z</time>
      </trkpt>
      <trkpt lat="46.145363096147776" lon="8.537093354389072">
        <ele>1243.8199999999999</ele>
        <time>2022-02-27T13:15:33Z</time>
      </trkpt>
      <trkpt lat="46.145364185795188" lon="8.537015821784735">
        <ele>1243.04</ele>
        <time>2022-02-27T13:15:47Z</time>
      </trkpt>
      <trkpt lat="46.145369717851281" lon="8.537006182596088">
        <ele>1242.9400000000001</ele>
        <time>2022-02-27T13:15:48Z</time>
      </trkpt>
      <trkpt lat="46.145466361194849" lon="8.53684944100678">
        <ele>1243.6600000000001</ele>
        <time>2022-02-27T13:16:03Z</time>
      </trkpt>
      <trkpt lat="46.145548922941089" lon="8.536673337221146">
        <ele>1243.01</ele>
        <time>2022-02-27T13:16:17Z</time>
      </trkpt>
      <trkpt lat="46.145640118047595" lon="8.536501005291939">
        <ele>1242.6400000000001</ele>
        <time>2022-02-27T13:16:32Z</time>
      </trkpt>
      <trkpt lat="46.145648416131735" lon="8.536474937573075">
        <ele>1242.49</ele>
        <time>2022-02-27T13:16:34Z</time>
      </trkpt>
      <trkpt lat="46.145694516599178" lon="8.536397740244865">
        <ele>1241.1900000000001</ele>
        <time>2022-02-27T13:16:41Z</time>
      </trkpt>
      <trkpt lat="46.14572829566896" lon="8.536227168515325">
        <ele>1239.3099999999999</ele>
        <time>2022-02-27T13:16:52Z</time>
      </trkpt>
      <trkpt lat="46.145696612074971" lon="8.53614192456007">
        <ele>1237.99</ele>
        <time>2022-02-27T13:17:01Z</time>
      </trkpt>
      <trkpt lat="46.145711028948426" lon="8.535933969542384">
        <ele>1235.02</ele>
        <time>2022-02-27T13:17:15Z</time>
      </trkpt>
      <trkpt lat="46.145682698115706" lon="8.535867752507329">
        <ele>1233.4200000000001</ele>
        <time>2022-02-27T13:17:21Z</time>
      </trkpt>
      <trkpt lat="46.145608182996511" lon="8.53578133508563">
        <ele>1229.3800000000001</ele>
        <time>2022-02-27T13:17:30Z</time>
      </trkpt>
      <trkpt lat="46.145532326772809" lon="8.535714531317353">
        <ele>1226.9300000000001</ele>
        <time>2022-02-27T13:17:40Z</time>
      </trkpt>
      <trkpt lat="46.145494943484664" lon="8.53568016551435">
        <ele>1226.29</ele>
        <time>2022-02-27T13:17:52Z</time>
      </trkpt>
      <trkpt lat="46.145489411428571" lon="8.535668011754751">
        <ele>1226.3900000000001</ele>
        <time>2022-02-27T13:18:15Z</time>
      </trkpt>
      <trkpt lat="46.145492931827903" lon="8.535668263211846">
        <ele>1226.5999999999999</ele>
        <time>2022-02-27T13:18:30Z</time>
      </trkpt>
      <trkpt lat="46.145486058667302" lon="8.535654600709677">
        <ele>1226.96</ele>
        <time>2022-02-27T13:18:49Z</time>
      </trkpt>
      <trkpt lat="46.145482789725065" lon="8.535658624023199">
        <ele>1226.99</ele>
        <time>2022-02-27T13:19:01Z</time>
      </trkpt>
      <trkpt lat="46.145481783896685" lon="8.535665161907673">
        <ele>1227.78</ele>
        <time>2022-02-27T13:19:18Z</time>
      </trkpt>
      <trkpt lat="46.14548253826797" lon="8.535668598487973">
        <ele>1227.8299999999999</ele>
        <time>2022-02-27T13:19:36Z</time>
      </trkpt>
      <trkpt lat="46.145484717562795" lon="8.535680836066604">
        <ele>1228.02</ele>
        <time>2022-02-27T13:19:50Z</time>
      </trkpt>
      <trkpt lat="46.145479185506701" lon="8.535693157464266">
        <ele>1228.1099999999999</ele>
        <time>2022-02-27T13:20:03Z</time>
      </trkpt>
      <trkpt lat="46.145473904907703" lon="8.53569676168263">
        <ele>1228.1900000000001</ele>
        <time>2022-02-27T13:20:19Z</time>
      </trkpt>
      <trkpt lat="46.145457727834582" lon="8.535727858543396">
        <ele>1227.8599999999999</ele>
        <time>2022-02-27T13:20:32Z</time>
      </trkpt>
      <trkpt lat="46.145400563254952" lon="8.535804804414511">
        <ele>1226.8</ele>
        <time>2022-02-27T13:20:41Z</time>
      </trkpt>
      <trkpt lat="46.14529000595212" lon="8.535953499376774">
        <ele>1226.28</ele>
        <time>2022-02-27T13:20:56Z</time>
      </trkpt>
      <trkpt lat="46.145268883556128" lon="8.535989038646221">
        <ele>1225.97</ele>
        <time>2022-02-27T13:21:05Z</time>
      </trkpt>
      <trkpt lat="46.145239043980837" lon="8.536050897091627">
        <ele>1225.9000000000001</ele>
        <time>2022-02-27T13:21:10Z</time>
      </trkpt>
      <trkpt lat="46.145160673186183" lon="8.536204202100635">
        <ele>1226.46</ele>
        <time>2022-02-27T13:21:24Z</time>
      </trkpt>
      <trkpt lat="46.145083894953132" lon="8.536275196820498">
        <ele>1226.6700000000001</ele>
        <time>2022-02-27T13:21:39Z</time>
      </trkpt>
      <trkpt lat="46.145090851932764" lon="8.536205207929015">
        <ele>1226.8499999999999</ele>
        <time>2022-02-27T13:21:49Z</time>
      </trkpt>
      <trkpt lat="46.145095797255635" lon="8.536191126331687">
        <ele>1226.99</ele>
        <time>2022-02-27T13:22:01Z</time>
      </trkpt>
      <trkpt lat="46.145093366503716" lon="8.536188527941704">
        <ele>1227.0599999999999</ele>
        <time>2022-02-27T13:22:15Z</time>
      </trkpt>
      <trkpt lat="46.14510434679687" lon="8.536193808540702">
        <ele>1225.76</ele>
        <time>2022-02-27T13:22:26Z</time>
      </trkpt>
      <trkpt lat="46.145110800862312" lon="8.536201603710651">
        <ele>1226.1500000000001</ele>
        <time>2022-02-27T13:23:13Z</time>
      </trkpt>
      <trkpt lat="46.145094791427255" lon="8.536211159080267">
        <ele>1225.8099999999999</ele>
        <time>2022-02-27T13:23:50Z</time>
      </trkpt>
      <trkpt lat="46.145091187208891" lon="8.536221887916327">
        <ele>1225.72</ele>
        <time>2022-02-27T13:24:20Z</time>
      </trkpt>
      <trkpt lat="46.145102838054299" lon="8.536214511841536">
        <ele>1225.9200000000001</ele>
        <time>2022-02-27T13:25:03Z</time>
      </trkpt>
      <trkpt lat="46.145105687901378" lon="8.53621618822217">
        <ele>1225.6300000000001</ele>
        <time>2022-02-27T13:25:45Z</time>
      </trkpt>
      <trkpt lat="46.145099317654967" lon="8.536226497963071">
        <ele>1225.9000000000001</ele>
        <time>2022-02-27T13:26:32Z</time>
      </trkpt>
      <trkpt lat="46.145094204694033" lon="8.536219876259565">
        <ele>1225.74</ele>
        <time>2022-02-27T13:27:19Z</time>
      </trkpt>
      <trkpt lat="46.145089846104383" lon="8.536212667822838">
        <ele>1226.0699999999999</ele>
        <time>2022-02-27T13:27:53Z</time>
      </trkpt>
      <trkpt lat="46.145091438665986" lon="8.536187522113323">
        <ele>1225.6199999999999</ele>
        <time>2022-02-27T13:28:20Z</time>
      </trkpt>
      <trkpt lat="46.145096886903048" lon="8.536185007542372">
        <ele>1225.6900000000001</ele>
        <time>2022-02-27T13:28:42Z</time>
      </trkpt>
      <trkpt lat="46.145084230229259" lon="8.536184839904308">
        <ele>1225.3499999999999</ele>
        <time>2022-02-27T13:29:28Z</time>
      </trkpt>
      <trkpt lat="46.145082134753466" lon="8.536190120503306">
        <ele>1225.4300000000001</ele>
        <time>2022-02-27T13:30:11Z</time>
      </trkpt>
      <trkpt lat="46.145086325705051" lon="8.536187019199133">
        <ele>1225.77</ele>
        <time>2022-02-27T13:30:53Z</time>
      </trkpt>
      <trkpt lat="46.145085571333766" lon="8.536191880702972">
        <ele>1225.5599999999999</ele>
        <time>2022-02-27T13:31:30Z</time>
      </trkpt>
      <trkpt lat="46.145091773942113" lon="8.536183414980769">
        <ele>1225.3900000000001</ele>
        <time>2022-02-27T13:32:07Z</time>
      </trkpt>
      <trkpt lat="46.145090935751796" lon="8.536175703629851">
        <ele>1225.3599999999999</ele>
        <time>2022-02-27T13:32:51Z</time>
      </trkpt>
      <trkpt lat="46.145075345411897" lon="8.536179224029183">
        <ele>1225.4300000000001</ele>
        <time>2022-02-27T13:33:27Z</time>
      </trkpt>
      <trkpt lat="46.145075177773833" lon="8.536199927330017">
        <ele>1225.47</ele>
        <time>2022-02-27T13:34:14Z</time>
      </trkpt>
      <trkpt lat="46.145075261592865" lon="8.536196239292622">
        <ele>1225.0999999999999</ele>
        <time>2022-02-27T13:35:12Z</time>
      </trkpt>
      <trkpt lat="46.145076267421246" lon="8.536205627024174">
        <ele>1224.8599999999999</ele>
        <time>2022-02-27T13:36:09Z</time>
      </trkpt>
      <trkpt lat="46.145081799477339" lon="8.53619858622551">
        <ele>1224.76</ele>
        <time>2022-02-27T13:37:06Z</time>
      </trkpt>
      <trkpt lat="46.145090013742447" lon="8.536205124109983">
        <ele>1225.3499999999999</ele>
        <time>2022-02-27T13:37:56Z</time>
      </trkpt>
      <trkpt lat="46.145088337361813" lon="8.53620202280581">
        <ele>1224.8900000000001</ele>
        <time>2022-02-27T13:38:37Z</time>
      </trkpt>
      <trkpt lat="46.145086409524083" lon="8.536187438294292">
        <ele>1224.8599999999999</ele>
        <time>2022-02-27T13:39:22Z</time>
      </trkpt>
      <trkpt lat="46.145079620182514" lon="8.536185342818499">
        <ele>1224.52</ele>
        <time>2022-02-27T13:39:59Z</time>
      </trkpt>
      <trkpt lat="46.145091354846954" lon="8.536201603710651">
        <ele>1224.8199999999999</ele>
        <time>2022-02-27T13:40:42Z</time>
      </trkpt>
      <trkpt lat="46.145090684294701" lon="8.536195736378431">
        <ele>1224.79</ele>
        <time>2022-02-27T13:41:23Z</time>
      </trkpt>
      <trkpt lat="46.145089343190193" lon="8.536193557083607">
        <ele>1224.49</ele>
        <time>2022-02-27T13:42:02Z</time>
      </trkpt>
      <trkpt lat="46.145089594647288" lon="8.536191377788782">
        <ele>1224.5699999999999</ele>
        <time>2022-02-27T13:42:50Z</time>
      </trkpt>
      <trkpt lat="46.145085236057639" lon="8.536201016977429">
        <ele>1224.7</ele>
        <time>2022-02-27T13:43:20Z</time>
      </trkpt>
      <trkpt lat="46.145083643496037" lon="8.536205627024174">
        <ele>1224.8399999999999</ele>
        <time>2022-02-27T13:43:46Z</time>
      </trkpt>
      <trkpt lat="46.145089594647288" lon="8.536199256777763">
        <ele>1225.01</ele>
        <time>2022-02-27T13:44:19Z</time>
      </trkpt>
      <trkpt lat="46.145103592425585" lon="8.536192551255226">
        <ele>1225.45</ele>
        <time>2022-02-27T13:45:06Z</time>
      </trkpt>
      <trkpt lat="46.145103424787521" lon="8.536194395273924">
        <ele>1225.71</ele>
        <time>2022-02-27T13:45:46Z</time>
      </trkpt>
      <trkpt lat="46.145110465586185" lon="8.536183331161737">
        <ele>1225.77</ele>
        <time>2022-02-27T13:46:26Z</time>
      </trkpt>
      <trkpt lat="46.145125888288021" lon="8.536175452172756">
        <ele>1225.9000000000001</ele>
        <time>2022-02-27T13:47:13Z</time>
      </trkpt>
      <trkpt lat="46.145137790590525" lon="8.536172183230519">
        <ele>1225.8199999999999</ele>
        <time>2022-02-27T13:47:55Z</time>
      </trkpt>
      <trkpt lat="46.145134270191193" lon="8.536178637295961">
        <ele>1225.6099999999999</ele>
        <time>2022-02-27T13:48:34Z</time>
      </trkpt>
      <trkpt lat="46.145130498334765" lon="8.536180565133691">
        <ele>1225.6600000000001</ele>
        <time>2022-02-27T13:49:10Z</time>
      </trkpt>
      <trkpt lat="46.145129911601543" lon="8.536184085533023">
        <ele>1225.74</ele>
        <time>2022-02-27T13:49:52Z</time>
      </trkpt>
      <trkpt lat="46.145127564668655" lon="8.536187019199133">
        <ele>1226.0999999999999</ele>
        <time>2022-02-27T13:50:27Z</time>
      </trkpt>
      <trkpt lat="46.145128654316068" lon="8.536178385838866">
        <ele>1226.3</ele>
        <time>2022-02-27T13:51:09Z</time>
      </trkpt>
      <trkpt lat="46.145130749791861" lon="8.536189952865243">
        <ele>1226.1099999999999</ele>
        <time>2022-02-27T13:51:57Z</time>
      </trkpt>
      <trkpt lat="46.145122535526752" lon="8.536191545426846">
        <ele>1226.1199999999999</ele>
        <time>2022-02-27T13:52:39Z</time>
      </trkpt>
      <trkpt lat="46.145129576325417" lon="8.536188276484609">
        <ele>1226.1300000000001</ele>
        <time>2022-02-27T13:53:21Z</time>
      </trkpt>
      <trkpt lat="46.145134689286351" lon="8.536183750256896">
        <ele>1226.1400000000001</ele>
        <time>2022-02-27T13:54:02Z</time>
      </trkpt>
      <trkpt lat="46.145145585760474" lon="8.536186432465911">
        <ele>1227.5599999999999</ele>
        <time>2022-02-27T13:54:18Z</time>
      </trkpt>
      <trkpt lat="46.145125804468989" lon="8.536219205707312">
        <ele>1227.9300000000001</ele>
        <time>2022-02-27T13:54:28Z</time>
      </trkpt>
      <trkpt lat="46.145148184150457" lon="8.536252398043871">
        <ele>1228.04</ele>
        <time>2022-02-27T13:54:40Z</time>
      </trkpt>
      <trkpt lat="46.145187746733427" lon="8.536188444122672">
        <ele>1226.95</ele>
        <time>2022-02-27T13:54:51Z</time>
      </trkpt>
      <trkpt lat="46.14519277587533" lon="8.536159861832857">
        <ele>1226.9300000000001</ele>
        <time>2022-02-27T13:55:03Z</time>
      </trkpt>
      <trkpt lat="46.145213395357132" lon="8.536122813820839">
        <ele>1226.6800000000001</ele>
        <time>2022-02-27T13:55:07Z</time>
      </trkpt>
      <trkpt lat="46.14523870870471" lon="8.536056932061911">
        <ele>1226.4400000000001</ele>
        <time>2022-02-27T13:55:12Z</time>
      </trkpt>
      <trkpt lat="46.145277433097363" lon="8.535973867401481">
        <ele>1226.6099999999999</ele>
        <time>2022-02-27T13:55:20Z</time>
      </trkpt>
      <trkpt lat="46.145290760323405" lon="8.535950565710664">
        <ele>1226.6600000000001</ele>
        <time>2022-02-27T13:55:22Z</time>
      </trkpt>
      <trkpt lat="46.145338956266642" lon="8.535866159945726">
        <ele>1226.8099999999999</ele>
        <time>2022-02-27T13:55:31Z</time>
      </trkpt>
      <trkpt lat="46.145438281819224" lon="8.535750573500991">
        <ele>1227.3699999999999</ele>
        <time>2022-02-27T13:55:44Z</time>
      </trkpt>
      <trkpt lat="46.145542301237583" lon="8.53562350384891">
        <ele>1228.1700000000001</ele>
        <time>2022-02-27T13:55:58Z</time>
      </trkpt>
      <trkpt lat="46.145547665655613" lon="8.535614786669612">
        <ele>1228.3399999999999</ele>
        <time>2022-02-27T13:55:59Z</time>
      </trkpt>
      <trkpt lat="46.1456657666713" lon="8.535449411720038">
        <ele>1227.3099999999999</ele>
        <time>2022-02-27T13:56:14Z</time>
      </trkpt>
      <trkpt lat="46.145837511867285" lon="8.53532393462956">
        <ele>1226.9000000000001</ele>
        <time>2022-02-27T13:56:30Z</time>
      </trkpt>
      <trkpt lat="46.14590129815042" lon="8.535309182479978">
        <ele>1226.8299999999999</ele>
        <time>2022-02-27T13:56:35Z</time>
      </trkpt>
      <trkpt lat="46.145983692258596" lon="8.535360898822546">
        <ele>1226.8900000000001</ele>
        <time>2022-02-27T13:56:43Z</time>
      </trkpt>
      <trkpt lat="46.146096009761095" lon="8.535503055900335">
        <ele>1226.4300000000001</ele>
        <time>2022-02-27T13:56:57Z</time>
      </trkpt>
      <trkpt lat="46.146238669753075" lon="8.535630879923701">
        <ele>1225</ele>
        <time>2022-02-27T13:57:12Z</time>
      </trkpt>
      <trkpt lat="46.146363560110331" lon="8.535722075030208">
        <ele>1223.9100000000001</ele>
        <time>2022-02-27T13:57:23Z</time>
      </trkpt>
      <trkpt lat="46.146386861801147" lon="8.53573439642787">
        <ele>1223.75</ele>
        <time>2022-02-27T13:57:25Z</time>
      </trkpt>
      <trkpt lat="46.146543938666582" lon="8.535795835778117">
        <ele>1222.47</ele>
        <time>2022-02-27T13:57:38Z</time>
      </trkpt>
      <trkpt lat="46.146568665280938" lon="8.535825423896313">
        <ele>1222.0999999999999</ele>
        <time>2022-02-27T13:57:41Z</time>
      </trkpt>
      <trkpt lat="46.146712247282267" lon="8.535816790536046">
        <ele>1220.5699999999999</ele>
        <time>2022-02-27T13:57:53Z</time>
      </trkpt>
      <trkpt lat="46.146763963624835" lon="8.535775970667601">
        <ele>1220.28</ele>
        <time>2022-02-27T13:57:57Z</time>
      </trkpt>
      <trkpt lat="46.146916598081589" lon="8.535691732540727">
        <ele>1218.6700000000001</ele>
        <time>2022-02-27T13:58:10Z</time>
      </trkpt>
      <trkpt lat="46.147057749330997" lon="8.535631215199828">
        <ele>1215.6400000000001</ele>
        <time>2022-02-27T13:58:23Z</time>
      </trkpt>
      <trkpt lat="46.147170318290591" lon="8.535485537722707">
        <ele>1213.8399999999999</ele>
        <time>2022-02-27T13:58:37Z</time>
      </trkpt>
      <trkpt lat="46.147146262228489" lon="8.535389229655266">
        <ele>1213.3299999999999</ele>
        <time>2022-02-27T13:58:43Z</time>
      </trkpt>
      <trkpt lat="46.147108795121312" lon="8.535340614616871">
        <ele>1213.72</ele>
        <time>2022-02-27T13:58:49Z</time>
      </trkpt>
      <trkpt lat="46.147066466510296" lon="8.535314043983817">
        <ele>1213.3800000000001</ele>
        <time>2022-02-27T13:58:54Z</time>
      </trkpt>
      <trkpt lat="46.146927159279585" lon="8.535191332921386">
        <ele>1212.8800000000001</ele>
        <time>2022-02-27T13:59:08Z</time>
      </trkpt>
      <trkpt lat="46.146825738251209" lon="8.534981366246939">
        <ele>1211.71</ele>
        <time>2022-02-27T13:59:23Z</time>
      </trkpt>
      <trkpt lat="46.14679304882884" lon="8.534820768982172">
        <ele>1210.5999999999999</ele>
        <time>2022-02-27T13:59:34Z</time>
      </trkpt>
      <trkpt lat="46.146775530651212" lon="8.53470778092742">
        <ele>1209.52</ele>
        <time>2022-02-27T13:59:48Z</time>
      </trkpt>
      <trkpt lat="46.146783661097288" lon="8.53472295217216">
        <ele>1209.6600000000001</ele>
        <time>2022-02-27T14:00:12Z</time>
      </trkpt>
      <trkpt lat="46.146800592541695" lon="8.53472588583827">
        <ele>1209.4400000000001</ele>
        <time>2022-02-27T14:00:41Z</time>
      </trkpt>
      <trkpt lat="46.146792881190777" lon="8.534720940515399">
        <ele>1209.05</ele>
        <time>2022-02-27T14:01:04Z</time>
      </trkpt>
      <trkpt lat="46.146780559793115" lon="8.534728232771158">
        <ele>1209.52</ele>
        <time>2022-02-27T14:01:32Z</time>
      </trkpt>
      <trkpt lat="46.146778464317322" lon="8.534751115366817">
        <ele>1209.6500000000001</ele>
        <time>2022-02-27T14:02:16Z</time>
      </trkpt>
      <trkpt lat="46.146775614470243" lon="8.534731417894363">
        <ele>1211.77</ele>
        <time>2022-02-27T14:02:27Z</time>
      </trkpt>
      <trkpt lat="46.146786846220493" lon="8.534709457308054">
        <ele>1210.49</ele>
        <time>2022-02-27T14:02:40Z</time>
      </trkpt>
    </trkseg>
  </trk>

</gpx>